Darstellungsparameter: Aktuell verwendete Einstellungen:
Skalierung der Graphiken ... ?
xyx+y,   Skalierungsfaktor:      Skalierung: Modus: x, Faktor: 1
Darstellungszeitraum ... ?
Vom - - bis: - -   Zeitraum: 26.02.2003 - 02.03.2003
Min/Max/Avg-Anzeige ... ?
Zeige MMA aktuell
Zeige MMA Monat
Zeige MMA alles
Zeige --A aktuell
Zeige --A Monat
Zeige --A alles
Keine MMA-Anzeige
MMA:
Average (ber die Originaldaten)
MMA-Basis: 26.02.2003 - 02.03.2003
Quicknavigation für Darstellung... ?
Tage:      1T, 2T, 3T, 5T -1T -2T -3T -5T +1T +2T +3T +5T
Wochen: 1W, 2W, 3W -1W -2W -3W +1W +2W +3W
Monate: 1M, 3M, 6M -1M -3M -6M +1M +3M +6M
Jahre:    1J, 3J, 5J, 10J -1J -3J -5J -10J +1J +3J +5J +10J
Nutze für die Darstellung ... ?
Originaldaten oder Mittelwerte auf ...
Stundenbasis Tagesbasis Wochenbasis
Monatsbasis Jahresbasis      Datenbasis: Original-Daten
Darstellen als:
Statistik (Auto) Statistik J:M      Darstellung:
Zur Graphik,    zurück zur Übersicht aller Sensoren.
 
Tabellarische Datenbersicht: ?
 
Sensor: Nr:Datum:Temp:Abs-Feuchte:Windchill:Wind:
Aussen-T/F 1 26-02-2003 00:04:10 -2 C 2.78 g/m*3 -2 C 0 km/h
2 26-02-2003 00:10:10 -2.1 C 2.8 g/m*3 -2.1 C 0 km/h
3 26-02-2003 00:16:10 -2.1 C 2.85 g/m*3 -2.1 C 0 km/h
4 26-02-2003 00:22:10 -2.2 C 2.78 g/m*3 -2.2 C 0 km/h
5 26-02-2003 00:28:10 -2.3 C 2.81 g/m*3 -2.3 C 0 km/h
6 26-02-2003 00:34:10 -2.2 C 2.87 g/m*3 -2.2 C 0 km/h
7 26-02-2003 00:40:10 -2.3 C 2.85 g/m*3 -2.3 C 0 km/h
8 26-02-2003 00:46:10 -2.3 C 2.85 g/m*3 -2.3 C 0 km/h
9 26-02-2003 00:52:10 -2.4 C 2.83 g/m*3 -2.4 C 0 km/h
10 26-02-2003 00:58:10 -2.5 C 2.81 g/m*3 -2.5 C 0 km/h
11 26-02-2003 01:04:10 -2.6 C 2.83 g/m*3 -2.6 C 0 km/h
12 26-02-2003 01:10:10 -2.7 C 2.81 g/m*3 -2.7 C 0 km/h
13 26-02-2003 01:16:10 -2.8 C 2.79 g/m*3 -2.8 C 0 km/h
14 26-02-2003 01:22:10 -2.9 C 2.77 g/m*3 -2.9 C 0 km/h
15 26-02-2003 01:28:10 -2.7 C 2.81 g/m*3 -2.7 C 0 km/h
16 26-02-2003 01:34:10 -2.7 C 2.85 g/m*3 -2.7 C 0 km/h
17 26-02-2003 01:40:10 -2.8 C 2.83 g/m*3 -2.8 C 0 km/h
18 26-02-2003 01:46:10 -2.9 C 2.81 g/m*3 -2.9 C 0 km/h
19 26-02-2003 01:52:10 -3 C 2.79 g/m*3 -3 C 0 km/h
20 26-02-2003 01:58:10 -3 C 2.79 g/m*3 -3 C 0 km/h
21 26-02-2003 02:04:10 -2.7 C 2.85 g/m*3 -2.7 C 0 km/h
22 26-02-2003 02:10:10 -2.8 C 2.83 g/m*3 -2.8 C 0 km/h
23 26-02-2003 02:16:10 -3 C 2.79 g/m*3 -3 C 0 km/h
24 26-02-2003 02:22:10 -3.1 C 2.73 g/m*3 -3.1 C 0 km/h
25 26-02-2003 02:28:10 -3.3 C 2.69 g/m*3 -3.3 C 0 km/h
Sensor: Nr:Datum:Temp:Abs-Feuchte:Windchill:Wind:
Aussen-T/F 26 26-02-2003 02:34:10 -3.4 C 2.67 g/m*3 -3.4 C 0 km/h
27 26-02-2003 02:40:10 -3.3 C 2.73 g/m*3 -3.3 C 0 km/h
28 26-02-2003 02:46:10 -3.4 C 2.71 g/m*3 -3.4 C 0 km/h
29 26-02-2003 02:52:10 -3.4 C 2.71 g/m*3 -3.4 C 0 km/h
30 26-02-2003 02:58:10 -3.6 C 2.67 g/m*3 -3.6 C 0 km/h
31 26-02-2003 03:04:10 -3.5 C 2.69 g/m*3 -3.5 C 0 km/h
32 26-02-2003 03:10:10 -3.6 C 2.71 g/m*3 -3.6 C 0 km/h
33 26-02-2003 03:16:10 -3.6 C 2.71 g/m*3 -3.6 C 0 km/h
34 26-02-2003 03:22:10 -3.7 C 2.69 g/m*3 -3.7 C 0 km/h
35 26-02-2003 03:28:10 -3.8 C 2.67 g/m*3 -3.8 C 0 km/h
36 26-02-2003 03:34:10 -3.8 C 2.71 g/m*3 -3.8 C 0 km/h
37 26-02-2003 03:40:10 -3.8 C 2.71 g/m*3 -3.8 C 0 km/h
38 26-02-2003 03:46:10 -3.8 C 2.71 g/m*3 -3.8 C 0 km/h
39 26-02-2003 03:52:10 -3.8 C 2.71 g/m*3 -3.8 C 0 km/h
40 26-02-2003 03:58:10 -3.8 C 2.71 g/m*3 -3.8 C 0 km/h
41 26-02-2003 04:04:10 -3.9 C 2.65 g/m*3 -3.9 C 0 km/h
42 26-02-2003 04:10:10 -3.9 C 2.65 g/m*3 -3.9 C 0 km/h
43 26-02-2003 04:16:10 -3.9 C 2.65 g/m*3 -3.9 C 0 km/h
44 26-02-2003 04:22:10 -3.8 C 2.71 g/m*3 -3.8 C 0 km/h
45 26-02-2003 04:28:10 -3.6 C 2.71 g/m*3 -3.6 C 0 km/h
46 26-02-2003 04:34:10 -3.7 C 2.69 g/m*3 -3.7 C 0 km/h
47 26-02-2003 04:40:10 -3.8 C 2.67 g/m*3 -3.8 C 0 km/h
48 26-02-2003 04:46:10 -3.7 C 2.69 g/m*3 -3.7 C 0 km/h
49 26-02-2003 04:52:10 -3.8 C 2.67 g/m*3 -3.8 C 0 km/h
50 26-02-2003 04:58:10 -3.9 C 2.65 g/m*3 -3.9 C 0 km/h
Sensor: Nr:Datum:Temp:Abs-Feuchte:Windchill:Wind:
Aussen-T/F 51 26-02-2003 05:04:10 -3.9 C 2.69 g/m*3 -3.9 C 0 km/h
52 26-02-2003 05:10:10 -4 C 2.63 g/m*3 -4 C 0 km/h
53 26-02-2003 05:16:10 -4.1 C 2.62 g/m*3 -4.1 C 0 km/h
54 26-02-2003 05:22:10 -4.1 C 2.65 g/m*3 -4.1 C 0 km/h
55 26-02-2003 05:28:10 -4.1 C 2.65 g/m*3 -4.1 C 0 km/h
56 26-02-2003 05:34:10 -4.1 C 2.69 g/m*3 -4.1 C 0 km/h
57 26-02-2003 05:40:10 -4.2 C 2.63 g/m*3 -4.2 C 0 km/h
58 26-02-2003 05:46:10 -4.2 C 2.67 g/m*3 -4.2 C 0 km/h
59 26-02-2003 05:52:10 -4.3 C 2.61 g/m*3 -4.3 C 0 km/h
60 26-02-2003 05:58:10 -4.3 C 2.61 g/m*3 -4.3 C 0 km/h
61 26-02-2003 06:04:10 -4.2 C 2.67 g/m*3 -4.2 C 0 km/h
62 26-02-2003 06:10:10 -4.2 C 2.63 g/m*3 -4.2 C 0 km/h
63 26-02-2003 06:16:10 -4.2 C 2.67 g/m*3 -4.2 C 0 km/h
64 26-02-2003 06:22:10 -4.2 C 2.67 g/m*3 -4.2 C 0 km/h
65 26-02-2003 06:28:10 -4.1 C 2.69 g/m*3 -4.1 C 0 km/h
66 26-02-2003 06:34:10 -4 C 2.71 g/m*3 -4 C 0 km/h
67 26-02-2003 06:40:10 -4.2 C 2.63 g/m*3 -4.2 C 0 km/h
68 26-02-2003 06:46:10 -4.4 C 2.6 g/m*3 -4.4 C 0 km/h
69 26-02-2003 06:52:10 -4.4 C 2.6 g/m*3 -4.4 C 0 km/h
70 26-02-2003 06:58:10 -4.7 C 2.54 g/m*3 -4.7 C 0 km/h
71 26-02-2003 07:04:10 -4.7 C 2.54 g/m*3 -4.7 C 0 km/h
72 26-02-2003 07:10:10 -4.8 C 2.56 g/m*3 -4.8 C 0 km/h
73 26-02-2003 07:16:10 -4.7 C 2.57 g/m*3 -4.7 C 0 km/h
74 26-02-2003 07:22:10 -4.8 C 2.56 g/m*3 -4.8 C 0 km/h
75 26-02-2003 07:28:10 -4.8 C 2.56 g/m*3 -4.8 C 0 km/h
Sensor: Nr:Datum:Temp:Abs-Feuchte:Windchill:Wind:
Aussen-T/F 76 26-02-2003 07:34:10 -4.8 C 2.59 g/m*3 -4.8 C 0 km/h
77 26-02-2003 07:40:10 -4.8 C 2.59 g/m*3 -4.8 C 0 km/h
78 26-02-2003 07:46:10 -4.6 C 2.66 g/m*3 -4.6 C 0 km/h
79 26-02-2003 07:52:10 -4.4 C 2.7 g/m*3 -4.4 C 0 km/h
80 26-02-2003 07:58:10 -4.4 C 2.7 g/m*3 -4.4 C 0 km/h
81 26-02-2003 08:04:10 -4.4 C 2.7 g/m*3 -4.4 C 0 km/h
82 26-02-2003 08:10:10 -4.4 C 2.7 g/m*3 -4.4 C 0 km/h
83 26-02-2003 08:16:10 -4.4 C 2.67 g/m*3 -4.4 C 0 km/h
84 26-02-2003 08:22:10 -4.3 C 2.69 g/m*3 -4.3 C 0 km/h
85 26-02-2003 08:28:10 -4.3 C 2.69 g/m*3 -4.3 C 0 km/h
86 26-02-2003 08:34:10 -4.2 C 2.7 g/m*3 -4.2 C 0 km/h
87 26-02-2003 08:40:10 -4 C 2.74 g/m*3 -4 C 0 km/h
88 26-02-2003 08:46:10 -3.8 C 2.78 g/m*3 -3.8 C 0 km/h
89 26-02-2003 08:52:10 -3.6 C 2.82 g/m*3 -3.6 C 0 km/h
90 26-02-2003 08:58:10 -3.4 C 2.86 g/m*3 -3.4 C 0 km/h
91 26-02-2003 09:04:10 -3.2 C 2.87 g/m*3 -3.2 C 0 km/h
92 26-02-2003 09:10:10 -2.8 C 2.87 g/m*3 -2.8 C 0 km/h
93 26-02-2003 09:16:10 -2.5 C 2.89 g/m*3 -2.5 C 0 km/h
94 26-02-2003 09:22:10 -2.2 C 2.91 g/m*3 -2.2 C 0 km/h
95 26-02-2003 09:28:10 -1.8 C 2.95 g/m*3 -1.8 C 0 km/h
96 26-02-2003 09:34:10 -1.8 C 2.91 g/m*3 -1.8 C 0 km/h
97 26-02-2003 09:40:10 -1.3 C 3.01 g/m*3 -1.3 C 0 km/h
98 26-02-2003 09:46:10 -0.9 C 3.1 g/m*3 -0.9 C 0 km/h
99 26-02-2003 09:52:10 -0.9 C 3 g/m*3 -0.9 C 0 km/h
100 26-02-2003 09:58:10 -0.9 C 3 g/m*3 -0.9 C 0 km/h
Sensor: Nr:Datum:Temp:Abs-Feuchte:Windchill:Wind:
Aussen-T/F 101 26-02-2003 10:04:10 -0.8 C 3.07 g/m*3 -0.8 C 0 km/h
102 26-02-2003 10:10:10 -0.6 C 3.11 g/m*3 -0.6 C 0 km/h
103 26-02-2003 10:16:10 -0.2 C 3.15 g/m*3 -0.2 C 0 km/h
104 26-02-2003 10:22:10 -0.2 C 3.11 g/m*3 -0.2 C 0 km/h
105 26-02-2003 10:28:10 -0.1 C 3.13 g/m*3 -0.1 C 0 km/h
106 26-02-2003 10:34:10 -0.2 C 3.11 g/m*3 -0.2 C 0 km/h
107 26-02-2003 10:40:10 0.4 C 3.19 g/m*3 0.4 C 0 km/h
108 26-02-2003 10:46:10 0.4 C 3.19 g/m*3 0.4 C 0 km/h
109 26-02-2003 10:52:10 0.3 C 3.17 g/m*3 0.3 C 0 km/h
110 26-02-2003 10:58:10 0.4 C 3.24 g/m*3 0.4 C 0 km/h
111 26-02-2003 11:04:10 0.6 C 3.23 g/m*3 0.6 C 0 km/h
112 26-02-2003 11:10:10 0.8 C 3.28 g/m*3 0.8 C 0 km/h
113 26-02-2003 11:16:10 1 C 3.17 g/m*3 1 C 0 km/h
114 26-02-2003 11:22:10 0.8 C 3.17 g/m*3 0.8 C 0 km/h
115 26-02-2003 11:28:10 0.8 C 3.17 g/m*3 0.8 C 0 km/h
116 26-02-2003 11:34:10 1 C 3.17 g/m*3 1 C 0 km/h
117 26-02-2003 11:40:10 1.2 C 3.26 g/m*3 1.2 C 0 km/h
118 26-02-2003 11:46:10 1.2 C 3.26 g/m*3 1.2 C 0 km/h
119 26-02-2003 11:52:10 1.1 C 3.34 g/m*3 1.1 C 0 km/h
120 26-02-2003 11:58:10 1.1 C 3.34 g/m*3 1.1 C 0 km/h
121 26-02-2003 12:04:10 1.2 C 3.37 g/m*3 1.2 C 0 km/h
122 26-02-2003 12:10:10 1.6 C 3.41 g/m*3 1.6 C 0 km/h
123 26-02-2003 12:16:10 2.1 C 3.36 g/m*3 2.1 C 0 km/h
124 26-02-2003 12:22:10 2.4 C 3.43 g/m*3 2.4 C 0 km/h
125 26-02-2003 12:28:10 2.6 C 3.41 g/m*3 2.6 C 0 km/h
Sensor: Nr:Datum:Temp:Abs-Feuchte:Windchill:Wind:
Aussen-T/F 126 26-02-2003 12:34:10 2.7 C 3.38 g/m*3 2.7 C 0 km/h
127 26-02-2003 12:40:10 2.7 C 3.38 g/m*3 2.7 C 0 km/h
128 26-02-2003 12:46:10 2.8 C 3.46 g/m*3 2.8 C 0 km/h
129 26-02-2003 12:52:10 3.3 C 3.58 g/m*3 3.3 C 0 km/h
130 26-02-2003 12:58:10 3.7 C 3.55 g/m*3 3.7 C 0 km/h
131 26-02-2003 13:04:10 4 C 3.5 g/m*3 4 C 0 km/h
132 26-02-2003 13:10:10 4.2 C 3.48 g/m*3 4.2 C 0 km/h
133 26-02-2003 13:16:10 4.1 C 3.46 g/m*3 4.1 C 0 km/h
134 26-02-2003 13:22:10 4.4 C 3.46 g/m*3 4.4 C 0 km/h
135 26-02-2003 13:28:10 4.5 C 3.42 g/m*3 4.5 C 0 km/h
136 26-02-2003 13:34:10 4.5 C 3.35 g/m*3 4.5 C 0 km/h
137 26-02-2003 13:40:10 4.7 C 3.46 g/m*3 4.7 C 0 km/h
138 26-02-2003 13:46:10 5.2 C 3.51 g/m*3 5.2 C 0 km/h
139 26-02-2003 13:52:10 5.4 C 3.56 g/m*3 5.4 C 0 km/h
140 26-02-2003 13:58:10 5.7 C 3.56 g/m*3 5.7 C 0 km/h
141 26-02-2003 14:04:10 5.9 C 3.61 g/m*3 5.9 C 0 km/h
142 26-02-2003 14:08:10 5.9 C 3.61 g/m*3 5.9 C 0 km/h
143 26-02-2003 14:10:10 6.3 C 3.63 g/m*3 6.3 C 0 km/h
144 26-02-2003 14:14:10 6.3 C 3.63 g/m*3 6.3 C 0 km/h
145 26-02-2003 14:16:10 6.6 C 3.7 g/m*3 6.6 C 0 km/h
146 26-02-2003 14:20:10 6.6 C 3.7 g/m*3 6.6 C 0 km/h
147 26-02-2003 14:22:10 6.5 C 3.67 g/m*3 6.5 C 0 km/h
148 26-02-2003 14:26:10 6.5 C 3.67 g/m*3 6.5 C 0 km/h
149 26-02-2003 14:28:10 6.6 C 3.7 g/m*3 6.6 C 0 km/h
150 26-02-2003 14:32:10 6.6 C 3.7 g/m*3 6.6 C 0 km/h
Sensor: Nr:Datum:Temp:Abs-Feuchte:Windchill:Wind:
Aussen-T/F 151 26-02-2003 14:34:10 6.4 C 3.65 g/m*3 6.4 C 0 km/h
152 26-02-2003 14:38:10 6.4 C 3.65 g/m*3 6.4 C 0 km/h
153 26-02-2003 14:40:10 6.4 C 3.58 g/m*3 6.4 C 0 km/h
154 26-02-2003 14:44:10 6.4 C 3.58 g/m*3 6.4 C 0 km/h
155 26-02-2003 14:46:10 6.4 C 3.58 g/m*3 6.4 C 0 km/h
156 26-02-2003 14:50:10 6.4 C 3.58 g/m*3 6.4 C 0 km/h
157 26-02-2003 14:52:10 6.4 C 3.58 g/m*3 6.4 C 0 km/h
158 26-02-2003 14:56:10 6.4 C 3.58 g/m*3 6.4 C 0 km/h
159 26-02-2003 14:58:10 6.5 C 3.52 g/m*3 6.5 C 0 km/h
160 26-02-2003 15:02:10 6.5 C 3.52 g/m*3 6.5 C 0 km/h
161 26-02-2003 15:04:10 6.4 C 3.5 g/m*3 6.4 C 0 km/h
162 26-02-2003 15:08:10 6.4 C 3.5 g/m*3 6.4 C 0 km/h
163 26-02-2003 15:10:10 7.3 C 3.56 g/m*3 7.3 C 0 km/h
164 26-02-2003 15:14:10 7.3 C 3.56 g/m*3 7.3 C 0 km/h
165 26-02-2003 15:16:10 7.3 C 3.56 g/m*3 7.3 C 0 km/h
166 26-02-2003 15:20:10 7.3 C 3.56 g/m*3 7.3 C 0 km/h
167 26-02-2003 15:22:10 7.5 C 3.6 g/m*3 7.5 C 0 km/h
168 26-02-2003 15:26:10 7.5 C 3.6 g/m*3 7.5 C 0 km/h
169 26-02-2003 15:28:10 7.8 C 3.67 g/m*3 7.8 C 0 km/h
170 26-02-2003 15:32:10 7.8 C 3.67 g/m*3 7.8 C 0 km/h
171 26-02-2003 15:34:10 8 C 3.64 g/m*3 8 C 0 km/h
172 26-02-2003 15:38:10 8 C 3.64 g/m*3 8 C 0 km/h
173 26-02-2003 15:40:10 8.4 C 3.65 g/m*3 8.4 C 0 km/h
174 26-02-2003 15:44:10 8.4 C 3.65 g/m*3 8.4 C 0 km/h
175 26-02-2003 15:46:10 8.3 C 3.62 g/m*3 8.3 C 0 km/h
Sensor: Nr:Datum:Temp:Abs-Feuchte:Windchill:Wind:
Aussen-T/F 176 26-02-2003 15:50:10 8.3 C 3.62 g/m*3 8.3 C 0 km/h
177 26-02-2003 15:52:10 8.2 C 3.6 g/m*3 8.2 C 0 km/h
178 26-02-2003 15:56:10 8.2 C 3.6 g/m*3 8.2 C 0 km/h
179 26-02-2003 15:58:10 8.1 C 3.58 g/m*3 8.1 C 0 km/h
180 26-02-2003 16:02:10 8.1 C 3.58 g/m*3 8.1 C 0 km/h
181 26-02-2003 16:10:10 8 C 3.55 g/m*3 8 C 0 km/h
182 26-02-2003 16:14:10 8 C 3.55 g/m*3 8 C 0 km/h
183 26-02-2003 16:16:10 7.9 C 3.61 g/m*3 7.9 C 0 km/h
184 26-02-2003 16:20:10 7.9 C 3.61 g/m*3 7.9 C 0 km/h
185 26-02-2003 16:22:10 8.1 C 3.66 g/m*3 8.1 C 0 km/h
186 26-02-2003 16:26:10 8.1 C 3.66 g/m*3 8.1 C 0 km/h
187 26-02-2003 16:28:10 8 C 3.64 g/m*3 8 C 0 km/h
188 26-02-2003 16:32:10 8 C 3.64 g/m*3 8 C 0 km/h
189 26-02-2003 16:34:10 7.9 C 3.7 g/m*3 7.9 C 0 km/h
190 26-02-2003 16:38:10 7.9 C 3.7 g/m*3 7.9 C 0 km/h
191 26-02-2003 16:40:10 7.9 C 3.7 g/m*3 7.9 C 0 km/h
192 26-02-2003 16:44:10 7.9 C 3.7 g/m*3 7.9 C 0 km/h
193 26-02-2003 16:46:10 7.9 C 3.7 g/m*3 7.9 C 0 km/h
194 26-02-2003 16:50:10 7.9 C 3.7 g/m*3 7.9 C 0 km/h
195 26-02-2003 16:52:10 8.1 C 3.74 g/m*3 8.1 C 0 km/h
196 26-02-2003 16:56:10 8.1 C 3.74 g/m*3 8.1 C 0 km/h
197 26-02-2003 16:58:10 8.4 C 3.82 g/m*3 8.4 C 0 km/h
198 26-02-2003 17:02:10 8.4 C 3.82 g/m*3 8.4 C 0 km/h
199 26-02-2003 17:04:10 8.5 C 3.93 g/m*3 8.5 C 0 km/h
200 26-02-2003 17:08:10 8.5 C 3.93 g/m*3 8.5 C 0 km/h
Sensor: Nr:Datum:Temp:Abs-Feuchte:Windchill:Wind:
Aussen-T/F 201 26-02-2003 17:10:10 8.4 C 3.9 g/m*3 8.4 C 0 km/h
202 26-02-2003 17:14:10 8.4 C 3.9 g/m*3 8.4 C 0 km/h
203 26-02-2003 17:16:10 8.2 C 3.85 g/m*3 8.2 C 0 km/h
204 26-02-2003 17:20:10 8.2 C 3.85 g/m*3 8.2 C 0 km/h
205 26-02-2003 17:22:10 7.8 C 3.67 g/m*3 7.8 C 0 km/h
206 26-02-2003 17:26:10 7.8 C 3.67 g/m*3 7.8 C 0 km/h
207 26-02-2003 17:28:10 7.5 C 3.6 g/m*3 7.5 C 0 km/h
208 26-02-2003 17:32:10 7.5 C 3.6 g/m*3 7.5 C 0 km/h
209 26-02-2003 17:34:10 7.2 C 3.61 g/m*3 7.2 C 0 km/h
210 26-02-2003 17:38:10 7.2 C 3.61 g/m*3 7.2 C 0 km/h
211 26-02-2003 17:40:10 6.8 C 3.75 g/m*3 6.8 C 0 km/h
212 26-02-2003 17:44:10 6.8 C 3.75 g/m*3 6.8 C 0 km/h
213 26-02-2003 17:46:10 6.6 C 3.7 g/m*3 6.6 C 0 km/h
214 26-02-2003 17:50:10 6.6 C 3.7 g/m*3 6.6 C 0 km/h
215 26-02-2003 17:52:10 6.4 C 3.73 g/m*3 6.4 C 0 km/h
216 26-02-2003 17:56:10 6.4 C 3.73 g/m*3 6.4 C 0 km/h
217 26-02-2003 17:58:10 6.2 C 3.75 g/m*3 6.2 C 0 km/h
218 26-02-2003 18:02:10 6.2 C 3.75 g/m*3 6.2 C 0 km/h
219 26-02-2003 18:04:10 5.9 C 3.68 g/m*3 5.9 C 0 km/h
220 26-02-2003 18:08:10 5.9 C 3.68 g/m*3 5.9 C 0 km/h
221 26-02-2003 18:10:10 5.8 C 3.65 g/m*3 5.8 C 0 km/h
222 26-02-2003 18:14:10 5.8 C 3.65 g/m*3 5.8 C 0 km/h
223 26-02-2003 18:16:10 5.6 C 3.68 g/m*3 5.6 C 0 km/h
224 26-02-2003 18:20:10 5.6 C 3.68 g/m*3 5.6 C 0 km/h
225 26-02-2003 18:22:10 5.4 C 3.63 g/m*3 5.4 C 0 km/h
Sensor: Nr:Datum:Temp:Abs-Feuchte:Windchill:Wind:
Aussen-T/F 226 26-02-2003 18:26:10 5.4 C 3.63 g/m*3 5.4 C 0 km/h
227 26-02-2003 18:28:10 5.4 C 3.7 g/m*3 5.4 C 0 km/h
228 26-02-2003 18:32:10 5.4 C 3.7 g/m*3 5.4 C 0 km/h
229 26-02-2003 18:34:10 5.2 C 3.72 g/m*3 5.2 C 0 km/h
230 26-02-2003 18:38:10 5.2 C 3.72 g/m*3 5.2 C 0 km/h
231 26-02-2003 18:40:10 5.1 C 3.69 g/m*3 5.1 C 0 km/h
232 26-02-2003 18:44:10 5.1 C 3.69 g/m*3 5.1 C 0 km/h
233 26-02-2003 18:46:10 5 C 3.74 g/m*3 5 C 0 km/h
234 26-02-2003 18:50:10 5 C 3.74 g/m*3 5 C 0 km/h
235 26-02-2003 18:52:10 4.9 C 3.78 g/m*3 4.9 C 0 km/h
236 26-02-2003 18:56:10 4.9 C 3.78 g/m*3 4.9 C 0 km/h
237 26-02-2003 18:58:10 4.8 C 3.76 g/m*3 4.8 C 0 km/h
238 26-02-2003 19:02:10 4.8 C 3.76 g/m*3 4.8 C 0 km/h
239 26-02-2003 19:04:10 4.7 C 3.73 g/m*3 4.7 C 0 km/h
240 26-02-2003 19:08:10 4.7 C 3.73 g/m*3 4.7 C 0 km/h
241 26-02-2003 19:10:10 4.5 C 3.75 g/m*3 4.5 C 0 km/h
242 26-02-2003 19:14:10 4.5 C 3.75 g/m*3 4.5 C 0 km/h
243 26-02-2003 19:16:10 4.4 C 3.72 g/m*3 4.4 C 0 km/h
244 26-02-2003 19:20:10 4.4 C 3.72 g/m*3 4.4 C 0 km/h
245 26-02-2003 19:22:10 4.2 C 3.67 g/m*3 4.2 C 0 km/h
246 26-02-2003 19:26:10 4.2 C 3.67 g/m*3 4.2 C 0 km/h
247 26-02-2003 19:28:10 4.1 C 3.65 g/m*3 4.1 C 0 km/h
248 26-02-2003 19:32:10 4.1 C 3.65 g/m*3 4.1 C 0 km/h
249 26-02-2003 19:34:10 3.8 C 3.64 g/m*3 3.8 C 0 km/h
250 26-02-2003 19:38:10 3.8 C 3.64 g/m*3 3.8 C 0 km/h
Sensor: Nr:Datum:Temp:Abs-Feuchte:Windchill:Wind:
Aussen-T/F 251 26-02-2003 19:40:10 3.8 C 3.64 g/m*3 3.8 C 0 km/h
252 26-02-2003 19:44:10 3.8 C 3.64 g/m*3 3.8 C 0 km/h
253 26-02-2003 19:46:10 3.5 C 3.63 g/m*3 3.5 C 0 km/h
254 26-02-2003 19:50:10 3.5 C 3.63 g/m*3 3.5 C 0 km/h
255 26-02-2003 19:52:10 3.3 C 3.58 g/m*3 3.3 C 0 km/h
256 26-02-2003 19:56:10 3.3 C 3.58 g/m*3 3.3 C 0 km/h
257 26-02-2003 19:58:10 3.1 C 3.59 g/m*3 3.1 C 0 km/h
258 26-02-2003 20:02:10 3.1 C 3.59 g/m*3 3.1 C 0 km/h
259 26-02-2003 20:05:11 3.1 C 3.59 g/m*3 3.1 C 0 km/h
260 26-02-2003 20:08:10 3.1 C 3.59 g/m*3 3.1 C 0 km/h
261 26-02-2003 20:11:11 3 C 3.57 g/m*3 3 C 0 km/h
262 26-02-2003 20:14:10 3 C 3.57 g/m*3 3 C 0 km/h
263 26-02-2003 20:17:11 2.8 C 3.64 g/m*3 2.8 C 0 km/h
264 26-02-2003 20:20:10 2.8 C 3.64 g/m*3 2.8 C 0 km/h
265 26-02-2003 20:23:11 2.7 C 3.61 g/m*3 2.7 C 0 km/h
266 26-02-2003 20:26:10 2.7 C 3.61 g/m*3 2.7 C 0 km/h
267 26-02-2003 20:29:11 2.7 C 3.61 g/m*3 2.7 C 0 km/h
268 26-02-2003 20:32:10 2.7 C 3.61 g/m*3 2.7 C 0 km/h
269 26-02-2003 20:35:11 2.6 C 3.59 g/m*3 2.6 C 0 km/h
270 26-02-2003 20:38:10 2.6 C 3.59 g/m*3 2.6 C 0 km/h
271 26-02-2003 20:41:11 2.4 C 3.6 g/m*3 2.4 C 0 km/h
272 26-02-2003 20:44:10 2.4 C 3.6 g/m*3 2.4 C 0 km/h
273 26-02-2003 20:47:11 2.3 C 3.57 g/m*3 2.3 C 0 km/h
274 26-02-2003 20:50:10 2.3 C 3.57 g/m*3 2.3 C 0 km/h
275 26-02-2003 20:53:11 2.3 C 3.63 g/m*3 2.3 C 0 km/h
Sensor: Nr:Datum:Temp:Abs-Feuchte:Windchill:Wind:
Aussen-T/F 276 26-02-2003 20:56:10 2.3 C 3.63 g/m*3 2.3 C 0 km/h
277 26-02-2003 20:59:11 2.2 C 3.55 g/m*3 2.2 C 0 km/h
278 26-02-2003 21:02:10 2.2 C 3.55 g/m*3 2.2 C 0 km/h
279 26-02-2003 21:05:11 2.2 C 3.6 g/m*3 2.2 C 0 km/h
280 26-02-2003 21:08:10 2.2 C 3.6 g/m*3 2.2 C 0 km/h
281 26-02-2003 21:11:11 2.2 C 3.6 g/m*3 2.2 C 0 km/h
282 26-02-2003 21:14:10 2.2 C 3.6 g/m*3 2.2 C 0 km/h
283 26-02-2003 21:17:11 2.2 C 3.6 g/m*3 2.2 C 0 km/h
284 26-02-2003 21:20:10 2.2 C 3.6 g/m*3 2.2 C 0 km/h
285 26-02-2003 21:23:11 2.2 C 3.6 g/m*3 2.2 C 0 km/h
286 26-02-2003 21:26:10 2.2 C 3.6 g/m*3 2.2 C 0 km/h
287 26-02-2003 21:29:11 2.3 C 3.63 g/m*3 2.3 C 0 km/h
288 26-02-2003 21:32:10 2.3 C 3.63 g/m*3 2.3 C 0 km/h
289 26-02-2003 21:35:11 2.4 C 3.65 g/m*3 2.4 C 0 km/h
290 26-02-2003 21:38:10 2.4 C 3.65 g/m*3 2.4 C 0 km/h
291 26-02-2003 21:41:11 2.4 C 3.65 g/m*3 2.4 C 0 km/h
292 26-02-2003 21:44:10 2.4 C 3.65 g/m*3 2.4 C 0 km/h
293 26-02-2003 21:47:11 2.4 C 3.65 g/m*3 2.4 C 0 km/h
294 26-02-2003 21:50:10 2.4 C 3.65 g/m*3 2.4 C 0 km/h
295 26-02-2003 21:53:11 2.4 C 3.65 g/m*3 2.4 C 0 km/h
296 26-02-2003 21:56:10 2.4 C 3.65 g/m*3 2.4 C 0 km/h
297 26-02-2003 21:59:11 2.4 C 3.65 g/m*3 2.4 C 0 km/h
298 26-02-2003 22:02:10 2.4 C 3.65 g/m*3 2.4 C 0 km/h
299 26-02-2003 22:05:11 2.4 C 3.65 g/m*3 2.4 C 0 km/h
300 26-02-2003 22:08:10 2.4 C 3.65 g/m*3 2.4 C 0 km/h
Sensor: Nr:Datum:Temp:Abs-Feuchte:Windchill:Wind:
Aussen-T/F 301 26-02-2003 22:11:11 2.4 C 3.65 g/m*3 2.4 C 0 km/h
302 26-02-2003 22:14:10 2.4 C 3.65 g/m*3 2.4 C 0 km/h
303 26-02-2003 22:17:11 2.4 C 3.65 g/m*3 2.4 C 0 km/h
304 26-02-2003 22:20:10 2.4 C 3.65 g/m*3 2.4 C 0 km/h
305 26-02-2003 22:23:11 2.4 C 3.65 g/m*3 2.4 C 0 km/h
306 26-02-2003 22:26:10 2.4 C 3.65 g/m*3 2.4 C 0 km/h
307 26-02-2003 22:29:11 2.4 C 3.71 g/m*3 2.4 C 0 km/h
308 26-02-2003 22:32:10 2.4 C 3.71 g/m*3 2.4 C 0 km/h
309 26-02-2003 22:35:11 2.3 C 3.69 g/m*3 2.3 C 0 km/h
310 26-02-2003 22:38:10 2.3 C 3.69 g/m*3 2.3 C 0 km/h
311 26-02-2003 22:41:11 2.3 C 3.69 g/m*3 2.3 C 0 km/h
312 26-02-2003 22:44:10 2.3 C 3.69 g/m*3 2.3 C 0 km/h
313 26-02-2003 22:47:11 2.3 C 3.69 g/m*3 2.3 C 0 km/h
314 26-02-2003 22:50:10 2.3 C 3.69 g/m*3 2.3 C 0 km/h
315 26-02-2003 22:53:11 2.2 C 3.66 g/m*3 2.2 C 0 km/h
316 26-02-2003 22:56:10 2.2 C 3.66 g/m*3 2.2 C 0 km/h
317 26-02-2003 22:59:11 2.2 C 3.66 g/m*3 2.2 C 0 km/h
318 26-02-2003 23:02:10 2.2 C 3.66 g/m*3 2.2 C 0 km/h
319 26-02-2003 23:05:11 2.2 C 3.66 g/m*3 2.2 C 0 km/h
320 26-02-2003 23:08:10 2.2 C 3.66 g/m*3 2.2 C 0 km/h
321 26-02-2003 23:11:11 2.3 C 3.69 g/m*3 2.3 C 0 km/h
322 26-02-2003 23:14:10 2.3 C 3.69 g/m*3 2.3 C 0 km/h
323 26-02-2003 23:17:11 2.2 C 3.66 g/m*3 2.2 C 0 km/h
324 26-02-2003 23:20:10 2.2 C 3.66 g/m*3 2.2 C 0 km/h
325 26-02-2003 23:23:11 2.1 C 3.64 g/m*3 2.1 C 0 km/h
Sensor: Nr:Datum:Temp:Abs-Feuchte:Windchill:Wind:
Aussen-T/F 326 26-02-2003 23:26:10 2.1 C 3.64 g/m*3 2.1 C 0 km/h
327 26-02-2003 23:29:11 2 C 3.61 g/m*3 2 C 0 km/h
328 26-02-2003 23:32:10 2 C 3.61 g/m*3 2 C 0 km/h
329 26-02-2003 23:35:11 2 C 3.67 g/m*3 2 C 0 km/h
330 26-02-2003 23:38:10 2 C 3.67 g/m*3 2 C 0 km/h
331 26-02-2003 23:41:11 1.9 C 3.7 g/m*3 1.9 C 0 km/h
332 26-02-2003 23:44:10 1.9 C 3.7 g/m*3 1.9 C 0 km/h
333 26-02-2003 23:47:11 1.9 C 3.7 g/m*3 1.9 C 0 km/h
334 26-02-2003 23:50:10 1.9 C 3.7 g/m*3 1.9 C 0 km/h
335 26-02-2003 23:53:11 1.9 C 3.7 g/m*3 1.9 C 0 km/h
336 26-02-2003 23:56:10 1.9 C 3.7 g/m*3 1.9 C 0 km/h
337 26-02-2003 23:59:11 1.7 C 3.65 g/m*3 1.7 C 0 km/h
338 27-02-2003 00:02:10 1.7 C 3.65 g/m*3 1.7 C 0 km/h
339 27-02-2003 00:05:11 1.6 C 3.68 g/m*3 1.6 C 0 km/h
340 27-02-2003 00:08:10 1.6 C 3.68 g/m*3 1.6 C 0 km/h
341 27-02-2003 00:11:11 1.6 C 3.68 g/m*3 1.6 C 0 km/h
342 27-02-2003 00:14:10 1.6 C 3.68 g/m*3 1.6 C 0 km/h
343 27-02-2003 00:17:11 1.7 C 3.7 g/m*3 1.7 C 0 km/h
344 27-02-2003 00:20:10 1.7 C 3.7 g/m*3 1.7 C 0 km/h
345 27-02-2003 00:23:11 1.7 C 3.7 g/m*3 1.7 C 0 km/h
346 27-02-2003 00:26:10 1.7 C 3.7 g/m*3 1.7 C 0 km/h
347 27-02-2003 00:29:11 1.7 C 3.65 g/m*3 1.7 C 0 km/h
348 27-02-2003 00:32:10 1.7 C 3.65 g/m*3 1.7 C 0 km/h
349 27-02-2003 00:35:11 1.8 C 3.73 g/m*3 1.8 C 0 km/h
350 27-02-2003 00:38:10 1.8 C 3.73 g/m*3 1.8 C 0 km/h
Sensor: Nr:Datum:Temp:Abs-Feuchte:Windchill:Wind:
Aussen-T/F 351 27-02-2003 00:41:11 1.8 C 3.67 g/m*3 1.8 C 0 km/h
352 27-02-2003 00:44:10 1.8 C 3.67 g/m*3 1.8 C 0 km/h
353 27-02-2003 00:47:11 1.7 C 3.7 g/m*3 1.7 C 0 km/h
354 27-02-2003 00:50:10 1.7 C 3.7 g/m*3 1.7 C 0 km/h
355 27-02-2003 00:53:11 1.7 C 3.7 g/m*3 1.7 C 0 km/h
356 27-02-2003 00:56:10 1.7 C 3.7 g/m*3 1.7 C 0 km/h
357 27-02-2003 00:59:11 1.7 C 3.7 g/m*3 1.7 C 0 km/h
358 27-02-2003 01:02:10 1.7 C 3.7 g/m*3 1.7 C 0 km/h
359 27-02-2003 01:05:11 1.6 C 3.68 g/m*3 1.6 C 0 km/h
360 27-02-2003 01:08:10 1.6 C 3.68 g/m*3 1.6 C 0 km/h
361 27-02-2003 01:11:11 1.7 C 3.7 g/m*3 1.7 C 0 km/h
362 27-02-2003 01:14:10 1.7 C 3.7 g/m*3 1.7 C 0 km/h
363 27-02-2003 01:17:11 1.7 C 3.7 g/m*3 1.7 C 0 km/h
364 27-02-2003 01:20:10 1.7 C 3.7 g/m*3 1.7 C 0 km/h
365 27-02-2003 01:23:11 1.7 C 3.7 g/m*3 1.7 C 0 km/h
366 27-02-2003 01:26:10 1.7 C 3.7 g/m*3 1.7 C 0 km/h
367 27-02-2003 01:29:11 1.7 C 3.7 g/m*3 1.7 C 0 km/h
368 27-02-2003 01:32:10 1.7 C 3.7 g/m*3 1.7 C 0 km/h
369 27-02-2003 01:35:11 1.8 C 3.73 g/m*3 1.8 C 0 km/h
370 27-02-2003 01:38:10 1.8 C 3.73 g/m*3 1.8 C 0 km/h
371 27-02-2003 01:41:11 1.8 C 3.78 g/m*3 1.8 C 0 km/h
372 27-02-2003 01:44:10 1.8 C 3.78 g/m*3 1.8 C 0 km/h
373 27-02-2003 01:47:11 1.7 C 3.76 g/m*3 1.7 C 0 km/h
374 27-02-2003 01:50:10 1.7 C 3.76 g/m*3 1.7 C 0 km/h
375 27-02-2003 01:53:11 1.7 C 3.76 g/m*3 1.7 C 0 km/h
Sensor: Nr:Datum:Temp:Abs-Feuchte:Windchill:Wind:
Aussen-T/F 376 27-02-2003 01:56:10 1.7 C 3.76 g/m*3 1.7 C 0 km/h
377 27-02-2003 01:59:11 1.6 C 3.73 g/m*3 1.6 C 0 km/h
378 27-02-2003 02:02:10 1.6 C 3.73 g/m*3 1.6 C 0 km/h
379 27-02-2003 02:05:11 1.4 C 3.68 g/m*3 1.4 C 0 km/h
380 27-02-2003 02:08:10 1.4 C 3.68 g/m*3 1.4 C 0 km/h
381 27-02-2003 02:11:11 1.3 C 3.66 g/m*3 1.3 C 0 km/h
382 27-02-2003 02:14:10 1.3 C 3.66 g/m*3 1.3 C 0 km/h
383 27-02-2003 02:17:11 1.2 C 3.63 g/m*3 1.2 C 0 km/h
384 27-02-2003 02:20:10 1.2 C 3.63 g/m*3 1.2 C 0 km/h
385 27-02-2003 02:23:11 1.2 C 3.63 g/m*3 1.2 C 0 km/h
386 27-02-2003 02:26:10 1.2 C 3.63 g/m*3 1.2 C 0 km/h
387 27-02-2003 02:29:11 1.2 C 3.63 g/m*3 1.2 C 0 km/h
388 27-02-2003 02:32:10 1.2 C 3.63 g/m*3 1.2 C 0 km/h
389 27-02-2003 02:35:11 1.3 C 3.71 g/m*3 1.3 C 0 km/h
390 27-02-2003 02:38:10 1.3 C 3.71 g/m*3 1.3 C 0 km/h
391 27-02-2003 02:41:11 1.2 C 3.68 g/m*3 1.2 C 0 km/h
392 27-02-2003 02:44:10 1.2 C 3.68 g/m*3 1.2 C 0 km/h
393 27-02-2003 02:47:11 1.2 C 3.68 g/m*3 1.2 C 0 km/h
394 27-02-2003 02:50:10 1.2 C 3.68 g/m*3 1.2 C 0 km/h
395 27-02-2003 02:53:11 1.2 C 3.68 g/m*3 1.2 C 0 km/h
396 27-02-2003 02:56:10 1.2 C 3.68 g/m*3 1.2 C 0 km/h
397 27-02-2003 02:59:11 1.1 C 3.66 g/m*3 1.1 C 0 km/h
398 27-02-2003 03:02:10 1.1 C 3.66 g/m*3 1.1 C 0 km/h
399 27-02-2003 03:05:11 1.3 C 3.71 g/m*3 1.3 C 0 km/h
400 27-02-2003 03:08:10 1.3 C 3.71 g/m*3 1.3 C 0 km/h
Sensor: Nr:Datum:Temp:Abs-Feuchte:Windchill:Wind:
Aussen-T/F 401 27-02-2003 03:11:11 1.1 C 3.66 g/m*3 1.1 C 0 km/h
402 27-02-2003 03:14:10 1.1 C 3.66 g/m*3 1.1 C 0 km/h
403 27-02-2003 03:17:11 1 C 3.69 g/m*3 1 C 0 km/h
404 27-02-2003 03:20:10 1 C 3.69 g/m*3 1 C 0 km/h
405 27-02-2003 03:23:11 1.1 C 3.71 g/m*3 1.1 C 0 km/h
406 27-02-2003 03:26:10 1.1 C 3.71 g/m*3 1.1 C 0 km/h
407 27-02-2003 03:29:11 1.1 C 3.71 g/m*3 1.1 C 0 km/h
408 27-02-2003 03:32:10 1.1 C 3.71 g/m*3 1.1 C 0 km/h
409 27-02-2003 03:35:11 0.9 C 3.66 g/m*3 0.9 C 0 km/h
410 27-02-2003 03:38:10 0.9 C 3.66 g/m*3 0.9 C 0 km/h
411 27-02-2003 03:41:11 0.8 C 3.63 g/m*3 0.8 C 0 km/h
412 27-02-2003 03:44:10 0.8 C 3.63 g/m*3 0.8 C 0 km/h
413 27-02-2003 03:47:11 0.7 C 3.66 g/m*3 0.7 C 0 km/h
414 27-02-2003 03:50:10 0.7 C 3.66 g/m*3 0.7 C 0 km/h
415 27-02-2003 03:53:11 0.7 C 3.66 g/m*3 0.7 C 0 km/h
416 27-02-2003 03:56:10 0.7 C 3.66 g/m*3 0.7 C 0 km/h
417 27-02-2003 03:59:11 0.7 C 3.61 g/m*3 0.7 C 0 km/h
418 27-02-2003 04:02:10 0.7 C 3.61 g/m*3 0.7 C 0 km/h
419 27-02-2003 04:05:11 0.7 C 3.66 g/m*3 0.7 C 0 km/h
420 27-02-2003 04:08:10 0.7 C 3.66 g/m*3 0.7 C 0 km/h
421 27-02-2003 04:11:11 0.6 C 3.64 g/m*3 0.6 C 0 km/h
422 27-02-2003 04:14:10 0.6 C 3.64 g/m*3 0.6 C 0 km/h
423 27-02-2003 04:17:11 0.5 C 3.61 g/m*3 0.5 C 0 km/h
424 27-02-2003 04:20:10 0.5 C 3.61 g/m*3 0.5 C 0 km/h
425 27-02-2003 04:23:11 0.5 C 3.66 g/m*3 0.5 C 0 km/h
Sensor: Nr:Datum:Temp:Abs-Feuchte:Windchill:Wind:
Aussen-T/F 426 27-02-2003 04:26:10 0.5 C 3.66 g/m*3 0.5 C 0 km/h
427 27-02-2003 04:29:11 0.5 C 3.61 g/m*3 0.5 C 0 km/h
428 27-02-2003 04:32:10 0.5 C 3.61 g/m*3 0.5 C 0 km/h
429 27-02-2003 04:35:11 0.6 C 3.69 g/m*3 0.6 C 0 km/h
430 27-02-2003 04:38:10 0.6 C 3.69 g/m*3 0.6 C 0 km/h
431 27-02-2003 04:41:11 0.5 C 3.66 g/m*3 0.5 C 0 km/h
432 27-02-2003 04:44:10 0.5 C 3.66 g/m*3 0.5 C 0 km/h
433 27-02-2003 04:47:11 0.5 C 3.66 g/m*3 0.5 C 0 km/h
434 27-02-2003 04:50:10 0.5 C 3.66 g/m*3 0.5 C 0 km/h
435 27-02-2003 04:53:11 0.4 C 3.64 g/m*3 0.4 C 0 km/h
436 27-02-2003 04:56:10 0.4 C 3.64 g/m*3 0.4 C 0 km/h
437 27-02-2003 04:59:11 0.3 C 3.61 g/m*3 0.3 C 0 km/h
438 27-02-2003 05:02:10 0.3 C 3.61 g/m*3 0.3 C 0 km/h
439 27-02-2003 05:05:11 0.3 C 3.61 g/m*3 0.3 C 0 km/h
440 27-02-2003 05:08:10 0.3 C 3.61 g/m*3 0.3 C 0 km/h
441 27-02-2003 05:11:11 0.4 C 3.69 g/m*3 0.4 C 0 km/h
442 27-02-2003 05:14:10 0.4 C 3.69 g/m*3 0.4 C 0 km/h
443 27-02-2003 05:17:11 0.4 C 3.74 g/m*3 0.4 C 0 km/h
444 27-02-2003 05:20:10 0.4 C 3.74 g/m*3 0.4 C 0 km/h
445 27-02-2003 05:23:11 0.3 C 3.66 g/m*3 0.3 C 0 km/h
446 27-02-2003 05:26:10 0.3 C 3.66 g/m*3 0.3 C 0 km/h
447 27-02-2003 05:29:11 0.2 C 3.64 g/m*3 0.2 C 0 km/h
448 27-02-2003 05:32:10 0.2 C 3.64 g/m*3 0.2 C 0 km/h
449 27-02-2003 05:35:11 0.1 C 3.56 g/m*3 0.1 C 0 km/h
450 27-02-2003 05:38:10 0.1 C 3.56 g/m*3 0.1 C 0 km/h
Sensor: Nr:Datum:Temp:Abs-Feuchte:Windchill:Wind:
Aussen-T/F 451 27-02-2003 05:41:11 0 C 3.59 g/m*3 0 C 0 km/h
452 27-02-2003 05:44:10 0 C 3.59 g/m*3 0 C 0 km/h
453 27-02-2003 05:47:11 -0.1 C 3.61 g/m*3 -0.1 C 0 km/h
454 27-02-2003 05:50:10 -0.1 C 3.61 g/m*3 -0.1 C 0 km/h
455 27-02-2003 05:53:11 -0.2 C 3.58 g/m*3 -0.2 C 0 km/h
456 27-02-2003 05:56:10 -0.2 C 3.58 g/m*3 -0.2 C 0 km/h
457 27-02-2003 05:59:11 -0.2 C 3.58 g/m*3 -0.2 C 0 km/h
458 27-02-2003 06:02:10 -0.2 C 3.58 g/m*3 -0.2 C 0 km/h
459 27-02-2003 06:05:11 -0.3 C 3.61 g/m*3 -0.3 C 0 km/h
460 27-02-2003 06:08:10 -0.3 C 3.61 g/m*3 -0.3 C 0 km/h
461 27-02-2003 06:11:11 -0.3 C 3.56 g/m*3 -0.3 C 0 km/h
462 27-02-2003 06:14:10 -0.3 C 3.56 g/m*3 -0.3 C 0 km/h
463 27-02-2003 06:17:11 -0.3 C 3.56 g/m*3 -0.3 C 0 km/h
464 27-02-2003 06:20:10 -0.3 C 3.56 g/m*3 -0.3 C 0 km/h
465 27-02-2003 06:23:11 -0.2 C 3.63 g/m*3 -0.2 C 0 km/h
466 27-02-2003 06:26:10 -0.2 C 3.63 g/m*3 -0.2 C 0 km/h
467 27-02-2003 06:29:11 -0.2 C 3.68 g/m*3 -0.2 C 0 km/h
468 27-02-2003 06:32:10 -0.2 C 3.68 g/m*3 -0.2 C 0 km/h
469 27-02-2003 06:35:11 -0.2 C 3.68 g/m*3 -0.2 C 0 km/h
470 27-02-2003 06:38:10 -0.2 C 3.68 g/m*3 -0.2 C 0 km/h
471 27-02-2003 06:41:11 -0.3 C 3.65 g/m*3 -0.3 C 0 km/h
472 27-02-2003 06:44:10 -0.3 C 3.65 g/m*3 -0.3 C 0 km/h
473 27-02-2003 06:47:11 -0.3 C 3.65 g/m*3 -0.3 C 0 km/h
474 27-02-2003 06:50:10 -0.3 C 3.65 g/m*3 -0.3 C 0 km/h
475 27-02-2003 06:53:11 -0.3 C 3.65 g/m*3 -0.3 C 0 km/h
Sensor: Nr:Datum:Temp:Abs-Feuchte:Windchill:Wind:
Aussen-T/F 476 27-02-2003 06:56:10 -0.3 C 3.65 g/m*3 -0.3 C 0 km/h
477 27-02-2003 06:59:11 -0.3 C 3.65 g/m*3 -0.3 C 0 km/h
478 27-02-2003 07:02:10 -0.3 C 3.65 g/m*3 -0.3 C 0 km/h
479 27-02-2003 07:05:11 -0.5 C 3.6 g/m*3 -0.5 C 0 km/h
480 27-02-2003 07:08:10 -0.5 C 3.6 g/m*3 -0.5 C 0 km/h
481 27-02-2003 07:11:11 -0.6 C 3.53 g/m*3 -0.6 C 0 km/h
482 27-02-2003 07:14:10 -0.6 C 3.53 g/m*3 -0.6 C 0 km/h
483 27-02-2003 07:17:11 -0.6 C 3.53 g/m*3 -0.6 C 0 km/h
484 27-02-2003 07:20:10 -0.6 C 3.53 g/m*3 -0.6 C 0 km/h
485 27-02-2003 07:23:11 -0.6 C 3.53 g/m*3 -0.6 C 0 km/h
486 27-02-2003 07:26:10 -0.6 C 3.53 g/m*3 -0.6 C 0 km/h
487 27-02-2003 07:29:11 -0.4 C 3.58 g/m*3 -0.4 C 0 km/h
488 27-02-2003 07:32:10 -0.4 C 3.58 g/m*3 -0.4 C 0 km/h
489 27-02-2003 07:35:11 -0.3 C 3.61 g/m*3 -0.3 C 0 km/h
490 27-02-2003 07:38:10 -0.3 C 3.61 g/m*3 -0.3 C 0 km/h
491 27-02-2003 07:41:11 -0.3 C 3.61 g/m*3 -0.3 C 0 km/h
492 27-02-2003 07:44:10 -0.3 C 3.61 g/m*3 -0.3 C 0 km/h
493 27-02-2003 07:47:11 -0.3 C 3.61 g/m*3 -0.3 C 0 km/h
494 27-02-2003 07:50:10 -0.3 C 3.61 g/m*3 -0.3 C 0 km/h
495 27-02-2003 07:53:11 -0.2 C 3.63 g/m*3 -0.2 C 0 km/h
496 27-02-2003 07:56:10 -0.2 C 3.63 g/m*3 -0.2 C 0 km/h
497 27-02-2003 07:59:11 -0.1 C 3.66 g/m*3 -0.1 C 0 km/h
498 27-02-2003 08:02:10 -0.1 C 3.66 g/m*3 -0.1 C 0 km/h
499 27-02-2003 08:05:10 0 C 3.68 g/m*3 0 C 0 km/h
500 27-02-2003 08:08:10 0 C 3.68 g/m*3 0 C 0 km/h
Sensor: Nr:Datum:Temp:Abs-Feuchte:Windchill:Wind:
Aussen-T/F 501 27-02-2003 08:11:10 0.1 C 3.71 g/m*3 0.1 C 0 km/h
502 27-02-2003 08:14:10 0.1 C 3.71 g/m*3 0.1 C 0 km/h
503 27-02-2003 08:17:10 0.2 C 3.68 g/m*3 0.2 C 0 km/h
504 27-02-2003 08:20:10 0.2 C 3.68 g/m*3 0.2 C 0 km/h
505 27-02-2003 08:23:10 0.2 C 3.68 g/m*3 0.2 C 0 km/h
506 27-02-2003 08:26:10 0.2 C 3.68 g/m*3 0.2 C 0 km/h
507 27-02-2003 08:29:10 0.2 C 3.68 g/m*3 0.2 C 0 km/h
508 27-02-2003 08:32:10 0.2 C 3.68 g/m*3 0.2 C 0 km/h
509 27-02-2003 08:35:10 0.2 C 3.68 g/m*3 0.2 C 0 km/h
510 27-02-2003 08:38:10 0.2 C 3.68 g/m*3 0.2 C 0 km/h
511 27-02-2003 08:41:10 0.3 C 3.71 g/m*3 0.3 C 0 km/h
512 27-02-2003 08:44:10 0.3 C 3.71 g/m*3 0.3 C 0 km/h
513 27-02-2003 08:47:10 0.3 C 3.71 g/m*3 0.3 C 0 km/h
514 27-02-2003 08:50:10 0.3 C 3.71 g/m*3 0.3 C 0 km/h
515 27-02-2003 08:53:10 0.4 C 3.74 g/m*3 0.4 C 0 km/h
516 27-02-2003 08:56:10 0.4 C 3.74 g/m*3 0.4 C 0 km/h
517 27-02-2003 08:59:10 0.5 C 3.76 g/m*3 0.5 C 0 km/h
518 27-02-2003 09:02:10 0.5 C 3.76 g/m*3 0.5 C 0 km/h
519 27-02-2003 09:05:10 0.6 C 3.79 g/m*3 0.6 C 0 km/h
520 27-02-2003 09:08:10 0.6 C 3.79 g/m*3 0.6 C 0 km/h
521 27-02-2003 09:11:10 0.6 C 3.79 g/m*3 0.6 C 0 km/h
522 27-02-2003 09:14:10 0.6 C 3.79 g/m*3 0.6 C 0 km/h
523 27-02-2003 09:17:10 0.7 C 3.76 g/m*3 0.7 C 0 km/h
524 27-02-2003 09:20:10 0.7 C 3.76 g/m*3 0.7 C 0 km/h
525 27-02-2003 09:23:10 0.9 C 3.81 g/m*3 0.9 C 0 km/h
Sensor: Nr:Datum:Temp:Abs-Feuchte:Windchill:Wind:
Aussen-T/F 526 27-02-2003 09:26:10 0.9 C 3.81 g/m*3 0.9 C 0 km/h
527 27-02-2003 09:29:10 1 C 3.79 g/m*3 1 C 0 km/h
528 27-02-2003 09:32:10 1 C 3.79 g/m*3 1 C 0 km/h
529 27-02-2003 09:35:10 1.1 C 3.81 g/m*3 1.1 C 0 km/h
530 27-02-2003 09:38:10 1.1 C 3.81 g/m*3 1.1 C 0 km/h
531 27-02-2003 09:41:10 1.3 C 3.87 g/m*3 1.3 C 0 km/h
532 27-02-2003 09:44:10 1.3 C 3.87 g/m*3 1.3 C 0 km/h
533 27-02-2003 09:47:10 1.4 C 3.84 g/m*3 1.4 C 0 km/h
534 27-02-2003 09:50:10 1.4 C 3.84 g/m*3 1.4 C 0 km/h
535 27-02-2003 09:53:10 1.7 C 3.92 g/m*3 1.7 C 0 km/h
536 27-02-2003 09:56:10 1.7 C 3.92 g/m*3 1.7 C 0 km/h
537 27-02-2003 09:59:10 2.1 C 3.97 g/m*3 2.1 C 0 km/h
538 27-02-2003 10:02:10 2.1 C 3.97 g/m*3 2.1 C 0 km/h
539 27-02-2003 10:05:10 2.5 C 3.97 g/m*3 2.5 C 0 km/h
540 27-02-2003 10:08:10 2.5 C 3.97 g/m*3 2.5 C 0 km/h
541 27-02-2003 10:11:10 2.8 C 3.99 g/m*3 2.8 C 0 km/h
542 27-02-2003 10:14:10 2.8 C 3.99 g/m*3 2.8 C 0 km/h
543 27-02-2003 10:17:10 3.2 C 3.98 g/m*3 3.2 C 0 km/h
544 27-02-2003 10:20:10 3.2 C 3.98 g/m*3 3.2 C 0 km/h
545 27-02-2003 10:23:10 3.5 C 4 g/m*3 3.5 C 0 km/h
546 27-02-2003 10:26:10 3.5 C 4 g/m*3 3.5 C 0 km/h
547 27-02-2003 10:29:10 3.9 C 4.04 g/m*3 3.9 C 0 km/h
548 27-02-2003 10:32:10 3.9 C 4.04 g/m*3 3.9 C 0 km/h
549 27-02-2003 10:35:10 4.2 C 3.93 g/m*3 4.2 C 0 km/h
550 27-02-2003 10:38:10 4.2 C 3.93 g/m*3 4.2 C 0 km/h
Sensor: Nr:Datum:Temp:Abs-Feuchte:Windchill:Wind:
Aussen-T/F 551 27-02-2003 10:41:10 4.2 C 3.93 g/m*3 4.2 C 0 km/h
552 27-02-2003 10:44:10 4.2 C 3.93 g/m*3 4.2 C 0 km/h
553 27-02-2003 10:47:10 4.6 C 3.9 g/m*3 4.6 C 0 km/h
554 27-02-2003 10:50:10 4.6 C 3.9 g/m*3 4.6 C 0 km/h
555 27-02-2003 10:53:10 5.1 C 3.9 g/m*3 5.1 C 0 km/h
556 27-02-2003 10:56:10 5.1 C 3.9 g/m*3 5.1 C 0 km/h
557 27-02-2003 10:59:10 5.3 C 3.95 g/m*3 5.3 C 0 km/h
558 27-02-2003 11:02:10 5.3 C 3.95 g/m*3 5.3 C 0 km/h
559 27-02-2003 11:05:10 5.4 C 3.98 g/m*3 5.4 C 0 km/h
560 27-02-2003 11:08:10 5.4 C 3.98 g/m*3 5.4 C 0 km/h
561 27-02-2003 11:11:10 5.6 C 4.1 g/m*3 5.6 C 0 km/h
562 27-02-2003 11:14:10 5.6 C 4.1 g/m*3 5.6 C 0 km/h
563 27-02-2003 11:17:10 5.8 C 4.08 g/m*3 5.8 C 0 km/h
564 27-02-2003 11:20:10 5.8 C 4.08 g/m*3 5.8 C 0 km/h
565 27-02-2003 11:23:10 5.9 C 4.11 g/m*3 5.9 C 0 km/h
566 27-02-2003 11:26:10 5.9 C 4.11 g/m*3 5.9 C 0 km/h
567 27-02-2003 11:29:10 6.3 C 4.07 g/m*3 6.3 C 0 km/h
568 27-02-2003 11:32:10 6.3 C 4.07 g/m*3 6.3 C 0 km/h
569 27-02-2003 11:35:10 6.5 C 4.05 g/m*3 6.5 C 0 km/h
570 27-02-2003 11:38:10 6.5 C 4.05 g/m*3 6.5 C 0 km/h
571 27-02-2003 11:41:10 7.1 C 3.9 g/m*3 7.1 C 0 km/h
572 27-02-2003 11:44:10 7.1 C 3.9 g/m*3 7.1 C 0 km/h
573 27-02-2003 11:47:10 7.5 C 4 g/m*3 7.5 C 0 km/h
574 27-02-2003 11:50:10 7.5 C 4 g/m*3 7.5 C 0 km/h
575 27-02-2003 11:53:10 7.6 C 3.95 g/m*3 7.6 C 0 km/h
Sensor: Nr:Datum:Temp:Abs-Feuchte:Windchill:Wind:
Aussen-T/F 576 27-02-2003 11:56:10 7.6 C 3.95 g/m*3 7.6 C 0 km/h
577 27-02-2003 11:59:10 8.2 C 4.02 g/m*3 8.2 C 0 km/h
578 27-02-2003 12:02:10 8.2 C 4.02 g/m*3 8.2 C 0 km/h
579 27-02-2003 12:05:00 8.7 C 4.06 g/m*3 8.7 C 0 km/h
580 27-02-2003 12:08:10 8.7 C 4.06 g/m*3 8.7 C 0 km/h
581 27-02-2003 12:11:00 9.1 C 4.08 g/m*3 9.1 C 0 km/h
582 27-02-2003 12:14:10 9.1 C 4.08 g/m*3 9.1 C 0 km/h
583 27-02-2003 12:17:00 9.5 C 4.1 g/m*3 9.5 C 0 km/h
584 27-02-2003 12:20:10 9.5 C 4.1 g/m*3 9.5 C 0 km/h
585 27-02-2003 12:23:00 9.8 C 4.08 g/m*3 9.8 C 0 km/h
586 27-02-2003 12:26:10 9.8 C 4.08 g/m*3 9.8 C 0 km/h
587 27-02-2003 12:29:00 10.1 C 3.97 g/m*3 10.1 C 0 km/h
588 27-02-2003 12:32:10 10.1 C 3.97 g/m*3 10.1 C 0 km/h
589 27-02-2003 12:35:00 10.4 C 4.05 g/m*3 10.4 C 0 km/h
590 27-02-2003 12:38:10 10.4 C 4.05 g/m*3 10.4 C 0 km/h
591 27-02-2003 12:41:00 10.3 C 4.12 g/m*3 10.3 C 0 km/h
592 27-02-2003 12:44:10 10.3 C 4.12 g/m*3 10.3 C 0 km/h
593 27-02-2003 12:47:00 10.4 C 4.24 g/m*3 10.4 C 0 km/h
594 27-02-2003 12:50:10 10.4 C 4.24 g/m*3 10.4 C 0 km/h
595 27-02-2003 12:53:00 10.6 C 4.29 g/m*3 10.6 C 0 km/h
596 27-02-2003 12:56:10 10.6 C 4.29 g/m*3 10.6 C 0 km/h
597 27-02-2003 12:59:00 10.9 C 4.38 g/m*3 10.9 C 0 km/h
598 27-02-2003 13:02:10 10.9 C 4.38 g/m*3 10.9 C 0 km/h
599 27-02-2003 13:05:19 11.2 C 4.26 g/m*3 11.2 C 0 km/h
600 27-02-2003 13:08:10 11.2 C 4.26 g/m*3 11.2 C 0 km/h
Sensor: Nr:Datum:Temp:Abs-Feuchte:Windchill:Wind:
Aussen-T/F 601 27-02-2003 13:11:15 11.5 C 4.34 g/m*3 11.5 C 0 km/h
602 27-02-2003 13:14:10 11.5 C 4.34 g/m*3 11.5 C 0 km/h
603 27-02-2003 13:17:15 12.1 C 4.5 g/m*3 12.1 C 0 km/h
604 27-02-2003 13:20:10 12.1 C 4.5 g/m*3 12.1 C 0 km/h
605 27-02-2003 13:23:15 12.7 C 4.45 g/m*3 12.7 C 0 km/h
606 27-02-2003 13:26:10 12.7 C 4.45 g/m*3 12.7 C 0 km/h
607 27-02-2003 13:29:15 13.4 C 4.07 g/m*3 13.4 C 0 km/h
608 27-02-2003 13:32:10 13.4 C 4.07 g/m*3 13.4 C 0 km/h
609 27-02-2003 13:35:15 13.6 C 4 g/m*3 13.6 C 0 km/h
610 27-02-2003 13:38:10 13.6 C 4 g/m*3 13.6 C 0 km/h
611 27-02-2003 13:41:16 13.5 C 4.21 g/m*3 13.5 C 0 km/h
612 27-02-2003 13:44:10 13.5 C 4.21 g/m*3 13.5 C 0 km/h
613 27-02-2003 13:47:15 13.9 C 4.32 g/m*3 13.9 C 0 km/h
614 27-02-2003 13:50:10 13.9 C 4.32 g/m*3 13.9 C 0 km/h
615 27-02-2003 13:53:10 14 C 4.34 g/m*3 14 C 0 km/h
616 27-02-2003 13:56:10 14 C 4.34 g/m*3 14 C 0 km/h
617 27-02-2003 13:59:10 14.8 C 4.18 g/m*3 14.8 C 0 km/h
618 27-02-2003 14:02:10 14.8 C 4.18 g/m*3 14.8 C 0 km/h
619 27-02-2003 14:05:10 15.5 C 3.97 g/m*3 15.5 C 0 km/h
620 27-02-2003 14:08:10 15.5 C 3.97 g/m*3 15.5 C 0 km/h
621 27-02-2003 14:11:10 16 C 3.95 g/m*3 16 C 0 km/h
622 27-02-2003 14:14:10 16 C 3.95 g/m*3 16 C 0 km/h
623 27-02-2003 14:17:10 16.2 C 4 g/m*3 16.2 C 0 km/h
624 27-02-2003 14:20:10 16.2 C 4 g/m*3 16.2 C 0 km/h
625 27-02-2003 14:23:10 16.6 C 4.24 g/m*3 16.6 C 0 km/h
Sensor: Nr:Datum:Temp:Abs-Feuchte:Windchill:Wind:
Aussen-T/F 626 27-02-2003 14:26:10 16.6 C 4.24 g/m*3 16.6 C 0 km/h
627 27-02-2003 14:29:10 16.9 C 4.31 g/m*3 16.9 C 0 km/h
628 27-02-2003 14:32:10 16.9 C 4.31 g/m*3 16.9 C 0 km/h
629 27-02-2003 14:35:10 17.1 C 4.37 g/m*3 17.1 C 0 km/h
630 27-02-2003 14:38:10 17.1 C 4.37 g/m*3 17.1 C 0 km/h
631 27-02-2003 14:41:10 16.8 C 4.43 g/m*3 16.8 C 0 km/h
632 27-02-2003 14:44:10 16.8 C 4.43 g/m*3 16.8 C 0 km/h
633 27-02-2003 14:47:10 16.7 C 4.41 g/m*3 16.7 C 0 km/h
634 27-02-2003 14:50:10 16.7 C 4.41 g/m*3 16.7 C 0 km/h
635 27-02-2003 14:53:10 16.9 C 4.46 g/m*3 16.9 C 0 km/h
636 27-02-2003 14:56:10 16.9 C 4.46 g/m*3 16.9 C 0 km/h
637 27-02-2003 14:59:10 17 C 4.34 g/m*3 17 C 0 km/h
638 27-02-2003 15:02:10 17 C 4.34 g/m*3 17 C 0 km/h
639 27-02-2003 15:05:10 17.3 C 4.42 g/m*3 17.3 C 0 km/h
640 27-02-2003 15:08:10 17.3 C 4.42 g/m*3 17.3 C 0 km/h
641 27-02-2003 15:11:10 17.5 C 4.62 g/m*3 17.5 C 0 km/h
642 27-02-2003 15:14:10 17.5 C 4.62 g/m*3 17.5 C 0 km/h
643 27-02-2003 15:17:10 17.7 C 4.53 g/m*3 17.7 C 0 km/h
644 27-02-2003 15:20:10 17.7 C 4.53 g/m*3 17.7 C 0 km/h
645 27-02-2003 15:23:10 17.8 C 4.4 g/m*3 17.8 C 0 km/h
646 27-02-2003 15:26:10 17.8 C 4.4 g/m*3 17.8 C 0 km/h
647 27-02-2003 15:29:10 18 C 4.61 g/m*3 18 C 0 km/h
648 27-02-2003 15:32:10 18 C 4.61 g/m*3 18 C 0 km/h
649 27-02-2003 15:35:10 17.7 C 4.53 g/m*3 17.7 C 0 km/h
650 27-02-2003 15:38:10 17.7 C 4.53 g/m*3 17.7 C 0 km/h
Sensor: Nr:Datum:Temp:Abs-Feuchte:Windchill:Wind:
Aussen-T/F 651 27-02-2003 15:41:10 17.8 C 4.4 g/m*3 17.8 C 0 km/h
652 27-02-2003 15:44:10 17.8 C 4.4 g/m*3 17.8 C 0 km/h
653 27-02-2003 15:47:10 18.1 C 4.48 g/m*3 18.1 C 0 km/h
654 27-02-2003 15:50:10 18.1 C 4.48 g/m*3 18.1 C 0 km/h
655 27-02-2003 15:53:10 18.2 C 4.82 g/m*3 18.2 C 0 km/h
656 27-02-2003 15:56:10 18.2 C 4.82 g/m*3 18.2 C 0 km/h
657 27-02-2003 15:59:10 18.2 C 4.51 g/m*3 18.2 C 0 km/h
658 27-02-2003 16:02:10 18.2 C 4.51 g/m*3 18.2 C 0 km/h
659 27-02-2003 16:05:53 17.6 C 4.65 g/m*3 17.6 C 0 km/h
660 27-02-2003 16:08:10 17.6 C 4.65 g/m*3 17.6 C 0 km/h
661 27-02-2003 16:11:53 17.7 C 4.68 g/m*3 17.7 C 0 km/h
662 27-02-2003 16:14:10 17.7 C 4.68 g/m*3 17.7 C 0 km/h
663 27-02-2003 16:17:53 17.7 C 4.53 g/m*3 17.7 C 0 km/h
664 27-02-2003 16:20:10 17.7 C 4.53 g/m*3 17.7 C 0 km/h
665 27-02-2003 16:23:53 16.8 C 4.43 g/m*3 16.8 C 0 km/h
666 27-02-2003 16:26:10 16.8 C 4.43 g/m*3 16.8 C 0 km/h
667 27-02-2003 16:29:53 15.6 C 4.39 g/m*3 15.6 C 0 km/h
668 27-02-2003 16:32:10 15.6 C 4.39 g/m*3 15.6 C 0 km/h
669 27-02-2003 16:35:53 14.8 C 4.56 g/m*3 14.8 C 0 km/h
670 27-02-2003 16:38:10 14.8 C 4.56 g/m*3 14.8 C 0 km/h
671 27-02-2003 16:41:53 14.2 C 4.52 g/m*3 14.2 C 0 km/h
672 27-02-2003 16:44:10 14.2 C 4.52 g/m*3 14.2 C 0 km/h
673 27-02-2003 16:47:53 13.8 C 4.77 g/m*3 13.8 C 0 km/h
674 27-02-2003 16:50:10 13.8 C 4.77 g/m*3 13.8 C 0 km/h
675 27-02-2003 16:53:53 13.7 C 4.74 g/m*3 13.7 C 0 km/h
Sensor: Nr:Datum:Temp:Abs-Feuchte:Windchill:Wind:
Aussen-T/F 676 27-02-2003 16:56:10 13.7 C 4.74 g/m*3 13.7 C 0 km/h
677 27-02-2003 16:59:53 13.5 C 4.8 g/m*3 13.5 C 0 km/h
678 27-02-2003 17:02:10 13.5 C 4.8 g/m*3 13.5 C 0 km/h
679 27-02-2003 17:05:53 13.3 C 4.74 g/m*3 13.3 C 0 km/h
680 27-02-2003 17:08:10 13.3 C 4.74 g/m*3 13.3 C 0 km/h
681 27-02-2003 17:12:10 13.1 C 4.91 g/m*3 13.1 C 0 km/h
682 27-02-2003 17:14:10 13.1 C 4.91 g/m*3 13.1 C 0 km/h
683 27-02-2003 17:18:10 13 C 4.65 g/m*3 13 C 0 km/h
684 27-02-2003 17:20:10 13 C 4.65 g/m*3 13 C 0 km/h
685 27-02-2003 17:24:10 12.8 C 4.93 g/m*3 12.8 C 0 km/h
686 27-02-2003 17:26:10 12.8 C 4.93 g/m*3 12.8 C 0 km/h
687 27-02-2003 17:30:10 12.8 C 4.93 g/m*3 12.8 C 0 km/h
688 27-02-2003 17:32:10 12.8 C 4.93 g/m*3 12.8 C 0 km/h
689 27-02-2003 17:36:10 12.9 C 4.96 g/m*3 12.9 C 0 km/h
690 27-02-2003 17:38:10 12.9 C 4.96 g/m*3 12.9 C 0 km/h
691 27-02-2003 17:48:10 12.7 C 5.01 g/m*3 12.7 C 0 km/h
692 27-02-2003 17:50:10 12.7 C 5.01 g/m*3 12.7 C 0 km/h
693 27-02-2003 17:54:10 12.4 C 5.03 g/m*3 12.4 C 0 km/h
694 27-02-2003 17:56:10 12.4 C 5.03 g/m*3 12.4 C 0 km/h
695 27-02-2003 18:00:10 12.1 C 4.93 g/m*3 12.1 C 0 km/h
696 27-02-2003 18:02:10 12.1 C 4.93 g/m*3 12.1 C 0 km/h
697 27-02-2003 18:06:10 11.8 C 4.95 g/m*3 11.8 C 0 km/h
698 27-02-2003 18:08:10 11.8 C 4.95 g/m*3 11.8 C 0 km/h
699 27-02-2003 18:12:10 11.6 C 4.99 g/m*3 11.6 C 0 km/h
700 27-02-2003 18:14:10 11.6 C 4.99 g/m*3 11.6 C 0 km/h
Sensor: Nr:Datum:Temp:Abs-Feuchte:Windchill:Wind:
Aussen-T/F 701 27-02-2003 18:18:10 11.4 C 4.93 g/m*3 11.4 C 0 km/h
702 27-02-2003 18:20:10 11.4 C 4.93 g/m*3 11.4 C 0 km/h
703 27-02-2003 18:24:10 11.1 C 4.94 g/m*3 11.1 C 0 km/h
704 27-02-2003 18:26:10 11.1 C 4.94 g/m*3 11.1 C 0 km/h
705 27-02-2003 18:30:10 11 C 4.9 g/m*3 11 C 0 km/h
706 27-02-2003 18:32:10 11 C 4.9 g/m*3 11 C 0 km/h
707 27-02-2003 18:36:10 10.7 C 4.91 g/m*3 10.7 C 0 km/h
708 27-02-2003 18:38:10 10.7 C 4.91 g/m*3 10.7 C 0 km/h
709 27-02-2003 18:42:10 10.6 C 4.88 g/m*3 10.6 C 0 km/h
710 27-02-2003 18:44:10 10.6 C 4.88 g/m*3 10.6 C 0 km/h
711 27-02-2003 18:48:10 10.4 C 4.92 g/m*3 10.4 C 0 km/h
712 27-02-2003 18:50:10 10.4 C 4.92 g/m*3 10.4 C 0 km/h
713 27-02-2003 18:54:10 10.2 C 4.85 g/m*3 10.2 C 0 km/h
714 27-02-2003 18:56:10 10.2 C 4.85 g/m*3 10.2 C 0 km/h
715 27-02-2003 19:00:10 10 C 4.79 g/m*3 10 C 0 km/h
716 27-02-2003 19:02:10 10 C 4.79 g/m*3 10 C 0 km/h
717 27-02-2003 19:06:10 9.8 C 4.92 g/m*3 9.8 C 0 km/h
718 27-02-2003 19:08:10 9.8 C 4.92 g/m*3 9.8 C 0 km/h
719 27-02-2003 19:12:10 9.7 C 4.89 g/m*3 9.7 C 0 km/h
720 27-02-2003 19:14:10 9.7 C 4.89 g/m*3 9.7 C 0 km/h
721 27-02-2003 19:18:10 9.4 C 4.97 g/m*3 9.4 C 0 km/h
722 27-02-2003 19:20:10 9.4 C 4.97 g/m*3 9.4 C 0 km/h
723 27-02-2003 19:24:10 9.1 C 4.88 g/m*3 9.1 C 0 km/h
724 27-02-2003 19:26:10 9.1 C 4.88 g/m*3 9.1 C 0 km/h
725 27-02-2003 19:30:10 9 C 4.94 g/m*3 9 C 0 km/h
Sensor: Nr:Datum:Temp:Abs-Feuchte:Windchill:Wind:
Aussen-T/F 726 27-02-2003 19:32:10 9 C 4.94 g/m*3 9 C 0 km/h
727 27-02-2003 19:36:10 8.9 C 4.99 g/m*3 8.9 C 0 km/h
728 27-02-2003 19:38:10 8.9 C 4.99 g/m*3 8.9 C 0 km/h
729 27-02-2003 19:42:10 9.3 C 5.03 g/m*3 9.3 C 0 km/h
730 27-02-2003 19:44:10 9.3 C 5.03 g/m*3 9.3 C 0 km/h
731 27-02-2003 19:48:10 9.2 C 4.91 g/m*3 9.2 C 0 km/h
732 27-02-2003 19:50:10 9.2 C 4.91 g/m*3 9.2 C 0 km/h
733 27-02-2003 19:54:10 9 C 4.94 g/m*3 9 C 0 km/h
734 27-02-2003 19:56:10 9 C 4.94 g/m*3 9 C 0 km/h
735 27-02-2003 20:00:10 9 C 4.94 g/m*3 9 C 0 km/h
736 27-02-2003 20:02:10 9 C 4.94 g/m*3 9 C 0 km/h
737 27-02-2003 20:06:10 8.7 C 4.93 g/m*3 8.7 C 0 km/h
738 27-02-2003 20:08:10 8.7 C 4.93 g/m*3 8.7 C 0 km/h
739 27-02-2003 20:12:10 8.2 C 4.94 g/m*3 8.2 C 0 km/h
740 27-02-2003 20:14:10 8.2 C 4.94 g/m*3 8.2 C 0 km/h
741 27-02-2003 20:18:10 8 C 4.88 g/m*3 8 C 0 km/h
742 27-02-2003 20:20:10 8 C 4.88 g/m*3 8 C 0 km/h
743 27-02-2003 20:24:10 7.8 C 4.9 g/m*3 7.8 C 0 km/h
744 27-02-2003 20:26:10 7.8 C 4.9 g/m*3 7.8 C 0 km/h
745 27-02-2003 20:30:10 7.5 C 4.8 g/m*3 7.5 C 0 km/h
746 27-02-2003 20:32:10 7.5 C 4.8 g/m*3 7.5 C 0 km/h
747 27-02-2003 20:36:10 7.4 C 4.85 g/m*3 7.4 C 0 km/h
748 27-02-2003 20:38:10 7.4 C 4.85 g/m*3 7.4 C 0 km/h
749 27-02-2003 20:42:10 7.1 C 4.84 g/m*3 7.1 C 0 km/h
750 27-02-2003 20:44:10 7.1 C 4.84 g/m*3 7.1 C 0 km/h
Sensor: Nr:Datum:Temp:Abs-Feuchte:Windchill:Wind:
Aussen-T/F 751 27-02-2003 20:48:10 7 C 4.8 g/m*3 7 C 0 km/h
752 27-02-2003 20:50:10 7 C 4.8 g/m*3 7 C 0 km/h
753 27-02-2003 20:54:10 6.7 C 4.86 g/m*3 6.7 C 0 km/h
754 27-02-2003 20:56:10 6.7 C 4.86 g/m*3 6.7 C 0 km/h
755 27-02-2003 21:00:10 6.4 C 4.84 g/m*3 6.4 C 0 km/h
756 27-02-2003 21:02:10 6.4 C 4.84 g/m*3 6.4 C 0 km/h
757 27-02-2003 21:06:10 6.2 C 4.78 g/m*3 6.2 C 0 km/h
758 27-02-2003 21:08:10 6.2 C 4.78 g/m*3 6.2 C 0 km/h
759 27-02-2003 21:12:10 6 C 4.79 g/m*3 6 C 0 km/h
760 27-02-2003 21:14:10 6 C 4.79 g/m*3 6 C 0 km/h
761 27-02-2003 21:18:10 5.8 C 4.87 g/m*3 5.8 C 0 km/h
762 27-02-2003 21:20:10 5.8 C 4.87 g/m*3 5.8 C 0 km/h
763 27-02-2003 21:24:10 5.7 C 4.84 g/m*3 5.7 C 0 km/h
764 27-02-2003 21:26:10 5.7 C 4.84 g/m*3 5.7 C 0 km/h
765 27-02-2003 21:30:10 5.6 C 4.88 g/m*3 5.6 C 0 km/h
766 27-02-2003 21:32:10 5.6 C 4.88 g/m*3 5.6 C 0 km/h
767 27-02-2003 21:36:10 5.4 C 4.81 g/m*3 5.4 C 0 km/h
768 27-02-2003 21:38:10 5.4 C 4.81 g/m*3 5.4 C 0 km/h
769 27-02-2003 21:42:10 5.4 C 4.88 g/m*3 5.4 C 0 km/h
770 27-02-2003 21:44:10 5.4 C 4.88 g/m*3 5.4 C 0 km/h
771 27-02-2003 21:48:10 5.4 C 4.88 g/m*3 5.4 C 0 km/h
772 27-02-2003 21:50:10 5.4 C 4.88 g/m*3 5.4 C 0 km/h
773 27-02-2003 21:54:10 5.2 C 4.82 g/m*3 5.2 C 0 km/h
774 27-02-2003 21:56:10 5.2 C 4.82 g/m*3 5.2 C 0 km/h
775 27-02-2003 22:00:10 5 C 4.76 g/m*3 5 C 0 km/h
Sensor: Nr:Datum:Temp:Abs-Feuchte:Windchill:Wind:
Aussen-T/F 776 27-02-2003 22:02:10 5 C 4.76 g/m*3 5 C 0 km/h
777 27-02-2003 22:06:10 4.9 C 4.79 g/m*3 4.9 C 0 km/h
778 27-02-2003 22:08:10 4.9 C 4.79 g/m*3 4.9 C 0 km/h
779 27-02-2003 22:12:10 4.8 C 4.9 g/m*3 4.8 C 0 km/h
780 27-02-2003 22:14:10 4.8 C 4.9 g/m*3 4.8 C 0 km/h
781 27-02-2003 22:18:10 4.7 C 4.8 g/m*3 4.7 C 0 km/h
782 27-02-2003 22:20:10 4.7 C 4.8 g/m*3 4.7 C 0 km/h
783 27-02-2003 22:24:10 4.7 C 4.86 g/m*3 4.7 C 0 km/h
784 27-02-2003 22:26:10 4.7 C 4.86 g/m*3 4.7 C 0 km/h
785 27-02-2003 22:30:10 4.7 C 4.86 g/m*3 4.7 C 0 km/h
786 27-02-2003 22:32:10 4.7 C 4.86 g/m*3 4.7 C 0 km/h
787 27-02-2003 22:36:10 4.6 C 4.76 g/m*3 4.6 C 0 km/h
788 27-02-2003 22:38:10 4.6 C 4.76 g/m*3 4.6 C 0 km/h
789 27-02-2003 22:42:10 4.5 C 4.73 g/m*3 4.5 C 0 km/h
790 27-02-2003 22:44:10 4.5 C 4.73 g/m*3 4.5 C 0 km/h
791 27-02-2003 22:48:10 4.3 C 4.74 g/m*3 4.3 C 0 km/h
792 27-02-2003 22:50:10 4.3 C 4.74 g/m*3 4.3 C 0 km/h
793 27-02-2003 22:54:10 4.2 C 4.7 g/m*3 4.2 C 0 km/h
794 27-02-2003 22:56:10 4.2 C 4.7 g/m*3 4.2 C 0 km/h
795 27-02-2003 23:00:10 4.2 C 4.77 g/m*3 4.2 C 0 km/h
796 27-02-2003 23:02:10 4.2 C 4.77 g/m*3 4.2 C 0 km/h
797 27-02-2003 23:06:10 4.3 C 4.8 g/m*3 4.3 C 0 km/h
798 27-02-2003 23:08:10 4.3 C 4.8 g/m*3 4.3 C 0 km/h
799 27-02-2003 23:12:10 4.3 C 4.74 g/m*3 4.3 C 0 km/h
800 27-02-2003 23:14:10 4.3 C 4.74 g/m*3 4.3 C 0 km/h
Sensor: Nr:Datum:Temp:Abs-Feuchte:Windchill:Wind:
Aussen-T/F 801 27-02-2003 23:18:10 4.4 C 4.77 g/m*3 4.4 C 0 km/h
802 27-02-2003 23:20:10 4.4 C 4.77 g/m*3 4.4 C 0 km/h
803 27-02-2003 23:24:10 4.4 C 4.7 g/m*3 4.4 C 0 km/h
804 27-02-2003 23:26:10 4.4 C 4.7 g/m*3 4.4 C 0 km/h
805 27-02-2003 23:30:10 4.3 C 4.67 g/m*3 4.3 C 0 km/h
806 27-02-2003 23:32:10 4.3 C 4.67 g/m*3 4.3 C 0 km/h
807 27-02-2003 23:36:10 4.3 C 4.67 g/m*3 4.3 C 0 km/h
808 27-02-2003 23:38:10 4.3 C 4.67 g/m*3 4.3 C 0 km/h
809 27-02-2003 23:42:10 4.4 C 4.77 g/m*3 4.4 C 0 km/h
810 27-02-2003 23:44:10 4.4 C 4.77 g/m*3 4.4 C 0 km/h
811 27-02-2003 23:48:10 4.4 C 4.77 g/m*3 4.4 C 0 km/h
812 27-02-2003 23:50:10 4.4 C 4.77 g/m*3 4.4 C 0 km/h
813 27-02-2003 23:54:10 4.5 C 4.8 g/m*3 4.5 C 0 km/h
814 27-02-2003 23:56:10 4.5 C 4.8 g/m*3 4.5 C 0 km/h
815 28-02-2003 00:00:10 4.4 C 4.7 g/m*3 4.4 C 0 km/h
816 28-02-2003 00:02:10 4.4 C 4.7 g/m*3 4.4 C 0 km/h
817 28-02-2003 00:06:10 4.3 C 4.67 g/m*3 4.3 C 0 km/h
818 28-02-2003 00:08:10 4.3 C 4.67 g/m*3 4.3 C 0 km/h
819 28-02-2003 00:12:10 4 C 4.64 g/m*3 4 C 0 km/h
820 28-02-2003 00:14:10 4 C 4.64 g/m*3 4 C 0 km/h
821 28-02-2003 00:18:10 3.8 C 4.64 g/m*3 3.8 C 0 km/h
822 28-02-2003 00:20:10 3.8 C 4.64 g/m*3 3.8 C 0 km/h
823 28-02-2003 00:24:10 3.8 C 4.71 g/m*3 3.8 C 0 km/h
824 28-02-2003 00:26:10 3.8 C 4.71 g/m*3 3.8 C 0 km/h
825 28-02-2003 00:30:10 3.8 C 4.71 g/m*3 3.8 C 0 km/h
Sensor: Nr:Datum:Temp:Abs-Feuchte:Windchill:Wind:
Aussen-T/F 826 28-02-2003 00:32:10 3.8 C 4.71 g/m*3 3.8 C 0 km/h
827 28-02-2003 00:36:10 3.7 C 4.67 g/m*3 3.7 C 0 km/h
828 28-02-2003 00:38:10 3.7 C 4.67 g/m*3 3.7 C 0 km/h
829 28-02-2003 00:42:10 3.6 C 4.64 g/m*3 3.6 C 0 km/h
830 28-02-2003 00:44:10 3.6 C 4.64 g/m*3 3.6 C 0 km/h
831 28-02-2003 00:48:10 3.5 C 4.61 g/m*3 3.5 C 0 km/h
832 28-02-2003 00:50:10 3.5 C 4.61 g/m*3 3.5 C 0 km/h
833 28-02-2003 00:54:10 3.5 C 4.61 g/m*3 3.5 C 0 km/h
834 28-02-2003 00:56:10 3.5 C 4.61 g/m*3 3.5 C 0 km/h
835 28-02-2003 01:00:10 3.6 C 4.64 g/m*3 3.6 C 0 km/h
836 28-02-2003 01:02:10 3.6 C 4.64 g/m*3 3.6 C 0 km/h
837 28-02-2003 01:06:10 3.6 C 4.7 g/m*3 3.6 C 0 km/h
838 28-02-2003 01:08:10 3.6 C 4.7 g/m*3 3.6 C 0 km/h
839 28-02-2003 01:12:10 3.4 C 4.64 g/m*3 3.4 C 0 km/h
840 28-02-2003 01:14:10 3.4 C 4.64 g/m*3 3.4 C 0 km/h
841 28-02-2003 01:18:10 3.4 C 4.64 g/m*3 3.4 C 0 km/h
842 28-02-2003 01:20:10 3.4 C 4.64 g/m*3 3.4 C 0 km/h
843 28-02-2003 01:24:10 3.6 C 4.7 g/m*3 3.6 C 0 km/h
844 28-02-2003 01:26:10 3.6 C 4.7 g/m*3 3.6 C 0 km/h
845 28-02-2003 01:30:10 3.7 C 4.74 g/m*3 3.7 C 0 km/h
846 28-02-2003 01:32:10 3.7 C 4.74 g/m*3 3.7 C 0 km/h
847 28-02-2003 01:36:10 3.8 C 4.77 g/m*3 3.8 C 0 km/h
848 28-02-2003 01:38:10 3.8 C 4.77 g/m*3 3.8 C 0 km/h
849 28-02-2003 01:42:10 3.8 C 4.71 g/m*3 3.8 C 0 km/h
850 28-02-2003 01:44:10 3.8 C 4.71 g/m*3 3.8 C 0 km/h
Sensor: Nr:Datum:Temp:Abs-Feuchte:Windchill:Wind:
Aussen-T/F 851 28-02-2003 01:48:10 4 C 4.7 g/m*3 4 C 0 km/h
852 28-02-2003 01:50:10 4 C 4.7 g/m*3 4 C 0 km/h
853 28-02-2003 01:54:10 4 C 4.7 g/m*3 4 C 0 km/h
854 28-02-2003 01:56:10 4 C 4.7 g/m*3 4 C 0 km/h
855 28-02-2003 02:00:10 4.1 C 4.67 g/m*3 4.1 C 0 km/h
856 28-02-2003 02:02:10 4.1 C 4.67 g/m*3 4.1 C 0 km/h
857 28-02-2003 02:06:10 3.8 C 4.64 g/m*3 3.8 C 0 km/h
858 28-02-2003 02:08:10 3.8 C 4.64 g/m*3 3.8 C 0 km/h
859 28-02-2003 02:12:10 3.8 C 4.71 g/m*3 3.8 C 0 km/h
860 28-02-2003 02:14:10 3.8 C 4.71 g/m*3 3.8 C 0 km/h
861 28-02-2003 02:18:10 3.8 C 4.71 g/m*3 3.8 C 0 km/h
862 28-02-2003 02:20:10 3.8 C 4.71 g/m*3 3.8 C 0 km/h
863 28-02-2003 02:24:10 3.9 C 4.74 g/m*3 3.9 C 0 km/h
864 28-02-2003 02:26:10 3.9 C 4.74 g/m*3 3.9 C 0 km/h
865 28-02-2003 02:30:10 3.8 C 4.71 g/m*3 3.8 C 0 km/h
866 28-02-2003 02:32:10 3.8 C 4.71 g/m*3 3.8 C 0 km/h
867 28-02-2003 02:36:10 3.7 C 4.67 g/m*3 3.7 C 0 km/h
868 28-02-2003 02:38:10 3.7 C 4.67 g/m*3 3.7 C 0 km/h
869 28-02-2003 02:42:10 3.6 C 4.64 g/m*3 3.6 C 0 km/h
870 28-02-2003 02:44:10 3.6 C 4.64 g/m*3 3.6 C 0 km/h
871 28-02-2003 02:48:10 3.5 C 4.61 g/m*3 3.5 C 0 km/h
872 28-02-2003 02:50:10 3.5 C 4.61 g/m*3 3.5 C 0 km/h
873 28-02-2003 02:54:10 3.4 C 4.58 g/m*3 3.4 C 0 km/h
874 28-02-2003 02:56:10 3.4 C 4.58 g/m*3 3.4 C 0 km/h
875 28-02-2003 03:00:10 3.3 C 4.61 g/m*3 3.3 C 0 km/h
Sensor: Nr:Datum:Temp:Abs-Feuchte:Windchill:Wind:
Aussen-T/F 876 28-02-2003 03:02:10 3.3 C 4.61 g/m*3 3.3 C 0 km/h
877 28-02-2003 03:06:10 3.2 C 4.58 g/m*3 3.2 C 0 km/h
878 28-02-2003 03:08:10 3.2 C 4.58 g/m*3 3.2 C 0 km/h
879 28-02-2003 03:12:10 3.1 C 4.61 g/m*3 3.1 C 0 km/h
880 28-02-2003 03:14:10 3.1 C 4.61 g/m*3 3.1 C 0 km/h
881 28-02-2003 03:18:10 3.2 C 4.7 g/m*3 3.2 C 0 km/h
882 28-02-2003 03:20:10 3.2 C 4.7 g/m*3 3.2 C 0 km/h
883 28-02-2003 03:24:10 3.4 C 4.7 g/m*3 3.4 C 0 km/h
884 28-02-2003 03:26:10 3.4 C 4.7 g/m*3 3.4 C 0 km/h
885 28-02-2003 03:30:10 3.4 C 4.7 g/m*3 3.4 C 0 km/h
886 28-02-2003 03:32:10 3.4 C 4.7 g/m*3 3.4 C 0 km/h
887 28-02-2003 03:36:10 3.5 C 4.67 g/m*3 3.5 C 0 km/h
888 28-02-2003 03:38:10 3.5 C 4.67 g/m*3 3.5 C 0 km/h
889 28-02-2003 03:42:10 3.5 C 4.67 g/m*3 3.5 C 0 km/h
890 28-02-2003 03:44:10 3.5 C 4.67 g/m*3 3.5 C 0 km/h
891 28-02-2003 03:48:10 3.6 C 4.7 g/m*3 3.6 C 0 km/h
892 28-02-2003 03:50:10 3.6 C 4.7 g/m*3 3.6 C 0 km/h
893 28-02-2003 03:54:10 3.5 C 4.61 g/m*3 3.5 C 0 km/h
894 28-02-2003 03:56:10 3.5 C 4.61 g/m*3 3.5 C 0 km/h
895 28-02-2003 04:00:10 3.4 C 4.64 g/m*3 3.4 C 0 km/h
896 28-02-2003 04:02:10 3.4 C 4.64 g/m*3 3.4 C 0 km/h
897 28-02-2003 04:06:10 3.4 C 4.64 g/m*3 3.4 C 0 km/h
898 28-02-2003 04:08:10 3.4 C 4.64 g/m*3 3.4 C 0 km/h
899 28-02-2003 04:12:10 3.2 C 4.58 g/m*3 3.2 C 0 km/h
900 28-02-2003 04:14:10 3.2 C 4.58 g/m*3 3.2 C 0 km/h
Sensor: Nr:Datum:Temp:Abs-Feuchte:Windchill:Wind:
Aussen-T/F 901 28-02-2003 04:18:10 2.9 C 4.55 g/m*3 2.9 C 0 km/h
902 28-02-2003 04:20:10 2.9 C 4.55 g/m*3 2.9 C 0 km/h
903 28-02-2003 04:24:10 2.9 C 4.61 g/m*3 2.9 C 0 km/h
904 28-02-2003 04:26:10 2.9 C 4.61 g/m*3 2.9 C 0 km/h
905 28-02-2003 04:30:10 3 C 4.64 g/m*3 3 C 0 km/h
906 28-02-2003 04:32:10 3 C 4.64 g/m*3 3 C 0 km/h
907 28-02-2003 04:36:10 3.1 C 4.67 g/m*3 3.1 C 0 km/h
908 28-02-2003 04:38:10 3.1 C 4.67 g/m*3 3.1 C 0 km/h
909 28-02-2003 04:42:10 3.3 C 4.67 g/m*3 3.3 C 0 km/h
910 28-02-2003 04:44:10 3.3 C 4.67 g/m*3 3.3 C 0 km/h
911 28-02-2003 04:48:10 3.3 C 4.67 g/m*3 3.3 C 0 km/h
912 28-02-2003 04:50:10 3.3 C 4.67 g/m*3 3.3 C 0 km/h
913 28-02-2003 04:54:10 3.3 C 4.67 g/m*3 3.3 C 0 km/h
914 28-02-2003 04:56:10 3.3 C 4.67 g/m*3 3.3 C 0 km/h
915 28-02-2003 05:00:10 3.4 C 4.7 g/m*3 3.4 C 0 km/h
916 28-02-2003 05:02:10 3.4 C 4.7 g/m*3 3.4 C 0 km/h
917 28-02-2003 05:06:10 3.5 C 4.67 g/m*3 3.5 C 0 km/h
918 28-02-2003 05:08:10 3.5 C 4.67 g/m*3 3.5 C 0 km/h
919 28-02-2003 05:12:10 3.5 C 4.67 g/m*3 3.5 C 0 km/h
920 28-02-2003 05:14:10 3.5 C 4.67 g/m*3 3.5 C 0 km/h
921 28-02-2003 05:18:10 3.5 C 4.67 g/m*3 3.5 C 0 km/h
922 28-02-2003 05:20:10 3.5 C 4.67 g/m*3 3.5 C 0 km/h
923 28-02-2003 05:24:10 3.6 C 4.7 g/m*3 3.6 C 0 km/h
924 28-02-2003 05:26:10 3.6 C 4.7 g/m*3 3.6 C 0 km/h
925 28-02-2003 05:30:10 3.5 C 4.67 g/m*3 3.5 C 0 km/h
Sensor: Nr:Datum:Temp:Abs-Feuchte:Windchill:Wind:
Aussen-T/F 926 28-02-2003 05:32:10 3.5 C 4.67 g/m*3 3.5 C 0 km/h
927 28-02-2003 05:36:10 3.5 C 4.67 g/m*3 3.5 C 0 km/h
928 28-02-2003 05:38:10 3.5 C 4.67 g/m*3 3.5 C 0 km/h
929 28-02-2003 05:42:10 3.4 C 4.64 g/m*3 3.4 C 0 km/h
930 28-02-2003 05:44:10 3.4 C 4.64 g/m*3 3.4 C 0 km/h
931 28-02-2003 05:48:10 3.4 C 4.64 g/m*3 3.4 C 0 km/h
932 28-02-2003 05:50:10 3.4 C 4.64 g/m*3 3.4 C 0 km/h
933 28-02-2003 05:54:10 3.4 C 4.64 g/m*3 3.4 C 0 km/h
934 28-02-2003 05:56:10 3.4 C 4.64 g/m*3 3.4 C 0 km/h
935 28-02-2003 06:00:10 3.5 C 4.67 g/m*3 3.5 C 0 km/h
936 28-02-2003 06:02:10 3.5 C 4.67 g/m*3 3.5 C 0 km/h
937 28-02-2003 06:06:10 3.5 C 4.67 g/m*3 3.5 C 0 km/h
938 28-02-2003 06:08:10 3.5 C 4.67 g/m*3 3.5 C 0 km/h
939 28-02-2003 06:12:10 3.5 C 4.67 g/m*3 3.5 C 0 km/h
940 28-02-2003 06:14:10 3.5 C 4.67 g/m*3 3.5 C 0 km/h
941 28-02-2003 06:18:10 3.5 C 4.67 g/m*3 3.5 C 0 km/h
942 28-02-2003 06:20:10 3.5 C 4.67 g/m*3 3.5 C 0 km/h
943 28-02-2003 06:24:10 3.5 C 4.67 g/m*3 3.5 C 0 km/h
944 28-02-2003 06:26:10 3.5 C 4.67 g/m*3 3.5 C 0 km/h
945 28-02-2003 06:30:10 3.5 C 4.67 g/m*3 3.5 C 0 km/h
946 28-02-2003 06:32:10 3.5 C 4.67 g/m*3 3.5 C 0 km/h
947 28-02-2003 06:36:10 3.5 C 4.67 g/m*3 3.5 C 0 km/h
948 28-02-2003 06:38:10 3.5 C 4.67 g/m*3 3.5 C 0 km/h
949 28-02-2003 06:42:10 3.5 C 4.67 g/m*3 3.5 C 0 km/h
950 28-02-2003 06:44:10 3.5 C 4.67 g/m*3 3.5 C 0 km/h
Sensor: Nr:Datum:Temp:Abs-Feuchte:Windchill:Wind:
Aussen-T/F 951 28-02-2003 06:48:10 3.4 C 4.64 g/m*3 3.4 C 0 km/h
952 28-02-2003 06:50:10 3.4 C 4.64 g/m*3 3.4 C 0 km/h
953 28-02-2003 06:54:10 3.4 C 4.64 g/m*3 3.4 C 0 km/h
954 28-02-2003 06:56:10 3.4 C 4.64 g/m*3 3.4 C 0 km/h
955 28-02-2003 07:00:10 3.4 C 4.64 g/m*3 3.4 C 0 km/h
956 28-02-2003 07:02:10 3.4 C 4.64 g/m*3 3.4 C 0 km/h
957 28-02-2003 07:06:10 3.4 C 4.7 g/m*3 3.4 C 0 km/h
958 28-02-2003 07:08:10 3.4 C 4.7 g/m*3 3.4 C 0 km/h
959 28-02-2003 07:12:10 3.4 C 4.7 g/m*3 3.4 C 0 km/h
960 28-02-2003 07:14:10 3.4 C 4.7 g/m*3 3.4 C 0 km/h
961 28-02-2003 07:18:10 3.4 C 4.7 g/m*3 3.4 C 0 km/h
962 28-02-2003 07:20:10 3.4 C 4.7 g/m*3 3.4 C 0 km/h
963 28-02-2003 07:24:10 3.4 C 4.7 g/m*3 3.4 C 0 km/h
964 28-02-2003 07:26:10 3.4 C 4.7 g/m*3 3.4 C 0 km/h
965 28-02-2003 07:30:10 3.4 C 4.7 g/m*3 3.4 C 0 km/h
966 28-02-2003 07:32:10 3.4 C 4.7 g/m*3 3.4 C 0 km/h
967 28-02-2003 07:36:10 3.5 C 4.73 g/m*3 3.5 C 0 km/h
968 28-02-2003 07:38:10 3.5 C 4.73 g/m*3 3.5 C 0 km/h
969 28-02-2003 07:42:10 3.5 C 4.73 g/m*3 3.5 C 0 km/h
970 28-02-2003 07:44:10 3.5 C 4.73 g/m*3 3.5 C 0 km/h
971 28-02-2003 07:48:10 3.5 C 4.73 g/m*3 3.5 C 0 km/h
972 28-02-2003 07:50:10 3.5 C 4.73 g/m*3 3.5 C 0 km/h
973 28-02-2003 07:54:10 3.6 C 4.77 g/m*3 3.6 C 0 km/h
974 28-02-2003 07:56:10 3.6 C 4.77 g/m*3 3.6 C 0 km/h
975 28-02-2003 08:00:10 3.7 C 4.8 g/m*3 3.7 C 0 km/h
Sensor: Nr:Datum:Temp:Abs-Feuchte:Windchill:Wind:
Aussen-T/F 976 28-02-2003 08:02:10 3.7 C 4.8 g/m*3 3.7 C 0 km/h
977 28-02-2003 08:06:10 3.7 C 4.74 g/m*3 3.7 C 0 km/h
978 28-02-2003 08:08:10 3.7 C 4.74 g/m*3 3.7 C 0 km/h
979 28-02-2003 08:12:10 3.7 C 4.74 g/m*3 3.7 C 0 km/h
980 28-02-2003 08:14:10 3.7 C 4.74 g/m*3 3.7 C 0 km/h
981 28-02-2003 08:18:10 3.8 C 4.77 g/m*3 3.8 C 0 km/h
982 28-02-2003 08:20:10 3.8 C 4.77 g/m*3 3.8 C 0 km/h
983 28-02-2003 08:24:10 3.8 C 4.77 g/m*3 3.8 C 0 km/h
984 28-02-2003 08:26:10 3.8 C 4.77 g/m*3 3.8 C 0 km/h
985 28-02-2003 08:30:10 3.8 C 4.77 g/m*3 3.8 C 0 km/h
986 28-02-2003 08:32:10 3.8 C 4.77 g/m*3 3.8 C 0 km/h
987 28-02-2003 08:36:10 3.9 C 4.74 g/m*3 3.9 C 0 km/h
988 28-02-2003 08:38:10 3.9 C 4.74 g/m*3 3.9 C 0 km/h
989 28-02-2003 08:42:10 4 C 4.7 g/m*3 4 C 0 km/h
990 28-02-2003 08:44:10 4 C 4.7 g/m*3 4 C 0 km/h
991 28-02-2003 08:48:10 4.3 C 4.8 g/m*3 4.3 C 0 km/h
992 28-02-2003 08:50:10 4.3 C 4.8 g/m*3 4.3 C 0 km/h
993 28-02-2003 08:54:10 4.2 C 4.77 g/m*3 4.2 C 0 km/h
994 28-02-2003 08:56:10 4.2 C 4.77 g/m*3 4.2 C 0 km/h
995 28-02-2003 09:00:10 4.3 C 4.8 g/m*3 4.3 C 0 km/h
996 28-02-2003 09:02:10 4.3 C 4.8 g/m*3 4.3 C 0 km/h
997 28-02-2003 09:06:10 4.3 C 4.8 g/m*3 4.3 C 0 km/h
998 28-02-2003 09:08:10 4.3 C 4.8 g/m*3 4.3 C 0 km/h
999 28-02-2003 09:12:10 4.4 C 4.83 g/m*3 4.4 C 0 km/h
1000 28-02-2003 09:14:10 4.4 C 4.83 g/m*3 4.4 C 0 km/h
Sensor: Nr:Datum:Temp:Abs-Feuchte:Windchill:Wind:
Aussen-T/F 1001 28-02-2003 09:18:10 4.4 C 4.83 g/m*3 4.4 C 0 km/h
1002 28-02-2003 09:20:10 4.4 C 4.83 g/m*3 4.4 C 0 km/h
1003 28-02-2003 09:24:10 4.5 C 4.86 g/m*3 4.5 C 0 km/h
1004 28-02-2003 09:26:10 4.5 C 4.86 g/m*3 4.5 C 0 km/h
1005 28-02-2003 09:30:10 4.6 C 4.9 g/m*3 4.6 C 0 km/h
1006 28-02-2003 09:32:10 4.6 C 4.9 g/m*3 4.6 C 0 km/h
1007 28-02-2003 09:36:10 4.7 C 4.86 g/m*3 4.7 C 0 km/h
1008 28-02-2003 09:38:10 4.7 C 4.86 g/m*3 4.7 C 0 km/h
1009 28-02-2003 09:42:10 4.7 C 4.86 g/m*3 4.7 C 0 km/h
1010 28-02-2003 09:44:10 4.7 C 4.86 g/m*3 4.7 C 0 km/h
1011 28-02-2003 09:48:10 4.8 C 4.83 g/m*3 4.8 C 0 km/h
1012 28-02-2003 09:50:10 4.8 C 4.83 g/m*3 4.8 C 0 km/h
1013 28-02-2003 09:54:10 4.9 C 4.86 g/m*3 4.9 C 0 km/h
1014 28-02-2003 09:56:10 4.9 C 4.86 g/m*3 4.9 C 0 km/h
1015 28-02-2003 10:00:10 4.9 C 4.86 g/m*3 4.9 C 0 km/h
1016 28-02-2003 10:02:10 4.9 C 4.86 g/m*3 4.9 C 0 km/h
1017 28-02-2003 10:06:10 5.1 C 4.86 g/m*3 5.1 C 0 km/h
1018 28-02-2003 10:08:10 5.1 C 4.86 g/m*3 5.1 C 0 km/h
1019 28-02-2003 10:12:10 5.3 C 4.92 g/m*3 5.3 C 0 km/h
1020 28-02-2003 10:14:10 5.3 C 4.92 g/m*3 5.3 C 0 km/h
1021 28-02-2003 10:18:10 5.6 C 4.95 g/m*3 5.6 C 0 km/h
1022 28-02-2003 10:20:10 5.6 C 4.95 g/m*3 5.6 C 0 km/h
1023 28-02-2003 10:24:10 5.8 C 5.01 g/m*3 5.8 C 0 km/h
1024 28-02-2003 10:26:10 5.8 C 5.01 g/m*3 5.8 C 0 km/h
1025 28-02-2003 10:30:10 6 C 4.94 g/m*3 6 C 0 km/h
Sensor: Nr:Datum:Temp:Abs-Feuchte:Windchill:Wind:
Aussen-T/F 1026 28-02-2003 10:32:10 6 C 4.94 g/m*3 6 C 0 km/h
1027 28-02-2003 10:36:10 6.3 C 4.96 g/m*3 6.3 C 0 km/h
1028 28-02-2003 10:38:10 6.3 C 4.96 g/m*3 6.3 C 0 km/h
1029 28-02-2003 10:42:10 6.5 C 4.95 g/m*3 6.5 C 0 km/h
1030 28-02-2003 10:44:10 6.5 C 4.95 g/m*3 6.5 C 0 km/h
1031 28-02-2003 10:48:10 6.9 C 5.08 g/m*3 6.9 C 0 km/h
1032 28-02-2003 10:50:10 6.9 C 5.08 g/m*3 6.9 C 0 km/h
1033 28-02-2003 10:54:10 7.1 C 4.99 g/m*3 7.1 C 0 km/h
1034 28-02-2003 10:56:10 7.1 C 4.99 g/m*3 7.1 C 0 km/h
1035 28-02-2003 11:00:10 7.3 C 4.98 g/m*3 7.3 C 0 km/h
1036 28-02-2003 11:02:10 7.3 C 4.98 g/m*3 7.3 C 0 km/h
1037 28-02-2003 11:06:10 7.4 C 4.93 g/m*3 7.4 C 0 km/h
1038 28-02-2003 11:08:10 7.4 C 4.93 g/m*3 7.4 C 0 km/h
1039 28-02-2003 11:12:10 7.6 C 4.99 g/m*3 7.6 C 0 km/h
1040 28-02-2003 11:14:10 7.6 C 4.99 g/m*3 7.6 C 0 km/h
1041 28-02-2003 11:18:10 7.4 C 4.85 g/m*3 7.4 C 0 km/h
1042 28-02-2003 11:20:10 7.4 C 4.85 g/m*3 7.4 C 0 km/h
1043 28-02-2003 11:24:10 7.5 C 4.96 g/m*3 7.5 C 0 km/h
1044 28-02-2003 11:26:10 7.5 C 4.96 g/m*3 7.5 C 0 km/h
1045 28-02-2003 11:30:10 7.9 C 5.09 g/m*3 7.9 C 0 km/h
1046 28-02-2003 11:32:10 7.9 C 5.09 g/m*3 7.9 C 0 km/h
1047 28-02-2003 11:36:10 8 C 4.96 g/m*3 8 C 0 km/h
1048 28-02-2003 11:38:10 8 C 4.96 g/m*3 8 C 0 km/h
1049 28-02-2003 11:42:10 8.2 C 5.02 g/m*3 8.2 C 0 km/h
1050 28-02-2003 11:44:10 8.2 C 5.02 g/m*3 8.2 C 0 km/h
Sensor: Nr:Datum:Temp:Abs-Feuchte:Windchill:Wind:
Aussen-T/F 1051 28-02-2003 11:48:10 8.4 C 5.09 g/m*3 8.4 C 0 km/h
1052 28-02-2003 11:50:10 8.4 C 5.09 g/m*3 8.4 C 0 km/h
1053 28-02-2003 11:54:10 8.9 C 5.26 g/m*3 8.9 C 0 km/h
1054 28-02-2003 11:56:10 8.9 C 5.26 g/m*3 8.9 C 0 km/h
1055 28-02-2003 12:00:41 9.1 C 5.23 g/m*3 9.1 C 0 km/h
1056 28-02-2003 12:02:10 9.1 C 5.23 g/m*3 9.1 C 0 km/h
1057 28-02-2003 12:06:41 9.5 C 5.28 g/m*3 9.5 C 0 km/h
1058 28-02-2003 12:08:10 9.5 C 5.28 g/m*3 9.5 C 0 km/h
1059 28-02-2003 12:12:41 9.8 C 5.29 g/m*3 9.8 C 0 km/h
1060 28-02-2003 12:14:10 9.8 C 5.29 g/m*3 9.8 C 0 km/h
1061 28-02-2003 12:18:41 10.1 C 5.3 g/m*3 10.1 C 0 km/h
1062 28-02-2003 12:20:10 10.1 C 5.3 g/m*3 10.1 C 0 km/h
1063 28-02-2003 12:24:41 10.3 C 5.36 g/m*3 10.3 C 0 km/h
1064 28-02-2003 12:26:10 10.3 C 5.36 g/m*3 10.3 C 0 km/h
1065 28-02-2003 12:30:41 10.5 C 5.43 g/m*3 10.5 C 0 km/h
1066 28-02-2003 12:32:10 10.5 C 5.43 g/m*3 10.5 C 0 km/h
1067 28-02-2003 12:36:41 10.8 C 5.54 g/m*3 10.8 C 0 km/h
1068 28-02-2003 12:38:10 10.8 C 5.54 g/m*3 10.8 C 0 km/h
1069 28-02-2003 12:42:41 11 C 5.41 g/m*3 11 C 0 km/h
1070 28-02-2003 12:44:10 11 C 5.41 g/m*3 11 C 0 km/h
1071 28-02-2003 12:48:41 11.3 C 5.61 g/m*3 11.3 C 0 km/h
1072 28-02-2003 12:50:10 11.3 C 5.61 g/m*3 11.3 C 0 km/h
1073 28-02-2003 12:54:41 11.3 C 5.61 g/m*3 11.3 C 0 km/h
1074 28-02-2003 12:56:10 11.3 C 5.61 g/m*3 11.3 C 0 km/h
1075 28-02-2003 13:00:41 11.4 C 5.75 g/m*3 11.4 C 0 km/h
Sensor: Nr:Datum:Temp:Abs-Feuchte:Windchill:Wind:
Aussen-T/F 1076 28-02-2003 13:02:10 11.4 C 5.75 g/m*3 11.4 C 0 km/h
1077 28-02-2003 13:06:41 11.8 C 5.89 g/m*3 11.8 C 0 km/h
1078 28-02-2003 13:08:10 11.8 C 5.89 g/m*3 11.8 C 0 km/h
1079 28-02-2003 13:12:41 12 C 5.86 g/m*3 12 C 0 km/h
1080 28-02-2003 13:14:10 12 C 5.86 g/m*3 12 C 0 km/h
1081 28-02-2003 13:18:41 12 C 5.86 g/m*3 12 C 0 km/h
1082 28-02-2003 13:20:10 12 C 5.86 g/m*3 12 C 0 km/h
1083 28-02-2003 13:24:41 12.1 C 5.79 g/m*3 12.1 C 0 km/h
1084 28-02-2003 13:26:10 12.1 C 5.79 g/m*3 12.1 C 0 km/h
1085 28-02-2003 13:30:41 12.3 C 5.97 g/m*3 12.3 C 0 km/h
1086 28-02-2003 13:32:10 12.3 C 5.97 g/m*3 12.3 C 0 km/h
1087 28-02-2003 13:36:41 12.5 C 6.05 g/m*3 12.5 C 0 km/h
1088 28-02-2003 13:38:10 12.5 C 6.05 g/m*3 12.5 C 0 km/h
1089 28-02-2003 13:42:41 12.3 C 5.97 g/m*3 12.3 C 0 km/h
1090 28-02-2003 13:44:10 12.3 C 5.97 g/m*3 12.3 C 0 km/h
1091 28-02-2003 13:48:41 12.7 C 6.12 g/m*3 12.7 C 0 km/h
1092 28-02-2003 13:50:10 12.7 C 6.12 g/m*3 12.7 C 0 km/h
1093 28-02-2003 13:54:41 12.8 C 6.16 g/m*3 12.8 C 0 km/h
1094 28-02-2003 13:56:10 12.8 C 6.16 g/m*3 12.8 C 0 km/h
1095 28-02-2003 14:00:11 12.5 C 6.05 g/m*3 12.5 C 0 km/h
1096 28-02-2003 14:02:10 12.5 C 6.05 g/m*3 12.5 C 0 km/h
1097 28-02-2003 14:06:11 12.7 C 6.23 g/m*3 12.7 C 0 km/h
1098 28-02-2003 14:08:10 12.7 C 6.23 g/m*3 12.7 C 0 km/h
1099 28-02-2003 14:12:11 12.7 C 6.12 g/m*3 12.7 C 0 km/h
1100 28-02-2003 14:14:10 12.7 C 6.12 g/m*3 12.7 C 0 km/h
Sensor: Nr:Datum:Temp:Abs-Feuchte:Windchill:Wind:
Aussen-T/F 1101 28-02-2003 14:18:11 12.8 C 6.16 g/m*3 12.8 C 0 km/h
1102 28-02-2003 14:20:10 12.8 C 6.16 g/m*3 12.8 C 0 km/h
1103 28-02-2003 14:24:11 12.9 C 6.2 g/m*3 12.9 C 0 km/h
1104 28-02-2003 14:26:10 12.9 C 6.2 g/m*3 12.9 C 0 km/h
1105 28-02-2003 14:30:11 13 C 6.12 g/m*3 13 C 0 km/h
1106 28-02-2003 14:32:10 13 C 6.12 g/m*3 13 C 0 km/h
1107 28-02-2003 14:36:11 13.1 C 6.16 g/m*3 13.1 C 0 km/h
1108 28-02-2003 14:38:10 13.1 C 6.16 g/m*3 13.1 C 0 km/h
1109 28-02-2003 14:42:11 13.3 C 6.24 g/m*3 13.3 C 0 km/h
1110 28-02-2003 14:44:10 13.3 C 6.24 g/m*3 13.3 C 0 km/h
1111 28-02-2003 14:48:11 13.2 C 6.2 g/m*3 13.2 C 0 km/h
1112 28-02-2003 14:50:10 13.2 C 6.2 g/m*3 13.2 C 0 km/h
1113 28-02-2003 14:54:11 13.7 C 6.39 g/m*3 13.7 C 0 km/h
1114 28-02-2003 14:56:10 13.7 C 6.39 g/m*3 13.7 C 0 km/h
1115 28-02-2003 15:00:11 13.8 C 6.31 g/m*3 13.8 C 0 km/h
1116 28-02-2003 15:02:10 13.8 C 6.31 g/m*3 13.8 C 0 km/h
1117 28-02-2003 15:06:11 13.7 C 6.28 g/m*3 13.7 C 0 km/h
1118 28-02-2003 15:08:10 13.7 C 6.28 g/m*3 13.7 C 0 km/h
1119 28-02-2003 15:12:11 13.7 C 6.28 g/m*3 13.7 C 0 km/h
1120 28-02-2003 15:14:10 13.7 C 6.28 g/m*3 13.7 C 0 km/h
1121 28-02-2003 15:18:11 13.5 C 6.32 g/m*3 13.5 C 0 km/h
1122 28-02-2003 15:20:10 13.5 C 6.32 g/m*3 13.5 C 0 km/h
1123 28-02-2003 15:24:11 14 C 6.27 g/m*3 14 C 0 km/h
1124 28-02-2003 15:26:10 14 C 6.27 g/m*3 14 C 0 km/h
1125 28-02-2003 15:30:11 13.6 C 6.24 g/m*3 13.6 C 0 km/h
Sensor: Nr:Datum:Temp:Abs-Feuchte:Windchill:Wind:
Aussen-T/F 1126 28-02-2003 15:32:10 13.6 C 6.24 g/m*3 13.6 C 0 km/h
1127 28-02-2003 15:36:11 13.3 C 6.35 g/m*3 13.3 C 0 km/h
1128 28-02-2003 15:38:10 13.3 C 6.35 g/m*3 13.3 C 0 km/h
1129 28-02-2003 15:42:11 12.8 C 6.38 g/m*3 12.8 C 0 km/h
1130 28-02-2003 15:44:10 12.8 C 6.38 g/m*3 12.8 C 0 km/h
1131 28-02-2003 15:48:11 12.9 C 6.42 g/m*3 12.9 C 0 km/h
1132 28-02-2003 15:50:10 12.9 C 6.42 g/m*3 12.9 C 0 km/h
1133 28-02-2003 15:54:11 13.3 C 6.35 g/m*3 13.3 C 0 km/h
1134 28-02-2003 15:56:10 13.3 C 6.35 g/m*3 13.3 C 0 km/h
1135 28-02-2003 16:00:57 13.8 C 6.43 g/m*3 13.8 C 0 km/h
1136 28-02-2003 16:02:10 13.8 C 6.43 g/m*3 13.8 C 0 km/h
1137 28-02-2003 16:06:57 13.5 C 6.32 g/m*3 13.5 C 0 km/h
1138 28-02-2003 16:08:10 13.5 C 6.32 g/m*3 13.5 C 0 km/h
1139 28-02-2003 16:12:57 13.7 C 6.51 g/m*3 13.7 C 0 km/h
1140 28-02-2003 16:14:10 13.7 C 6.51 g/m*3 13.7 C 0 km/h
1141 28-02-2003 16:18:57 13.8 C 6.43 g/m*3 13.8 C 0 km/h
1142 28-02-2003 16:20:10 13.8 C 6.43 g/m*3 13.8 C 0 km/h
1143 28-02-2003 16:24:57 13.6 C 6.36 g/m*3 13.6 C 0 km/h
1144 28-02-2003 16:26:10 13.6 C 6.36 g/m*3 13.6 C 0 km/h
1145 28-02-2003 16:30:57 13.5 C 6.43 g/m*3 13.5 C 0 km/h
1146 28-02-2003 16:32:10 13.5 C 6.43 g/m*3 13.5 C 0 km/h
1147 28-02-2003 16:36:57 13.3 C 6.35 g/m*3 13.3 C 0 km/h
1148 28-02-2003 16:38:10 13.3 C 6.35 g/m*3 13.3 C 0 km/h
1149 28-02-2003 16:42:57 13.2 C 6.32 g/m*3 13.2 C 0 km/h
1150 28-02-2003 16:44:10 13.2 C 6.32 g/m*3 13.2 C 0 km/h
Sensor: Nr:Datum:Temp:Abs-Feuchte:Windchill:Wind:
Aussen-T/F 1151 28-02-2003 16:48:11 13 C 6.24 g/m*3 13 C 0 km/h
1152 28-02-2003 16:50:10 13 C 6.24 g/m*3 13 C 0 km/h
1153 28-02-2003 16:54:11 12.8 C 6.38 g/m*3 12.8 C 0 km/h
1154 28-02-2003 16:56:10 12.8 C 6.38 g/m*3 12.8 C 0 km/h
1155 28-02-2003 17:00:11 13 C 6.35 g/m*3 13 C 0 km/h
1156 28-02-2003 17:02:10 13 C 6.35 g/m*3 13 C 0 km/h
1157 28-02-2003 17:06:11 12.9 C 6.42 g/m*3 12.9 C 0 km/h
1158 28-02-2003 17:08:10 12.9 C 6.42 g/m*3 12.9 C 0 km/h
1159 28-02-2003 17:12:11 12.8 C 6.38 g/m*3 12.8 C 0 km/h
1160 28-02-2003 17:14:10 12.8 C 6.38 g/m*3 12.8 C 0 km/h
1161 28-02-2003 17:18:11 12.5 C 6.38 g/m*3 12.5 C 0 km/h
1162 28-02-2003 17:20:10 12.5 C 6.38 g/m*3 12.5 C 0 km/h
1163 28-02-2003 17:24:11 12.3 C 6.3 g/m*3 12.3 C 0 km/h
1164 28-02-2003 17:26:10 12.3 C 6.3 g/m*3 12.3 C 0 km/h
1165 28-02-2003 17:30:11 12.1 C 6.33 g/m*3 12.1 C 0 km/h
1166 28-02-2003 17:32:10 12.1 C 6.33 g/m*3 12.1 C 0 km/h
1167 28-02-2003 17:36:11 11.8 C 6.31 g/m*3 11.8 C 0 km/h
1168 28-02-2003 17:38:10 11.8 C 6.31 g/m*3 11.8 C 0 km/h
1169 28-02-2003 17:42:11 11.2 C 6.18 g/m*3 11.2 C 0 km/h
1170 28-02-2003 17:44:10 11.2 C 6.18 g/m*3 11.2 C 0 km/h
1171 28-02-2003 17:48:11 11.1 C 6.14 g/m*3 11.1 C 0 km/h
1172 28-02-2003 17:50:10 11.1 C 6.14 g/m*3 11.1 C 0 km/h
1173 28-02-2003 17:54:11 10.7 C 6.19 g/m*3 10.7 C 0 km/h
1174 28-02-2003 17:56:10 10.7 C 6.19 g/m*3 10.7 C 0 km/h
1175 28-02-2003 18:00:11 10.6 C 6.15 g/m*3 10.6 C 0 km/h
Sensor: Nr:Datum:Temp:Abs-Feuchte:Windchill:Wind:
Aussen-T/F 1176 28-02-2003 18:02:10 10.6 C 6.15 g/m*3 10.6 C 0 km/h
1177 28-02-2003 18:06:11 10.5 C 6.11 g/m*3 10.5 C 0 km/h
1178 28-02-2003 18:08:10 10.5 C 6.11 g/m*3 10.5 C 0 km/h
1179 28-02-2003 18:12:11 10.4 C 6.17 g/m*3 10.4 C 0 km/h
1180 28-02-2003 18:14:10 10.4 C 6.17 g/m*3 10.4 C 0 km/h
1181 28-02-2003 18:18:11 10.3 C 6.13 g/m*3 10.3 C 0 km/h
1182 28-02-2003 18:20:10 10.3 C 6.13 g/m*3 10.3 C 0 km/h
1183 28-02-2003 18:24:11 10.2 C 6 g/m*3 10.2 C 0 km/h
1184 28-02-2003 18:26:10 10.2 C 6 g/m*3 10.2 C 0 km/h
1185 28-02-2003 18:30:11 10 C 6.01 g/m*3 10 C 0 km/h
1186 28-02-2003 18:32:10 10 C 6.01 g/m*3 10 C 0 km/h
1187 28-02-2003 18:36:11 10 C 6.01 g/m*3 10 C 0 km/h
1188 28-02-2003 18:38:10 10 C 6.01 g/m*3 10 C 0 km/h
1189 28-02-2003 18:42:11 10 C 6.01 g/m*3 10 C 0 km/h
1190 28-02-2003 18:44:10 10 C 6.01 g/m*3 10 C 0 km/h
1191 28-02-2003 18:48:11 9.9 C 6.07 g/m*3 9.9 C 0 km/h
1192 28-02-2003 18:50:10 9.9 C 6.07 g/m*3 9.9 C 0 km/h
1193 28-02-2003 18:54:11 9.9 C 6.16 g/m*3 9.9 C 0 km/h
1194 28-02-2003 18:56:10 9.9 C 6.16 g/m*3 9.9 C 0 km/h
1195 28-02-2003 19:00:11 9.9 C 6.16 g/m*3 9.9 C 0 km/h
1196 28-02-2003 19:02:10 9.9 C 6.16 g/m*3 9.9 C 0 km/h
1197 28-02-2003 19:06:11 9.8 C 6.03 g/m*3 9.8 C 0 km/h
1198 28-02-2003 19:08:10 9.8 C 6.03 g/m*3 9.8 C 0 km/h
1199 28-02-2003 19:12:11 9.6 C 6.05 g/m*3 9.6 C 0 km/h
1200 28-02-2003 19:14:10 9.6 C 6.05 g/m*3 9.6 C 0 km/h
Sensor: Nr:Datum:Temp:Abs-Feuchte:Windchill:Wind:
Aussen-T/F 1201 28-02-2003 19:24:11 9.1 C 5.86 g/m*3 9.1 C 0 km/h
1202 28-02-2003 19:26:10 9.1 C 5.86 g/m*3 9.1 C 0 km/h
1203 28-02-2003 19:30:11 8.8 C 5.92 g/m*3 8.8 C 0 km/h
1204 28-02-2003 19:32:10 8.8 C 5.92 g/m*3 8.8 C 0 km/h
1205 28-02-2003 19:36:11 8.7 C 5.97 g/m*3 8.7 C 0 km/h
1206 28-02-2003 19:38:10 8.7 C 5.97 g/m*3 8.7 C 0 km/h
1207 28-02-2003 19:42:11 8.5 C 5.89 g/m*3 8.5 C 0 km/h
1208 28-02-2003 19:44:10 8.5 C 5.89 g/m*3 8.5 C 0 km/h
1209 28-02-2003 19:48:11 8.2 C 5.86 g/m*3 8.2 C 0 km/h
1210 28-02-2003 19:50:10 8.2 C 5.86 g/m*3 8.2 C 0 km/h
1211 28-02-2003 19:54:11 8 C 5.79 g/m*3 8 C 0 km/h
1212 28-02-2003 19:56:10 8 C 5.79 g/m*3 8 C 0 km/h
1213 28-02-2003 20:01:10 7.9 C 5.91 g/m*3 7.9 C 0 km/h
1214 28-02-2003 20:02:10 7.9 C 5.91 g/m*3 7.9 C 0 km/h
1215 28-02-2003 20:07:10 8 C 5.87 g/m*3 8 C 0 km/h
1216 28-02-2003 20:08:10 8 C 5.87 g/m*3 8 C 0 km/h
1217 28-02-2003 20:13:10 7.8 C 5.88 g/m*3 7.8 C 0 km/h
1218 28-02-2003 20:14:10 7.8 C 5.88 g/m*3 7.8 C 0 km/h
1219 28-02-2003 20:19:10 7.7 C 5.84 g/m*3 7.7 C 0 km/h
1220 28-02-2003 20:20:10 7.7 C 5.84 g/m*3 7.7 C 0 km/h
1221 28-02-2003 20:25:10 7.5 C 5.84 g/m*3 7.5 C 0 km/h
1222 28-02-2003 20:26:10 7.5 C 5.84 g/m*3 7.5 C 0 km/h
1223 28-02-2003 20:31:10 7.3 C 5.77 g/m*3 7.3 C 0 km/h
1224 28-02-2003 20:32:10 7.3 C 5.77 g/m*3 7.3 C 0 km/h
1225 28-02-2003 20:37:10 7.2 C 5.73 g/m*3 7.2 C 0 km/h
Sensor: Nr:Datum:Temp:Abs-Feuchte:Windchill:Wind:
Aussen-T/F 1226 28-02-2003 20:38:10 7.2 C 5.73 g/m*3 7.2 C 0 km/h
1227 28-02-2003 20:43:10 7.1 C 5.77 g/m*3 7.1 C 0 km/h
1228 28-02-2003 20:44:10 7.1 C 5.77 g/m*3 7.1 C 0 km/h
1229 28-02-2003 20:49:10 7 C 5.73 g/m*3 7 C 0 km/h
1230 28-02-2003 20:50:10 7 C 5.73 g/m*3 7 C 0 km/h
1231 28-02-2003 20:55:10 6.9 C 5.77 g/m*3 6.9 C 0 km/h
1232 28-02-2003 20:56:10 6.9 C 5.77 g/m*3 6.9 C 0 km/h
1233 28-02-2003 21:01:10 6.8 C 5.74 g/m*3 6.8 C 0 km/h
1234 28-02-2003 21:02:10 6.8 C 5.74 g/m*3 6.8 C 0 km/h
1235 28-02-2003 21:07:10 6.7 C 5.77 g/m*3 6.7 C 0 km/h
1236 28-02-2003 21:08:10 6.7 C 5.77 g/m*3 6.7 C 0 km/h
1237 28-02-2003 21:13:10 6.6 C 5.74 g/m*3 6.6 C 0 km/h
1238 28-02-2003 21:14:10 6.6 C 5.74 g/m*3 6.6 C 0 km/h
1239 28-02-2003 21:19:10 6.5 C 5.77 g/m*3 6.5 C 0 km/h
1240 28-02-2003 21:20:10 6.5 C 5.77 g/m*3 6.5 C 0 km/h
1241 28-02-2003 21:25:10 6.4 C 5.74 g/m*3 6.4 C 0 km/h
1242 28-02-2003 21:26:10 6.4 C 5.74 g/m*3 6.4 C 0 km/h
1243 28-02-2003 21:31:10 6.2 C 5.66 g/m*3 6.2 C 0 km/h
1244 28-02-2003 21:32:10 6.2 C 5.66 g/m*3 6.2 C 0 km/h
1245 28-02-2003 21:37:10 6 C 5.52 g/m*3 6 C 0 km/h
1246 28-02-2003 21:38:10 6 C 5.52 g/m*3 6 C 0 km/h
1247 28-02-2003 21:43:10 5.8 C 5.59 g/m*3 5.8 C 0 km/h
1248 28-02-2003 21:44:10 5.8 C 5.59 g/m*3 5.8 C 0 km/h
1249 28-02-2003 21:49:10 5.7 C 5.62 g/m*3 5.7 C 0 km/h
1250 28-02-2003 21:50:10 5.7 C 5.62 g/m*3 5.7 C 0 km/h
Sensor: Nr:Datum:Temp:Abs-Feuchte:Windchill:Wind:
Aussen-T/F 1251 28-02-2003 21:55:10 5.6 C 5.59 g/m*3 5.6 C 0 km/h
1252 28-02-2003 21:56:10 5.6 C 5.59 g/m*3 5.6 C 0 km/h
1253 28-02-2003 22:01:10 5.6 C 5.66 g/m*3 5.6 C 0 km/h
1254 28-02-2003 22:02:10 5.6 C 5.66 g/m*3 5.6 C 0 km/h
1255 28-02-2003 22:07:10 5.5 C 5.62 g/m*3 5.5 C 0 km/h
1256 28-02-2003 22:08:10 5.5 C 5.62 g/m*3 5.5 C 0 km/h
1257 28-02-2003 22:13:10 5.4 C 5.65 g/m*3 5.4 C 0 km/h
1258 28-02-2003 22:14:10 5.4 C 5.65 g/m*3 5.4 C 0 km/h
1259 28-02-2003 22:19:10 5.4 C 5.65 g/m*3 5.4 C 0 km/h
1260 28-02-2003 22:20:10 5.4 C 5.65 g/m*3 5.4 C 0 km/h
1261 28-02-2003 22:25:10 5.3 C 5.61 g/m*3 5.3 C 0 km/h
1262 28-02-2003 22:26:10 5.3 C 5.61 g/m*3 5.3 C 0 km/h
1263 28-02-2003 22:31:10 5.4 C 5.72 g/m*3 5.4 C 0 km/h
1264 28-02-2003 22:32:10 5.4 C 5.72 g/m*3 5.4 C 0 km/h
1265 28-02-2003 22:37:10 5.4 C 5.72 g/m*3 5.4 C 0 km/h
1266 28-02-2003 22:38:10 5.4 C 5.72 g/m*3 5.4 C 0 km/h
1267 28-02-2003 22:43:10 5.4 C 5.72 g/m*3 5.4 C 0 km/h
1268 28-02-2003 22:44:10 5.4 C 5.72 g/m*3 5.4 C 0 km/h
1269 28-02-2003 22:49:10 5.5 C 5.76 g/m*3 5.5 C 0 km/h
1270 28-02-2003 22:50:10 5.5 C 5.76 g/m*3 5.5 C 0 km/h
1271 28-02-2003 22:55:10 5.4 C 5.65 g/m*3 5.4 C 0 km/h
1272 28-02-2003 22:56:10 5.4 C 5.65 g/m*3 5.4 C 0 km/h
1273 28-02-2003 23:01:10 5.4 C 5.65 g/m*3 5.4 C 0 km/h
1274 28-02-2003 23:02:10 5.4 C 5.65 g/m*3 5.4 C 0 km/h
1275 28-02-2003 23:07:10 5.4 C 5.58 g/m*3 5.4 C 0 km/h
Sensor: Nr:Datum:Temp:Abs-Feuchte:Windchill:Wind:
Aussen-T/F 1276 28-02-2003 23:08:10 5.4 C 5.58 g/m*3 5.4 C 0 km/h
1277 28-02-2003 23:13:10 5.2 C 5.51 g/m*3 5.2 C 0 km/h
1278 28-02-2003 23:14:10 5.2 C 5.51 g/m*3 5.2 C 0 km/h
1279 28-02-2003 23:19:10 5.2 C 5.65 g/m*3 5.2 C 0 km/h
1280 28-02-2003 23:20:10 5.2 C 5.65 g/m*3 5.2 C 0 km/h
1281 28-02-2003 23:25:10 5.3 C 5.68 g/m*3 5.3 C 0 km/h
1282 28-02-2003 23:26:10 5.3 C 5.68 g/m*3 5.3 C 0 km/h
1283 28-02-2003 23:31:10 5.3 C 5.68 g/m*3 5.3 C 0 km/h
1284 28-02-2003 23:32:10 5.3 C 5.68 g/m*3 5.3 C 0 km/h
1285 28-02-2003 23:37:10 5.3 C 5.68 g/m*3 5.3 C 0 km/h
1286 28-02-2003 23:38:10 5.3 C 5.68 g/m*3 5.3 C 0 km/h
1287 28-02-2003 23:43:10 5.4 C 5.72 g/m*3 5.4 C 0 km/h
1288 28-02-2003 23:44:10 5.4 C 5.72 g/m*3 5.4 C 0 km/h
1289 28-02-2003 23:49:10 5.4 C 5.72 g/m*3 5.4 C 0 km/h
1290 28-02-2003 23:50:10 5.4 C 5.72 g/m*3 5.4 C 0 km/h
1291 28-02-2003 23:55:10 5.4 C 5.72 g/m*3 5.4 C 0 km/h
1292 28-02-2003 23:56:10 5.4 C 5.72 g/m*3 5.4 C 0 km/h
1293 01-03-2003 00:01:10 5.2 C 5.58 g/m*3 5.2 C 0 km/h
1294 01-03-2003 00:02:10 5.2 C 5.58 g/m*3 5.2 C 0 km/h
1295 01-03-2003 00:07:10 5.2 C 5.65 g/m*3 5.2 C 0 km/h
1296 01-03-2003 00:08:10 5.2 C 5.65 g/m*3 5.2 C 0 km/h
1297 01-03-2003 00:13:10 5.1 C 5.61 g/m*3 5.1 C 0 km/h
1298 01-03-2003 00:14:10 5.1 C 5.61 g/m*3 5.1 C 0 km/h
1299 01-03-2003 00:19:10 4.7 C 5.46 g/m*3 4.7 C 0 km/h
1300 01-03-2003 00:20:10 4.7 C 5.46 g/m*3 4.7 C 0 km/h
Sensor: Nr:Datum:Temp:Abs-Feuchte:Windchill:Wind:
Aussen-T/F 1301 01-03-2003 00:25:10 4.5 C 5.39 g/m*3 4.5 C 0 km/h
1302 01-03-2003 00:26:10 4.5 C 5.39 g/m*3 4.5 C 0 km/h
1303 01-03-2003 00:31:10 4.5 C 5.46 g/m*3 4.5 C 0 km/h
1304 01-03-2003 00:32:10 4.5 C 5.46 g/m*3 4.5 C 0 km/h
1305 01-03-2003 00:37:10 4.4 C 5.48 g/m*3 4.4 C 0 km/h
1306 01-03-2003 00:38:10 4.4 C 5.48 g/m*3 4.4 C 0 km/h
1307 01-03-2003 00:43:10 4.5 C 5.59 g/m*3 4.5 C 0 km/h
1308 01-03-2003 00:44:10 4.5 C 5.59 g/m*3 4.5 C 0 km/h
1309 01-03-2003 00:49:10 4.5 C 5.59 g/m*3 4.5 C 0 km/h
1310 01-03-2003 00:50:10 4.5 C 5.59 g/m*3 4.5 C 0 km/h
1311 01-03-2003 00:55:10 4.5 C 5.52 g/m*3 4.5 C 0 km/h
1312 01-03-2003 00:56:10 4.5 C 5.52 g/m*3 4.5 C 0 km/h
1313 01-03-2003 01:01:10 4.4 C 5.42 g/m*3 4.4 C 0 km/h
1314 01-03-2003 01:02:10 4.4 C 5.42 g/m*3 4.4 C 0 km/h
1315 01-03-2003 01:07:10 4.3 C 5.38 g/m*3 4.3 C 0 km/h
1316 01-03-2003 01:08:10 4.3 C 5.38 g/m*3 4.3 C 0 km/h
1317 01-03-2003 01:13:10 4.2 C 5.35 g/m*3 4.2 C 0 km/h
1318 01-03-2003 01:14:10 4.2 C 5.35 g/m*3 4.2 C 0 km/h
1319 01-03-2003 01:19:10 4.2 C 5.35 g/m*3 4.2 C 0 km/h
1320 01-03-2003 01:20:10 4.2 C 5.35 g/m*3 4.2 C 0 km/h
1321 01-03-2003 01:25:10 4.3 C 5.38 g/m*3 4.3 C 0 km/h
1322 01-03-2003 01:26:10 4.3 C 5.38 g/m*3 4.3 C 0 km/h
1323 01-03-2003 01:31:10 4.3 C 5.38 g/m*3 4.3 C 0 km/h
1324 01-03-2003 01:32:10 4.3 C 5.38 g/m*3 4.3 C 0 km/h
1325 01-03-2003 01:37:10 4.2 C 5.35 g/m*3 4.2 C 0 km/h
Sensor: Nr:Datum:Temp:Abs-Feuchte:Windchill:Wind:
Aussen-T/F 1326 01-03-2003 01:38:10 4.2 C 5.35 g/m*3 4.2 C 0 km/h
1327 01-03-2003 01:43:10 4.2 C 5.35 g/m*3 4.2 C 0 km/h
1328 01-03-2003 01:44:10 4.2 C 5.35 g/m*3 4.2 C 0 km/h
1329 01-03-2003 01:49:10 4.3 C 5.38 g/m*3 4.3 C 0 km/h
1330 01-03-2003 01:50:10 4.3 C 5.38 g/m*3 4.3 C 0 km/h
1331 01-03-2003 01:55:10 4.3 C 5.38 g/m*3 4.3 C 0 km/h
1332 01-03-2003 01:56:10 4.3 C 5.38 g/m*3 4.3 C 0 km/h
1333 01-03-2003 02:01:10 4.3 C 5.38 g/m*3 4.3 C 0 km/h
1334 01-03-2003 02:02:10 4.3 C 5.38 g/m*3 4.3 C 0 km/h
1335 01-03-2003 02:07:10 4.4 C 5.42 g/m*3 4.4 C 0 km/h
1336 01-03-2003 02:08:10 4.4 C 5.42 g/m*3 4.4 C 0 km/h
1337 01-03-2003 02:13:10 4.4 C 5.42 g/m*3 4.4 C 0 km/h
1338 01-03-2003 02:14:10 4.4 C 5.42 g/m*3 4.4 C 0 km/h
1339 01-03-2003 02:19:10 4.5 C 5.46 g/m*3 4.5 C 0 km/h
1340 01-03-2003 02:20:10 4.5 C 5.46 g/m*3 4.5 C 0 km/h
1341 01-03-2003 02:25:10 4.5 C 5.39 g/m*3 4.5 C 0 km/h
1342 01-03-2003 02:26:10 4.5 C 5.39 g/m*3 4.5 C 0 km/h
1343 01-03-2003 02:31:10 4.6 C 5.49 g/m*3 4.6 C 0 km/h
1344 01-03-2003 02:32:10 4.6 C 5.49 g/m*3 4.6 C 0 km/h
1345 01-03-2003 02:37:10 4.7 C 5.46 g/m*3 4.7 C 0 km/h
1346 01-03-2003 02:38:10 4.7 C 5.46 g/m*3 4.7 C 0 km/h
1347 01-03-2003 02:43:10 4.7 C 5.46 g/m*3 4.7 C 0 km/h
1348 01-03-2003 02:44:10 4.7 C 5.46 g/m*3 4.7 C 0 km/h
1349 01-03-2003 02:49:10 4.6 C 5.49 g/m*3 4.6 C 0 km/h
1350 01-03-2003 02:50:10 4.6 C 5.49 g/m*3 4.6 C 0 km/h
Sensor: Nr:Datum:Temp:Abs-Feuchte:Windchill:Wind:
Aussen-T/F 1351 01-03-2003 02:50:37 4.6 C 5.49 g/m*3 4.6 C 0 km/h
1352 01-03-2003 02:55:10 4.7 C 5.53 g/m*3 4.7 C 0 km/h
1353 01-03-2003 02:56:37 4.7 C 5.53 g/m*3 4.7 C 0 km/h
1354 01-03-2003 03:01:10 4.6 C 5.56 g/m*3 4.6 C 0 km/h
1355 01-03-2003 03:02:37 4.6 C 5.56 g/m*3 4.6 C 0 km/h
1356 01-03-2003 03:07:10 4.5 C 5.59 g/m*3 4.5 C 0 km/h
1357 01-03-2003 03:08:37 4.5 C 5.59 g/m*3 4.5 C 0 km/h
1358 01-03-2003 03:13:10 4.4 C 5.62 g/m*3 4.4 C 0 km/h
1359 01-03-2003 03:14:37 4.4 C 5.62 g/m*3 4.4 C 0 km/h
1360 01-03-2003 03:19:10 4.3 C 5.58 g/m*3 4.3 C 0 km/h
1361 01-03-2003 03:20:37 4.3 C 5.58 g/m*3 4.3 C 0 km/h
1362 01-03-2003 03:25:10 4.3 C 5.64 g/m*3 4.3 C 0 km/h
1363 01-03-2003 03:26:37 4.3 C 5.64 g/m*3 4.3 C 0 km/h
1364 01-03-2003 03:31:10 4.3 C 5.71 g/m*3 4.3 C 0 km/h
1365 01-03-2003 03:32:37 4.3 C 5.71 g/m*3 4.3 C 0 km/h
1366 01-03-2003 03:37:10 4.4 C 5.75 g/m*3 4.4 C 0 km/h
1367 01-03-2003 03:38:37 4.4 C 5.75 g/m*3 4.4 C 0 km/h
1368 01-03-2003 03:43:10 4.4 C 5.81 g/m*3 4.4 C 0 km/h
1369 01-03-2003 03:44:37 4.4 C 5.81 g/m*3 4.4 C 0 km/h
1370 01-03-2003 03:49:10 4.5 C 5.85 g/m*3 4.5 C 0 km/h
1371 01-03-2003 03:50:37 4.5 C 5.85 g/m*3 4.5 C 0 km/h
1372 01-03-2003 03:55:10 4.4 C 5.81 g/m*3 4.4 C 0 km/h
1373 01-03-2003 03:56:37 4.4 C 5.81 g/m*3 4.4 C 0 km/h
1374 01-03-2003 04:01:10 4.4 C 5.88 g/m*3 4.4 C 0 km/h
1375 01-03-2003 04:02:37 4.4 C 5.88 g/m*3 4.4 C 0 km/h
Sensor: Nr:Datum:Temp:Abs-Feuchte:Windchill:Wind:
Aussen-T/F 1376 01-03-2003 04:07:10 4.3 C 5.84 g/m*3 4.3 C 0 km/h
1377 01-03-2003 04:08:37 4.3 C 5.84 g/m*3 4.3 C 0 km/h
1378 01-03-2003 04:13:10 4.3 C 5.84 g/m*3 4.3 C 0 km/h
1379 01-03-2003 04:14:37 4.3 C 5.84 g/m*3 4.3 C 0 km/h
1380 01-03-2003 04:19:10 4.4 C 5.94 g/m*3 4.4 C 0 km/h
1381 01-03-2003 04:20:37 4.4 C 5.94 g/m*3 4.4 C 0 km/h
1382 01-03-2003 04:25:10 4.4 C 5.94 g/m*3 4.4 C 0 km/h
1383 01-03-2003 04:26:37 4.4 C 5.94 g/m*3 4.4 C 0 km/h
1384 01-03-2003 04:31:10 4.4 C 5.94 g/m*3 4.4 C 0 km/h
1385 01-03-2003 04:32:37 4.4 C 5.94 g/m*3 4.4 C 0 km/h
1386 01-03-2003 04:37:10 4.6 C 6.02 g/m*3 4.6 C 0 km/h
1387 01-03-2003 04:38:37 4.6 C 6.02 g/m*3 4.6 C 0 km/h
1388 01-03-2003 04:43:10 4.6 C 6.09 g/m*3 4.6 C 0 km/h
1389 01-03-2003 04:44:37 4.6 C 6.09 g/m*3 4.6 C 0 km/h
1390 01-03-2003 04:49:10 4.7 C 6.13 g/m*3 4.7 C 0 km/h
1391 01-03-2003 04:50:37 4.7 C 6.13 g/m*3 4.7 C 0 km/h
1392 01-03-2003 04:55:10 4.7 C 6.13 g/m*3 4.7 C 0 km/h
1393 01-03-2003 04:56:37 4.7 C 6.13 g/m*3 4.7 C 0 km/h
1394 01-03-2003 05:01:10 4.6 C 6.09 g/m*3 4.6 C 0 km/h
1395 01-03-2003 05:02:37 4.6 C 6.09 g/m*3 4.6 C 0 km/h
1396 01-03-2003 05:07:10 4.7 C 6.13 g/m*3 4.7 C 0 km/h
1397 01-03-2003 05:08:37 4.7 C 6.13 g/m*3 4.7 C 0 km/h
1398 01-03-2003 05:13:10 4.6 C 6.09 g/m*3 4.6 C 0 km/h
1399 01-03-2003 05:14:37 4.6 C 6.09 g/m*3 4.6 C 0 km/h
1400 01-03-2003 05:19:10 4.7 C 6.13 g/m*3 4.7 C 0 km/h
Sensor: Nr:Datum:Temp:Abs-Feuchte:Windchill:Wind:
Aussen-T/F 1401 01-03-2003 05:20:37 4.7 C 6.13 g/m*3 4.7 C 0 km/h
1402 01-03-2003 05:25:10 4.5 C 6.05 g/m*3 4.5 C 0 km/h
1403 01-03-2003 05:26:37 4.5 C 6.05 g/m*3 4.5 C 0 km/h
1404 01-03-2003 05:31:10 4.4 C 6.01 g/m*3 4.4 C 0 km/h
1405 01-03-2003 05:32:37 4.4 C 6.01 g/m*3 4.4 C 0 km/h
1406 01-03-2003 05:37:10 4.4 C 6.01 g/m*3 4.4 C 0 km/h
1407 01-03-2003 05:38:37 4.4 C 6.01 g/m*3 4.4 C 0 km/h
1408 01-03-2003 05:43:10 4.3 C 5.97 g/m*3 4.3 C 0 km/h
1409 01-03-2003 05:44:37 4.3 C 5.97 g/m*3 4.3 C 0 km/h
1410 01-03-2003 05:49:10 4.3 C 5.97 g/m*3 4.3 C 0 km/h
1411 01-03-2003 05:50:37 4.3 C 5.97 g/m*3 4.3 C 0 km/h
1412 01-03-2003 05:55:10 4.3 C 5.97 g/m*3 4.3 C 0 km/h
1413 01-03-2003 05:56:37 4.3 C 5.97 g/m*3 4.3 C 0 km/h
1414 01-03-2003 06:01:10 4.5 C 6.05 g/m*3 4.5 C 0 km/h
1415 01-03-2003 06:02:37 4.5 C 6.05 g/m*3 4.5 C 0 km/h
1416 01-03-2003 06:07:10 4.5 C 6.05 g/m*3 4.5 C 0 km/h
1417 01-03-2003 06:08:37 4.5 C 6.05 g/m*3 4.5 C 0 km/h
1418 01-03-2003 06:13:10 4.8 C 6.24 g/m*3 4.8 C 0 km/h
1419 01-03-2003 06:14:37 4.8 C 6.24 g/m*3 4.8 C 0 km/h
1420 01-03-2003 06:19:10 5 C 6.25 g/m*3 5 C 0 km/h
1421 01-03-2003 06:20:37 5 C 6.25 g/m*3 5 C 0 km/h
1422 01-03-2003 06:25:10 4.9 C 6.28 g/m*3 4.9 C 0 km/h
1423 01-03-2003 06:26:37 4.9 C 6.28 g/m*3 4.9 C 0 km/h
1424 01-03-2003 06:31:10 5.1 C 6.29 g/m*3 5.1 C 0 km/h
1425 01-03-2003 06:32:37 5.1 C 6.29 g/m*3 5.1 C 0 km/h
Sensor: Nr:Datum:Temp:Abs-Feuchte:Windchill:Wind:
Aussen-T/F 1426 01-03-2003 06:37:10 5.2 C 6.33 g/m*3 5.2 C 0 km/h
1427 01-03-2003 06:38:37 5.2 C 6.33 g/m*3 5.2 C 0 km/h
1428 01-03-2003 06:43:10 5.4 C 6.42 g/m*3 5.4 C 0 km/h
1429 01-03-2003 06:44:37 5.4 C 6.42 g/m*3 5.4 C 0 km/h
1430 01-03-2003 06:49:10 5.7 C 6.62 g/m*3 5.7 C 0 km/h
1431 01-03-2003 06:50:37 5.7 C 6.62 g/m*3 5.7 C 0 km/h
1432 01-03-2003 06:55:10 6 C 6.75 g/m*3 6 C 0 km/h
1433 01-03-2003 06:56:37 6 C 6.75 g/m*3 6 C 0 km/h
1434 01-03-2003 07:01:10 6.3 C 6.88 g/m*3 6.3 C 0 km/h
1435 01-03-2003 07:02:37 6.3 C 6.88 g/m*3 6.3 C 0 km/h
1436 01-03-2003 07:07:10 6.5 C 6.9 g/m*3 6.5 C 0 km/h
1437 01-03-2003 07:08:37 6.5 C 6.9 g/m*3 6.5 C 0 km/h
1438 01-03-2003 07:13:10 6.7 C 6.91 g/m*3 6.7 C 0 km/h
1439 01-03-2003 07:14:37 6.7 C 6.91 g/m*3 6.7 C 0 km/h
1440 01-03-2003 07:19:10 6.8 C 6.96 g/m*3 6.8 C 0 km/h
1441 01-03-2003 07:20:37 6.8 C 6.96 g/m*3 6.8 C 0 km/h
1442 01-03-2003 07:25:10 7 C 6.97 g/m*3 7 C 0 km/h
1443 01-03-2003 07:26:37 7 C 6.97 g/m*3 7 C 0 km/h
1444 01-03-2003 07:31:10 7.3 C 7.03 g/m*3 7.3 C 0 km/h
1445 01-03-2003 07:32:37 7.3 C 7.03 g/m*3 7.3 C 0 km/h
1446 01-03-2003 07:37:10 7.6 C 7.09 g/m*3 7.6 C 0 km/h
1447 01-03-2003 07:38:37 7.6 C 7.09 g/m*3 7.6 C 0 km/h
1448 01-03-2003 07:43:10 7.7 C 7.05 g/m*3 7.7 C 0 km/h
1449 01-03-2003 07:44:37 7.7 C 7.05 g/m*3 7.7 C 0 km/h
1450 01-03-2003 07:49:10 7.8 C 7.02 g/m*3 7.8 C 0 km/h
Sensor: Nr:Datum:Temp:Abs-Feuchte:Windchill:Wind:
Aussen-T/F 1451 01-03-2003 07:50:37 7.8 C 7.02 g/m*3 7.8 C 0 km/h
1452 01-03-2003 07:55:10 7.9 C 6.98 g/m*3 7.9 C 0 km/h
1453 01-03-2003 07:56:37 7.9 C 6.98 g/m*3 7.9 C 0 km/h
1454 01-03-2003 08:01:10 8 C 6.94 g/m*3 8 C 0 km/h
1455 01-03-2003 08:02:37 8 C 6.94 g/m*3 8 C 0 km/h
1456 01-03-2003 08:07:10 8 C 6.86 g/m*3 8 C 0 km/h
1457 01-03-2003 08:08:37 8 C 6.86 g/m*3 8 C 0 km/h
1458 01-03-2003 08:13:10 8.1 C 6.91 g/m*3 8.1 C 0 km/h
1459 01-03-2003 08:14:37 8.1 C 6.91 g/m*3 8.1 C 0 km/h
1460 01-03-2003 08:19:10 8.1 C 6.91 g/m*3 8.1 C 0 km/h
1461 01-03-2003 08:20:37 8.1 C 6.91 g/m*3 8.1 C 0 km/h
1462 01-03-2003 08:25:10 8.2 C 6.87 g/m*3 8.2 C 0 km/h
1463 01-03-2003 08:26:37 8.2 C 6.87 g/m*3 8.2 C 0 km/h
1464 01-03-2003 08:31:10 8.1 C 6.91 g/m*3 8.1 C 0 km/h
1465 01-03-2003 08:32:37 8.1 C 6.91 g/m*3 8.1 C 0 km/h
1466 01-03-2003 08:37:10 8.1 C 6.91 g/m*3 8.1 C 0 km/h
1467 01-03-2003 08:38:37 8.1 C 6.91 g/m*3 8.1 C 0 km/h
1468 01-03-2003 08:43:10 8 C 6.86 g/m*3 8 C 0 km/h
1469 01-03-2003 08:44:37 8 C 6.86 g/m*3 8 C 0 km/h
1470 01-03-2003 08:49:10 7.9 C 6.98 g/m*3 7.9 C 0 km/h
1471 01-03-2003 08:50:37 7.9 C 6.98 g/m*3 7.9 C 0 km/h
1472 01-03-2003 08:55:10 7.8 C 6.94 g/m*3 7.8 C 0 km/h
1473 01-03-2003 08:56:37 7.8 C 6.94 g/m*3 7.8 C 0 km/h
1474 01-03-2003 09:01:10 7.8 C 7.02 g/m*3 7.8 C 0 km/h
1475 01-03-2003 09:02:37 7.8 C 7.02 g/m*3 7.8 C 0 km/h
Sensor: Nr:Datum:Temp:Abs-Feuchte:Windchill:Wind:
Aussen-T/F 1476 01-03-2003 09:07:10 7.9 C 7.06 g/m*3 7.9 C 0 km/h
1477 01-03-2003 09:08:37 7.9 C 7.06 g/m*3 7.9 C 0 km/h
1478 01-03-2003 09:13:10 7.9 C 7.06 g/m*3 7.9 C 0 km/h
1479 01-03-2003 09:14:37 7.9 C 7.06 g/m*3 7.9 C 0 km/h
1480 01-03-2003 09:19:10 8 C 6.94 g/m*3 8 C 0 km/h
1481 01-03-2003 09:20:37 8 C 6.94 g/m*3 8 C 0 km/h
1482 01-03-2003 09:25:10 8.1 C 6.99 g/m*3 8.1 C 0 km/h
1483 01-03-2003 09:26:37 8.1 C 6.99 g/m*3 8.1 C 0 km/h
1484 01-03-2003 09:31:10 8.2 C 7.03 g/m*3 8.2 C 0 km/h
1485 01-03-2003 09:32:37 8.2 C 7.03 g/m*3 8.2 C 0 km/h
1486 01-03-2003 09:37:10 8.2 C 7.03 g/m*3 8.2 C 0 km/h
1487 01-03-2003 09:38:37 8.2 C 7.03 g/m*3 8.2 C 0 km/h
1488 01-03-2003 09:43:10 8.3 C 7 g/m*3 8.3 C 0 km/h
1489 01-03-2003 09:44:37 8.3 C 7 g/m*3 8.3 C 0 km/h
1490 01-03-2003 09:49:10 8.4 C 7.04 g/m*3 8.4 C 0 km/h
1491 01-03-2003 09:50:37 8.4 C 7.04 g/m*3 8.4 C 0 km/h
1492 01-03-2003 09:55:10 8.5 C 7.09 g/m*3 8.5 C 0 km/h
1493 01-03-2003 09:56:37 8.5 C 7.09 g/m*3 8.5 C 0 km/h
1494 01-03-2003 10:01:10 8.7 C 7.09 g/m*3 8.7 C 0 km/h
1495 01-03-2003 10:02:37 8.7 C 7.09 g/m*3 8.7 C 0 km/h
1496 01-03-2003 10:07:10 8.8 C 7.14 g/m*3 8.8 C 0 km/h
1497 01-03-2003 10:08:37 8.8 C 7.14 g/m*3 8.8 C 0 km/h
1498 01-03-2003 10:13:10 8.9 C 7.1 g/m*3 8.9 C 0 km/h
1499 01-03-2003 10:14:37 8.9 C 7.1 g/m*3 8.9 C 0 km/h
1500 01-03-2003 10:19:10 8.9 C 7.1 g/m*3 8.9 C 0 km/h
Sensor: Nr:Datum:Temp:Abs-Feuchte:Windchill:Wind:
Aussen-T/F 1501 01-03-2003 10:20:37 8.9 C 7.1 g/m*3 8.9 C 0 km/h
1502 01-03-2003 10:25:10 8.9 C 7.1 g/m*3 8.9 C 0 km/h
1503 01-03-2003 10:26:37 8.9 C 7.1 g/m*3 8.9 C 0 km/h
1504 01-03-2003 10:31:10 8.9 C 7.1 g/m*3 8.9 C 0 km/h
1505 01-03-2003 10:32:37 8.9 C 7.1 g/m*3 8.9 C 0 km/h
1506 01-03-2003 10:37:10 8.9 C 7.1 g/m*3 8.9 C 0 km/h
1507 01-03-2003 10:38:37 8.9 C 7.1 g/m*3 8.9 C 0 km/h
1508 01-03-2003 10:43:10 8.9 C 7.1 g/m*3 8.9 C 0 km/h
1509 01-03-2003 10:44:37 8.9 C 7.1 g/m*3 8.9 C 0 km/h
1510 01-03-2003 10:49:10 9 C 6.96 g/m*3 9 C 0 km/h
1511 01-03-2003 10:50:37 9 C 6.96 g/m*3 9 C 0 km/h
1512 01-03-2003 10:55:10 9 C 6.96 g/m*3 9 C 0 km/h
1513 01-03-2003 10:56:37 9 C 6.96 g/m*3 9 C 0 km/h
1514 01-03-2003 11:01:10 9.1 C 7.01 g/m*3 9.1 C 0 km/h
1515 01-03-2003 11:02:37 9.1 C 7.01 g/m*3 9.1 C 0 km/h
1516 01-03-2003 11:07:10 9.2 C 7.05 g/m*3 9.2 C 0 km/h
1517 01-03-2003 11:08:37 9.2 C 7.05 g/m*3 9.2 C 0 km/h
1518 01-03-2003 11:13:10 9.3 C 7.01 g/m*3 9.3 C 0 km/h
1519 01-03-2003 11:14:37 9.3 C 7.01 g/m*3 9.3 C 0 km/h
1520 01-03-2003 11:19:10 9.3 C 7.01 g/m*3 9.3 C 0 km/h
1521 01-03-2003 11:20:37 9.3 C 7.01 g/m*3 9.3 C 0 km/h
1522 01-03-2003 11:25:10 9.4 C 7.05 g/m*3 9.4 C 0 km/h
1523 01-03-2003 11:26:37 9.4 C 7.05 g/m*3 9.4 C 0 km/h
1524 01-03-2003 11:31:10 9.4 C 7.05 g/m*3 9.4 C 0 km/h
1525 01-03-2003 11:32:37 9.4 C 7.05 g/m*3 9.4 C 0 km/h
Sensor: Nr:Datum:Temp:Abs-Feuchte:Windchill:Wind:
Aussen-T/F 1526 01-03-2003 11:37:10 9.6 C 7.05 g/m*3 9.6 C 0 km/h
1527 01-03-2003 11:38:37 9.6 C 7.05 g/m*3 9.6 C 0 km/h
1528 01-03-2003 11:43:10 9.6 C 7.05 g/m*3 9.6 C 0 km/h
1529 01-03-2003 11:44:37 9.6 C 7.05 g/m*3 9.6 C 0 km/h
1530 01-03-2003 11:49:10 9.6 C 7.05 g/m*3 9.6 C 0 km/h
1531 01-03-2003 11:50:37 9.6 C 7.05 g/m*3 9.6 C 0 km/h
1532 01-03-2003 11:55:10 9.7 C 7.01 g/m*3 9.7 C 0 km/h
1533 01-03-2003 11:56:37 9.7 C 7.01 g/m*3 9.7 C 0 km/h
1534 01-03-2003 12:01:10 9.7 C 7.01 g/m*3 9.7 C 0 km/h
1535 01-03-2003 12:02:37 9.7 C 7.01 g/m*3 9.7 C 0 km/h
1536 01-03-2003 12:07:10 9.8 C 7.05 g/m*3 9.8 C 0 km/h
1537 01-03-2003 12:08:37 9.8 C 7.05 g/m*3 9.8 C 0 km/h
1538 01-03-2003 12:13:10 9.8 C 7.05 g/m*3 9.8 C 0 km/h
1539 01-03-2003 12:14:37 9.8 C 7.05 g/m*3 9.8 C 0 km/h
1540 01-03-2003 12:19:10 9.9 C 7 g/m*3 9.9 C 0 km/h
1541 01-03-2003 12:20:37 9.9 C 7 g/m*3 9.9 C 0 km/h
1542 01-03-2003 12:25:10 10 C 6.86 g/m*3 10 C 0 km/h
1543 01-03-2003 12:26:37 10 C 6.86 g/m*3 10 C 0 km/h
1544 01-03-2003 12:31:10 9.9 C 7 g/m*3 9.9 C 0 km/h
1545 01-03-2003 12:32:37 9.9 C 7 g/m*3 9.9 C 0 km/h
1546 01-03-2003 12:37:10 9.8 C 6.96 g/m*3 9.8 C 0 km/h
1547 01-03-2003 12:38:37 9.8 C 6.96 g/m*3 9.8 C 0 km/h
1548 01-03-2003 12:43:10 9.8 C 6.96 g/m*3 9.8 C 0 km/h
1549 01-03-2003 12:44:37 9.8 C 6.96 g/m*3 9.8 C 0 km/h
1550 01-03-2003 12:49:10 9.9 C 7 g/m*3 9.9 C 0 km/h
Sensor: Nr:Datum:Temp:Abs-Feuchte:Windchill:Wind:
Aussen-T/F 1551 01-03-2003 12:50:37 9.9 C 7 g/m*3 9.9 C 0 km/h
1552 01-03-2003 12:55:10 10 C 6.95 g/m*3 10 C 0 km/h
1553 01-03-2003 12:56:37 10 C 6.95 g/m*3 10 C 0 km/h
1554 01-03-2003 13:01:10 10.1 C 6.9 g/m*3 10.1 C 0 km/h
1555 01-03-2003 13:02:37 10.1 C 6.9 g/m*3 10.1 C 0 km/h
1556 01-03-2003 13:07:10 10 C 6.86 g/m*3 10 C 0 km/h
1557 01-03-2003 13:08:37 10 C 6.86 g/m*3 10 C 0 km/h
1558 01-03-2003 13:13:10 10 C 6.86 g/m*3 10 C 0 km/h
1559 01-03-2003 13:14:37 10 C 6.86 g/m*3 10 C 0 km/h
1560 01-03-2003 13:19:10 10 C 6.86 g/m*3 10 C 0 km/h
1561 01-03-2003 13:20:37 10 C 6.86 g/m*3 10 C 0 km/h
1562 01-03-2003 13:25:10 10 C 6.86 g/m*3 10 C 0 km/h
1563 01-03-2003 13:26:37 10 C 6.86 g/m*3 10 C 0 km/h
1564 01-03-2003 13:31:10 10 C 6.86 g/m*3 10 C 0 km/h
1565 01-03-2003 13:32:37 10 C 6.86 g/m*3 10 C 0 km/h
1566 01-03-2003 13:37:10 10.1 C 7 g/m*3 10.1 C 0 km/h
1567 01-03-2003 13:38:37 10.1 C 7 g/m*3 10.1 C 0 km/h
1568 01-03-2003 13:43:10 10.1 C 6.9 g/m*3 10.1 C 0 km/h
1569 01-03-2003 13:44:37 10.1 C 6.9 g/m*3 10.1 C 0 km/h
1570 01-03-2003 13:49:10 10.2 C 6.95 g/m*3 10.2 C 0 km/h
1571 01-03-2003 13:50:37 10.2 C 6.95 g/m*3 10.2 C 0 km/h
1572 01-03-2003 13:55:10 10.2 C 6.95 g/m*3 10.2 C 0 km/h
1573 01-03-2003 13:56:37 10.2 C 6.95 g/m*3 10.2 C 0 km/h
1574 01-03-2003 14:01:10 10.2 C 6.85 g/m*3 10.2 C 0 km/h
1575 01-03-2003 14:02:37 10.2 C 6.85 g/m*3 10.2 C 0 km/h
Sensor: Nr:Datum:Temp:Abs-Feuchte:Windchill:Wind:
Aussen-T/F 1576 01-03-2003 14:07:10 10.4 C 6.94 g/m*3 10.4 C 0 km/h
1577 01-03-2003 14:08:37 10.4 C 6.94 g/m*3 10.4 C 0 km/h
1578 01-03-2003 14:13:10 10.5 C 6.98 g/m*3 10.5 C 0 km/h
1579 01-03-2003 14:14:37 10.5 C 6.98 g/m*3 10.5 C 0 km/h
1580 01-03-2003 14:19:10 10.6 C 7.03 g/m*3 10.6 C 0 km/h
1581 01-03-2003 14:20:37 10.6 C 7.03 g/m*3 10.6 C 0 km/h
1582 01-03-2003 14:25:10 10.9 C 7.06 g/m*3 10.9 C 0 km/h
1583 01-03-2003 14:26:37 10.9 C 7.06 g/m*3 10.9 C 0 km/h
1584 01-03-2003 14:31:10 11 C 7.01 g/m*3 11 C 0 km/h
1585 01-03-2003 14:32:37 11 C 7.01 g/m*3 11 C 0 km/h
1586 01-03-2003 14:37:10 11.1 C 7.05 g/m*3 11.1 C 0 km/h
1587 01-03-2003 14:38:37 11.1 C 7.05 g/m*3 11.1 C 0 km/h
1588 01-03-2003 14:43:10 11.3 C 7.04 g/m*3 11.3 C 0 km/h
1589 01-03-2003 14:44:37 11.3 C 7.04 g/m*3 11.3 C 0 km/h
1590 01-03-2003 14:49:10 11.5 C 7.13 g/m*3 11.5 C 0 km/h
1591 01-03-2003 14:50:37 11.5 C 7.13 g/m*3 11.5 C 0 km/h
1592 01-03-2003 14:55:10 11.6 C 7.07 g/m*3 11.6 C 0 km/h
1593 01-03-2003 14:56:37 11.6 C 7.07 g/m*3 11.6 C 0 km/h
1594 01-03-2003 15:01:10 11.7 C 7.11 g/m*3 11.7 C 0 km/h
1595 01-03-2003 15:02:37 11.7 C 7.11 g/m*3 11.7 C 0 km/h
1596 01-03-2003 15:07:10 11.7 C 7.11 g/m*3 11.7 C 0 km/h
1597 01-03-2003 15:08:37 11.7 C 7.11 g/m*3 11.7 C 0 km/h
1598 01-03-2003 15:13:10 11.8 C 7.16 g/m*3 11.8 C 0 km/h
1599 01-03-2003 15:14:37 11.8 C 7.16 g/m*3 11.8 C 0 km/h
1600 01-03-2003 15:19:10 11.7 C 7.22 g/m*3 11.7 C 0 km/h
Sensor: Nr:Datum:Temp:Abs-Feuchte:Windchill:Wind:
Aussen-T/F 1601 01-03-2003 15:20:37 11.7 C 7.22 g/m*3 11.7 C 0 km/h
1602 01-03-2003 15:25:10 11.8 C 7.16 g/m*3 11.8 C 0 km/h
1603 01-03-2003 15:26:37 11.8 C 7.16 g/m*3 11.8 C 0 km/h
1604 01-03-2003 15:31:10 11.9 C 7.2 g/m*3 11.9 C 0 km/h
1605 01-03-2003 15:32:37 11.9 C 7.2 g/m*3 11.9 C 0 km/h
1606 01-03-2003 15:37:10 11.8 C 6.95 g/m*3 11.8 C 0 km/h
1607 01-03-2003 15:38:37 11.8 C 6.95 g/m*3 11.8 C 0 km/h
1608 01-03-2003 15:43:10 11.7 C 7.01 g/m*3 11.7 C 0 km/h
1609 01-03-2003 15:44:37 11.7 C 7.01 g/m*3 11.7 C 0 km/h
1610 01-03-2003 15:49:10 11.7 C 7.01 g/m*3 11.7 C 0 km/h
1611 01-03-2003 15:50:37 11.7 C 7.01 g/m*3 11.7 C 0 km/h
1612 01-03-2003 15:55:10 11.6 C 6.96 g/m*3 11.6 C 0 km/h
1613 01-03-2003 15:56:37 11.6 C 6.96 g/m*3 11.6 C 0 km/h
1614 01-03-2003 16:01:11 11.6 C 7.07 g/m*3 11.6 C 0 km/h
1615 01-03-2003 16:02:37 11.6 C 7.07 g/m*3 11.6 C 0 km/h
1616 01-03-2003 16:07:11 11.5 C 6.92 g/m*3 11.5 C 0 km/h
1617 01-03-2003 16:08:37 11.5 C 6.92 g/m*3 11.5 C 0 km/h
1618 01-03-2003 16:13:11 11.5 C 7.02 g/m*3 11.5 C 0 km/h
1619 01-03-2003 16:14:37 11.5 C 7.02 g/m*3 11.5 C 0 km/h
1620 01-03-2003 16:19:11 11.4 C 6.98 g/m*3 11.4 C 0 km/h
1621 01-03-2003 16:20:37 11.4 C 6.98 g/m*3 11.4 C 0 km/h
1622 01-03-2003 16:25:11 11.4 C 6.88 g/m*3 11.4 C 0 km/h
1623 01-03-2003 16:26:37 11.4 C 6.88 g/m*3 11.4 C 0 km/h
1624 01-03-2003 16:31:11 11.4 C 6.88 g/m*3 11.4 C 0 km/h
1625 01-03-2003 16:32:37 11.4 C 6.88 g/m*3 11.4 C 0 km/h
Sensor: Nr:Datum:Temp:Abs-Feuchte:Windchill:Wind:
Aussen-T/F 1626 01-03-2003 16:37:11 11.4 C 6.88 g/m*3 11.4 C 0 km/h
1627 01-03-2003 16:38:37 11.4 C 6.88 g/m*3 11.4 C 0 km/h
1628 01-03-2003 16:43:11 11.2 C 6.79 g/m*3 11.2 C 0 km/h
1629 01-03-2003 16:44:37 11.2 C 6.79 g/m*3 11.2 C 0 km/h
1630 01-03-2003 16:49:11 11.2 C 6.89 g/m*3 11.2 C 0 km/h
1631 01-03-2003 16:50:37 11.2 C 6.89 g/m*3 11.2 C 0 km/h
1632 01-03-2003 16:55:11 11.2 C 6.89 g/m*3 11.2 C 0 km/h
1633 01-03-2003 16:56:37 11.2 C 6.89 g/m*3 11.2 C 0 km/h
1634 01-03-2003 17:01:11 11.1 C 6.85 g/m*3 11.1 C 0 km/h
1635 01-03-2003 17:02:37 11.1 C 6.85 g/m*3 11.1 C 0 km/h
1636 01-03-2003 17:07:11 11 C 6.91 g/m*3 11 C 0 km/h
1637 01-03-2003 17:08:37 11 C 6.91 g/m*3 11 C 0 km/h
1638 01-03-2003 17:13:11 10.9 C 6.96 g/m*3 10.9 C 0 km/h
1639 01-03-2003 17:14:37 10.9 C 6.96 g/m*3 10.9 C 0 km/h
1640 01-03-2003 17:19:11 10.8 C 7.02 g/m*3 10.8 C 0 km/h
1641 01-03-2003 17:20:37 10.8 C 7.02 g/m*3 10.8 C 0 km/h
1642 01-03-2003 17:25:11 10.7 C 6.97 g/m*3 10.7 C 0 km/h
1643 01-03-2003 17:26:37 10.7 C 6.97 g/m*3 10.7 C 0 km/h
1644 01-03-2003 17:31:11 10.5 C 6.89 g/m*3 10.5 C 0 km/h
1645 01-03-2003 17:32:37 10.5 C 6.89 g/m*3 10.5 C 0 km/h
1646 01-03-2003 17:37:11 10.5 C 6.98 g/m*3 10.5 C 0 km/h
1647 01-03-2003 17:38:37 10.5 C 6.98 g/m*3 10.5 C 0 km/h
1648 01-03-2003 17:43:11 10.4 C 6.94 g/m*3 10.4 C 0 km/h
1649 01-03-2003 17:44:37 10.4 C 6.94 g/m*3 10.4 C 0 km/h
1650 01-03-2003 17:49:11 10.4 C 6.84 g/m*3 10.4 C 0 km/h
Sensor: Nr:Datum:Temp:Abs-Feuchte:Windchill:Wind:
Aussen-T/F 1651 01-03-2003 17:50:37 10.4 C 6.84 g/m*3 10.4 C 0 km/h
1652 01-03-2003 17:55:11 10.3 C 6.8 g/m*3 10.3 C 0 km/h
1653 01-03-2003 17:56:37 10.3 C 6.8 g/m*3 10.3 C 0 km/h
1654 01-03-2003 18:01:11 10.2 C 6.85 g/m*3 10.2 C 0 km/h
1655 01-03-2003 18:02:37 10.2 C 6.85 g/m*3 10.2 C 0 km/h
1656 01-03-2003 18:07:11 10.1 C 6.81 g/m*3 10.1 C 0 km/h
1657 01-03-2003 18:08:37 10.1 C 6.81 g/m*3 10.1 C 0 km/h
1658 01-03-2003 18:13:11 10 C 6.77 g/m*3 10 C 0 km/h
1659 01-03-2003 18:14:37 10 C 6.77 g/m*3 10 C 0 km/h
1660 01-03-2003 18:19:11 9.9 C 6.91 g/m*3 9.9 C 0 km/h
1661 01-03-2003 18:20:37 9.9 C 6.91 g/m*3 9.9 C 0 km/h
1662 01-03-2003 18:25:11 9.8 C 6.87 g/m*3 9.8 C 0 km/h
1663 01-03-2003 18:26:37 9.8 C 6.87 g/m*3 9.8 C 0 km/h
1664 01-03-2003 18:31:11 9.8 C 6.87 g/m*3 9.8 C 0 km/h
1665 01-03-2003 18:32:37 9.8 C 6.87 g/m*3 9.8 C 0 km/h
1666 01-03-2003 18:37:11 9.7 C 6.82 g/m*3 9.7 C 0 km/h
1667 01-03-2003 18:38:37 9.7 C 6.82 g/m*3 9.7 C 0 km/h
1668 01-03-2003 18:43:11 9.6 C 6.87 g/m*3 9.6 C 0 km/h
1669 01-03-2003 18:44:37 9.6 C 6.87 g/m*3 9.6 C 0 km/h
1670 01-03-2003 18:49:11 9.6 C 6.87 g/m*3 9.6 C 0 km/h
1671 01-03-2003 18:50:37 9.6 C 6.87 g/m*3 9.6 C 0 km/h
1672 01-03-2003 18:55:11 9.6 C 6.87 g/m*3 9.6 C 0 km/h
1673 01-03-2003 18:56:37 9.6 C 6.87 g/m*3 9.6 C 0 km/h
1674 01-03-2003 19:01:11 9.6 C 6.87 g/m*3 9.6 C 0 km/h
1675 01-03-2003 19:02:37 9.6 C 6.87 g/m*3 9.6 C 0 km/h
Sensor: Nr:Datum:Temp:Abs-Feuchte:Windchill:Wind:
Aussen-T/F 1676 01-03-2003 19:07:11 9.5 C 6.83 g/m*3 9.5 C 0 km/h
1677 01-03-2003 19:08:37 9.5 C 6.83 g/m*3 9.5 C 0 km/h
1678 01-03-2003 19:13:11 9.5 C 6.92 g/m*3 9.5 C 0 km/h
1679 01-03-2003 19:14:37 9.5 C 6.92 g/m*3 9.5 C 0 km/h
1680 01-03-2003 19:19:11 9.5 C 6.92 g/m*3 9.5 C 0 km/h
1681 01-03-2003 19:20:37 9.5 C 6.92 g/m*3 9.5 C 0 km/h
1682 01-03-2003 19:25:11 9.4 C 6.87 g/m*3 9.4 C 0 km/h
1683 01-03-2003 19:26:37 9.4 C 6.87 g/m*3 9.4 C 0 km/h
1684 01-03-2003 19:31:11 9.4 C 6.87 g/m*3 9.4 C 0 km/h
1685 01-03-2003 19:32:37 9.4 C 6.87 g/m*3 9.4 C 0 km/h
1686 01-03-2003 19:37:11 9.4 C 6.87 g/m*3 9.4 C 0 km/h
1687 01-03-2003 19:38:37 9.4 C 6.87 g/m*3 9.4 C 0 km/h
1688 01-03-2003 19:43:11 9.4 C 6.87 g/m*3 9.4 C 0 km/h
1689 01-03-2003 19:44:37 9.4 C 6.87 g/m*3 9.4 C 0 km/h
1690 01-03-2003 19:49:11 9.4 C 6.87 g/m*3 9.4 C 0 km/h
1691 01-03-2003 19:50:37 9.4 C 6.87 g/m*3 9.4 C 0 km/h
1692 01-03-2003 19:55:11 9.4 C 6.87 g/m*3 9.4 C 0 km/h
1693 01-03-2003 19:56:37 9.4 C 6.87 g/m*3 9.4 C 0 km/h
1694 01-03-2003 20:02:11 9.3 C 6.83 g/m*3 9.3 C 0 km/h
1695 01-03-2003 20:02:37 9.3 C 6.83 g/m*3 9.3 C 0 km/h
1696 01-03-2003 20:08:11 9.4 C 6.87 g/m*3 9.4 C 0 km/h
1697 01-03-2003 20:08:37 9.4 C 6.87 g/m*3 9.4 C 0 km/h
1698 01-03-2003 20:14:11 9.3 C 6.83 g/m*3 9.3 C 0 km/h
1699 01-03-2003 20:14:37 9.3 C 6.83 g/m*3 9.3 C 0 km/h
1700 01-03-2003 20:20:11 9.3 C 6.83 g/m*3 9.3 C 0 km/h
Sensor: Nr:Datum:Temp:Abs-Feuchte:Windchill:Wind:
Aussen-T/F 1701 01-03-2003 20:20:37 9.3 C 6.83 g/m*3 9.3 C 0 km/h
1702 01-03-2003 20:26:11 9.3 C 6.92 g/m*3 9.3 C 0 km/h
1703 01-03-2003 20:26:37 9.3 C 6.92 g/m*3 9.3 C 0 km/h
1704 01-03-2003 20:32:11 9.3 C 6.92 g/m*3 9.3 C 0 km/h
1705 01-03-2003 20:32:37 9.3 C 6.92 g/m*3 9.3 C 0 km/h
1706 01-03-2003 20:38:11 9.2 C 6.88 g/m*3 9.2 C 0 km/h
1707 01-03-2003 20:38:37 9.2 C 6.88 g/m*3 9.2 C 0 km/h
1708 01-03-2003 20:44:11 9.1 C 6.83 g/m*3 9.1 C 0 km/h
1709 01-03-2003 20:44:37 9.1 C 6.83 g/m*3 9.1 C 0 km/h
1710 01-03-2003 20:50:11 9.1 C 6.83 g/m*3 9.1 C 0 km/h
1711 01-03-2003 20:50:37 9.1 C 6.83 g/m*3 9.1 C 0 km/h
1712 01-03-2003 21:02:11 9 C 6.88 g/m*3 9 C 0 km/h
1713 01-03-2003 21:02:37 9 C 6.88 g/m*3 9 C 0 km/h
1714 01-03-2003 21:08:11 9 C 6.88 g/m*3 9 C 0 km/h
1715 01-03-2003 21:08:37 9 C 6.88 g/m*3 9 C 0 km/h
1716 01-03-2003 21:14:11 8.9 C 6.92 g/m*3 8.9 C 0 km/h
1717 01-03-2003 21:14:37 8.9 C 6.92 g/m*3 8.9 C 0 km/h
1718 01-03-2003 21:20:11 8.8 C 6.96 g/m*3 8.8 C 0 km/h
1719 01-03-2003 21:20:37 8.8 C 6.96 g/m*3 8.8 C 0 km/h
1720 01-03-2003 21:26:11 8.8 C 7.05 g/m*3 8.8 C 0 km/h
1721 01-03-2003 21:26:37 8.8 C 7.05 g/m*3 8.8 C 0 km/h
1722 01-03-2003 21:32:11 8.7 C 7.01 g/m*3 8.7 C 0 km/h
1723 01-03-2003 21:32:37 8.7 C 7.01 g/m*3 8.7 C 0 km/h
1724 01-03-2003 21:38:11 8.8 C 7.05 g/m*3 8.8 C 0 km/h
1725 01-03-2003 21:38:37 8.8 C 7.05 g/m*3 8.8 C 0 km/h
Sensor: Nr:Datum:Temp:Abs-Feuchte:Windchill:Wind:
Aussen-T/F 1726 01-03-2003 21:44:11 8.7 C 7.09 g/m*3 8.7 C 0 km/h
1727 01-03-2003 21:44:37 8.7 C 7.09 g/m*3 8.7 C 0 km/h
1728 01-03-2003 21:50:11 8.6 C 7.05 g/m*3 8.6 C 0 km/h
1729 01-03-2003 21:50:37 8.6 C 7.05 g/m*3 8.6 C 0 km/h
1730 01-03-2003 21:56:11 8.5 C 7.09 g/m*3 8.5 C 0 km/h
1731 01-03-2003 21:56:37 8.5 C 7.09 g/m*3 8.5 C 0 km/h
1732 01-03-2003 22:02:11 8.5 C 7.09 g/m*3 8.5 C 0 km/h
1733 01-03-2003 22:02:37 8.5 C 7.09 g/m*3 8.5 C 0 km/h
1734 01-03-2003 22:08:11 8.4 C 7.13 g/m*3 8.4 C 0 km/h
1735 01-03-2003 22:08:37 8.4 C 7.13 g/m*3 8.4 C 0 km/h
1736 01-03-2003 22:14:11 8.4 C 7.13 g/m*3 8.4 C 0 km/h
1737 01-03-2003 22:14:37 8.4 C 7.13 g/m*3 8.4 C 0 km/h
1738 01-03-2003 22:20:11 8.3 C 7.08 g/m*3 8.3 C 0 km/h
1739 01-03-2003 22:20:37 8.3 C 7.08 g/m*3 8.3 C 0 km/h
1740 01-03-2003 22:26:11 8.4 C 7.21 g/m*3 8.4 C 0 km/h
1741 01-03-2003 22:26:37 8.4 C 7.21 g/m*3 8.4 C 0 km/h
1742 01-03-2003 22:32:11 8.4 C 7.21 g/m*3 8.4 C 0 km/h
1743 01-03-2003 22:32:37 8.4 C 7.21 g/m*3 8.4 C 0 km/h
1744 01-03-2003 22:38:11 8.3 C 7.25 g/m*3 8.3 C 0 km/h
1745 01-03-2003 22:38:37 8.3 C 7.25 g/m*3 8.3 C 0 km/h
1746 01-03-2003 22:44:11 8.3 C 7.25 g/m*3 8.3 C 0 km/h
1747 01-03-2003 22:44:37 8.3 C 7.25 g/m*3 8.3 C 0 km/h
1748 01-03-2003 22:50:11 8.3 C 7.25 g/m*3 8.3 C 0 km/h
1749 01-03-2003 22:50:37 8.3 C 7.25 g/m*3 8.3 C 0 km/h
1750 01-03-2003 22:56:11 8.2 C 7.2 g/m*3 8.2 C 0 km/h
Sensor: Nr:Datum:Temp:Abs-Feuchte:Windchill:Wind:
Aussen-T/F 1751 01-03-2003 22:56:37 8.2 C 7.2 g/m*3 8.2 C 0 km/h
1752 01-03-2003 23:02:11 8.3 C 7.25 g/m*3 8.3 C 0 km/h
1753 01-03-2003 23:02:37 8.3 C 7.25 g/m*3 8.3 C 0 km/h
1754 01-03-2003 23:08:11 8.3 C 7.33 g/m*3 8.3 C 0 km/h
1755 01-03-2003 23:08:37 8.3 C 7.33 g/m*3 8.3 C 0 km/h
1756 01-03-2003 23:14:11 8.2 C 7.29 g/m*3 8.2 C 0 km/h
1757 01-03-2003 23:14:37 8.2 C 7.29 g/m*3 8.2 C 0 km/h
1758 01-03-2003 23:20:11 8.2 C 7.37 g/m*3 8.2 C 0 km/h
1759 01-03-2003 23:20:37 8.2 C 7.37 g/m*3 8.2 C 0 km/h
1760 01-03-2003 23:26:11 8.2 C 7.37 g/m*3 8.2 C 0 km/h
1761 01-03-2003 23:26:37 8.2 C 7.37 g/m*3 8.2 C 0 km/h
1762 01-03-2003 23:32:11 8.1 C 7.32 g/m*3 8.1 C 0 km/h
1763 01-03-2003 23:32:37 8.1 C 7.32 g/m*3 8.1 C 0 km/h
1764 01-03-2003 23:38:11 8.1 C 7.32 g/m*3 8.1 C 0 km/h
1765 01-03-2003 23:38:37 8.1 C 7.32 g/m*3 8.1 C 0 km/h
1766 01-03-2003 23:44:11 8.1 C 7.32 g/m*3 8.1 C 0 km/h
1767 01-03-2003 23:44:37 8.1 C 7.32 g/m*3 8.1 C 0 km/h
1768 01-03-2003 23:50:11 8.1 C 7.32 g/m*3 8.1 C 0 km/h
1769 01-03-2003 23:50:37 8.1 C 7.32 g/m*3 8.1 C 0 km/h
1770 01-03-2003 23:56:11 8.1 C 7.32 g/m*3 8.1 C 0 km/h
1771 01-03-2003 23:56:37 8.1 C 7.32 g/m*3 8.1 C 0 km/h
1772 02-03-2003 00:02:11 8 C 7.28 g/m*3 8 C 0 km/h
1773 02-03-2003 00:02:37 8 C 7.28 g/m*3 8 C 0 km/h
1774 02-03-2003 00:08:11 8.1 C 7.32 g/m*3 8.1 C 0 km/h
1775 02-03-2003 00:08:37 8.1 C 7.32 g/m*3 8.1 C 0 km/h
Sensor: Nr:Datum:Temp:Abs-Feuchte:Windchill:Wind:
Aussen-T/F 1776 02-03-2003 00:14:11 8 C 7.36 g/m*3 8 C 0 km/h
1777 02-03-2003 00:14:37 8 C 7.36 g/m*3 8 C 0 km/h
1778 02-03-2003 00:20:11 7.9 C 7.39 g/m*3 7.9 C 0 km/h
1779 02-03-2003 00:20:37 7.9 C 7.39 g/m*3 7.9 C 0 km/h
1780 02-03-2003 00:26:11 7.9 C 7.39 g/m*3 7.9 C 0 km/h
1781 02-03-2003 00:26:37 7.9 C 7.39 g/m*3 7.9 C 0 km/h
1782 02-03-2003 00:32:11 7.9 C 7.39 g/m*3 7.9 C 0 km/h
1783 02-03-2003 00:32:37 7.9 C 7.39 g/m*3 7.9 C 0 km/h
1784 02-03-2003 00:38:11 7.8 C 7.35 g/m*3 7.8 C 0 km/h
1785 02-03-2003 00:38:37 7.8 C 7.35 g/m*3 7.8 C 0 km/h
1786 02-03-2003 00:44:11 7.8 C 7.35 g/m*3 7.8 C 0 km/h
1787 02-03-2003 00:44:37 7.8 C 7.35 g/m*3 7.8 C 0 km/h
1788 02-03-2003 00:50:11 7.8 C 7.43 g/m*3 7.8 C 0 km/h
1789 02-03-2003 00:50:37 7.8 C 7.43 g/m*3 7.8 C 0 km/h
1790 02-03-2003 00:56:11 7.9 C 7.39 g/m*3 7.9 C 0 km/h
1791 02-03-2003 00:56:37 7.9 C 7.39 g/m*3 7.9 C 0 km/h
1792 02-03-2003 01:02:11 7.9 C 7.39 g/m*3 7.9 C 0 km/h
1793 02-03-2003 01:02:37 7.9 C 7.39 g/m*3 7.9 C 0 km/h
1794 02-03-2003 01:08:11 7.8 C 7.35 g/m*3 7.8 C 0 km/h
1795 02-03-2003 01:08:37 7.8 C 7.35 g/m*3 7.8 C 0 km/h
1796 02-03-2003 01:14:11 7.8 C 7.35 g/m*3 7.8 C 0 km/h
1797 02-03-2003 01:14:37 7.8 C 7.35 g/m*3 7.8 C 0 km/h
1798 02-03-2003 01:20:11 7.8 C 7.43 g/m*3 7.8 C 0 km/h
1799 02-03-2003 01:20:37 7.8 C 7.43 g/m*3 7.8 C 0 km/h
1800 02-03-2003 01:26:11 7.7 C 7.38 g/m*3 7.7 C 0 km/h
Sensor: Nr:Datum:Temp:Abs-Feuchte:Windchill:Wind:
Aussen-T/F 1801 02-03-2003 01:26:37 7.7 C 7.38 g/m*3 7.7 C 0 km/h
1802 02-03-2003 01:32:11 7.8 C 7.43 g/m*3 7.8 C 0 km/h
1803 02-03-2003 01:32:37 7.8 C 7.43 g/m*3 7.8 C 0 km/h
1804 02-03-2003 01:38:11 7.8 C 7.43 g/m*3 7.8 C 0 km/h
1805 02-03-2003 01:38:37 7.8 C 7.43 g/m*3 7.8 C 0 km/h
1806 02-03-2003 01:44:11 7.8 C 7.43 g/m*3 7.8 C 0 km/h
1807 02-03-2003 01:44:37 7.8 C 7.43 g/m*3 7.8 C 0 km/h
1808 02-03-2003 01:50:11 7.7 C 7.38 g/m*3 7.7 C 0 km/h
1809 02-03-2003 01:50:37 7.7 C 7.38 g/m*3 7.7 C 0 km/h
1810 02-03-2003 01:56:11 7.8 C 7.43 g/m*3 7.8 C 0 km/h
1811 02-03-2003 01:56:37 7.8 C 7.43 g/m*3 7.8 C 0 km/h
1812 02-03-2003 02:02:11 7.8 C 7.43 g/m*3 7.8 C 0 km/h
1813 02-03-2003 02:02:37 7.8 C 7.43 g/m*3 7.8 C 0 km/h
1814 02-03-2003 02:08:11 7.7 C 7.38 g/m*3 7.7 C 0 km/h
1815 02-03-2003 02:08:37 7.7 C 7.38 g/m*3 7.7 C 0 km/h
1816 02-03-2003 02:14:11 7.6 C 7.33 g/m*3 7.6 C 0 km/h
1817 02-03-2003 02:14:37 7.6 C 7.33 g/m*3 7.6 C 0 km/h
1818 02-03-2003 02:20:11 7.6 C 7.33 g/m*3 7.6 C 0 km/h
1819 02-03-2003 02:20:37 7.6 C 7.33 g/m*3 7.6 C 0 km/h
1820 02-03-2003 02:26:11 7.6 C 7.33 g/m*3 7.6 C 0 km/h
1821 02-03-2003 02:26:37 7.6 C 7.33 g/m*3 7.6 C 0 km/h
1822 02-03-2003 02:32:11 7.7 C 7.38 g/m*3 7.7 C 0 km/h
1823 02-03-2003 02:32:37 7.7 C 7.38 g/m*3 7.7 C 0 km/h
1824 02-03-2003 02:38:11 7.8 C 7.43 g/m*3 7.8 C 0 km/h
1825 02-03-2003 02:38:37 7.8 C 7.43 g/m*3 7.8 C 0 km/h
Sensor: Nr:Datum:Temp:Abs-Feuchte:Windchill:Wind:
Aussen-T/F 1826 02-03-2003 02:44:11 7.7 C 7.38 g/m*3 7.7 C 0 km/h
1827 02-03-2003 02:44:37 7.7 C 7.38 g/m*3 7.7 C 0 km/h
1828 02-03-2003 02:50:11 7.7 C 7.38 g/m*3 7.7 C 0 km/h
1829 02-03-2003 02:50:37 7.7 C 7.38 g/m*3 7.7 C 0 km/h
1830 02-03-2003 02:56:11 7.8 C 7.35 g/m*3 7.8 C 0 km/h
1831 02-03-2003 02:56:37 7.8 C 7.35 g/m*3 7.8 C 0 km/h
1832 02-03-2003 03:02:11 7.8 C 7.35 g/m*3 7.8 C 0 km/h
1833 02-03-2003 03:02:37 7.8 C 7.35 g/m*3 7.8 C 0 km/h
1834 02-03-2003 03:08:11 8 C 7.36 g/m*3 8 C 0 km/h
1835 02-03-2003 03:08:37 8 C 7.36 g/m*3 8 C 0 km/h
1836 02-03-2003 03:14:11 7.8 C 7.26 g/m*3 7.8 C 0 km/h
1837 02-03-2003 03:14:37 7.8 C 7.26 g/m*3 7.8 C 0 km/h
1838 02-03-2003 03:20:11 7.7 C 7.22 g/m*3 7.7 C 0 km/h
1839 02-03-2003 03:20:37 7.7 C 7.22 g/m*3 7.7 C 0 km/h
1840 02-03-2003 03:26:11 7.7 C 7.22 g/m*3 7.7 C 0 km/h
1841 02-03-2003 03:26:37 7.7 C 7.22 g/m*3 7.7 C 0 km/h
1842 02-03-2003 03:32:11 7.7 C 7.3 g/m*3 7.7 C 0 km/h
1843 02-03-2003 03:32:37 7.7 C 7.3 g/m*3 7.7 C 0 km/h
1844 02-03-2003 03:38:11 7.7 C 7.3 g/m*3 7.7 C 0 km/h
1845 02-03-2003 03:38:37 7.7 C 7.3 g/m*3 7.7 C 0 km/h
1846 02-03-2003 03:44:11 7.6 C 7.25 g/m*3 7.6 C 0 km/h
1847 02-03-2003 03:44:37 7.6 C 7.25 g/m*3 7.6 C 0 km/h
1848 02-03-2003 03:50:11 7.6 C 7.25 g/m*3 7.6 C 0 km/h
1849 02-03-2003 03:50:37 7.6 C 7.25 g/m*3 7.6 C 0 km/h
1850 02-03-2003 03:56:11 7.5 C 7.2 g/m*3 7.5 C 0 km/h
Sensor: Nr:Datum:Temp:Abs-Feuchte:Windchill:Wind:
Aussen-T/F 1851 02-03-2003 03:56:37 7.5 C 7.2 g/m*3 7.5 C 0 km/h
1852 02-03-2003 04:02:11 7.5 C 7.2 g/m*3 7.5 C 0 km/h
1853 02-03-2003 04:02:37 7.5 C 7.2 g/m*3 7.5 C 0 km/h
1854 02-03-2003 04:08:11 7.5 C 7.2 g/m*3 7.5 C 0 km/h
1855 02-03-2003 04:08:37 7.5 C 7.2 g/m*3 7.5 C 0 km/h
1856 02-03-2003 04:14:11 7.6 C 7.25 g/m*3 7.6 C 0 km/h
1857 02-03-2003 04:14:37 7.6 C 7.25 g/m*3 7.6 C 0 km/h
1858 02-03-2003 04:20:11 7.6 C 7.25 g/m*3 7.6 C 0 km/h
1859 02-03-2003 04:20:37 7.6 C 7.25 g/m*3 7.6 C 0 km/h
1860 02-03-2003 04:26:11 7.5 C 7.12 g/m*3 7.5 C 0 km/h
1861 02-03-2003 04:26:37 7.5 C 7.12 g/m*3 7.5 C 0 km/h
1862 02-03-2003 04:32:11 7.5 C 7.2 g/m*3 7.5 C 0 km/h
1863 02-03-2003 04:32:37 7.5 C 7.2 g/m*3 7.5 C 0 km/h
1864 02-03-2003 04:38:11 7.5 C 7.2 g/m*3 7.5 C 0 km/h
1865 02-03-2003 04:38:37 7.5 C 7.2 g/m*3 7.5 C 0 km/h
1866 02-03-2003 04:44:11 7.4 C 7.16 g/m*3 7.4 C 0 km/h
1867 02-03-2003 04:44:37 7.4 C 7.16 g/m*3 7.4 C 0 km/h
1868 02-03-2003 04:50:11 7.4 C 7.16 g/m*3 7.4 C 0 km/h
1869 02-03-2003 04:50:37 7.4 C 7.16 g/m*3 7.4 C 0 km/h
1870 02-03-2003 04:56:11 7.4 C 7.16 g/m*3 7.4 C 0 km/h
1871 02-03-2003 04:56:37 7.4 C 7.16 g/m*3 7.4 C 0 km/h
1872 02-03-2003 05:02:11 7.5 C 7.2 g/m*3 7.5 C 0 km/h
1873 02-03-2003 05:02:37 7.5 C 7.2 g/m*3 7.5 C 0 km/h
1874 02-03-2003 05:08:11 7.5 C 7.2 g/m*3 7.5 C 0 km/h
1875 02-03-2003 05:08:37 7.5 C 7.2 g/m*3 7.5 C 0 km/h
Sensor: Nr:Datum:Temp:Abs-Feuchte:Windchill:Wind:
Aussen-T/F 1876 02-03-2003 05:14:11 7.5 C 7.2 g/m*3 7.5 C 0 km/h
1877 02-03-2003 05:14:37 7.5 C 7.2 g/m*3 7.5 C 0 km/h
1878 02-03-2003 05:20:11 7.5 C 7.2 g/m*3 7.5 C 0 km/h
1879 02-03-2003 05:20:37 7.5 C 7.2 g/m*3 7.5 C 0 km/h
1880 02-03-2003 05:26:11 7.4 C 7.16 g/m*3 7.4 C 0 km/h
1881 02-03-2003 05:26:37 7.4 C 7.16 g/m*3 7.4 C 0 km/h
1882 02-03-2003 05:32:11 7.3 C 7.11 g/m*3 7.3 C 0 km/h
1883 02-03-2003 05:32:37 7.3 C 7.11 g/m*3 7.3 C 0 km/h
1884 02-03-2003 05:38:11 7.3 C 7.11 g/m*3 7.3 C 0 km/h
1885 02-03-2003 05:38:37 7.3 C 7.11 g/m*3 7.3 C 0 km/h
1886 02-03-2003 05:44:11 7.1 C 7.02 g/m*3 7.1 C 0 km/h
1887 02-03-2003 05:44:37 7.1 C 7.02 g/m*3 7.1 C 0 km/h
1888 02-03-2003 05:50:11 7.1 C 7.02 g/m*3 7.1 C 0 km/h
1889 02-03-2003 05:50:37 7.1 C 7.02 g/m*3 7.1 C 0 km/h
1890 02-03-2003 05:56:11 7.2 C 7.14 g/m*3 7.2 C 0 km/h
1891 02-03-2003 05:56:37 7.2 C 7.14 g/m*3 7.2 C 0 km/h
1892 02-03-2003 06:02:11 7.3 C 7.19 g/m*3 7.3 C 0 km/h
1893 02-03-2003 06:02:37 7.3 C 7.19 g/m*3 7.3 C 0 km/h
1894 02-03-2003 06:08:11 7.3 C 7.19 g/m*3 7.3 C 0 km/h
1895 02-03-2003 06:08:37 7.3 C 7.19 g/m*3 7.3 C 0 km/h
1896 02-03-2003 06:14:11 7.2 C 7.14 g/m*3 7.2 C 0 km/h
1897 02-03-2003 06:14:37 7.2 C 7.14 g/m*3 7.2 C 0 km/h
1898 02-03-2003 06:20:11 7.2 C 7.14 g/m*3 7.2 C 0 km/h
1899 02-03-2003 06:20:37 7.2 C 7.14 g/m*3 7.2 C 0 km/h
1900 02-03-2003 06:26:11 7.2 C 7.14 g/m*3 7.2 C 0 km/h
Sensor: Nr:Datum:Temp:Abs-Feuchte:Windchill:Wind:
Aussen-T/F 1901 02-03-2003 06:26:37 7.2 C 7.14 g/m*3 7.2 C 0 km/h
1902 02-03-2003 06:32:11 7.2 C 7.14 g/m*3 7.2 C 0 km/h
1903 02-03-2003 06:32:37 7.2 C 7.14 g/m*3 7.2 C 0 km/h
1904 02-03-2003 06:38:11 7.3 C 7.19 g/m*3 7.3 C 0 km/h
1905 02-03-2003 06:38:37 7.3 C 7.19 g/m*3 7.3 C 0 km/h
1906 02-03-2003 06:44:11 7.4 C 7.32 g/m*3 7.4 C 0 km/h
1907 02-03-2003 06:44:37 7.4 C 7.32 g/m*3 7.4 C 0 km/h
1908 02-03-2003 06:50:11 7.3 C 7.27 g/m*3 7.3 C 0 km/h
1909 02-03-2003 06:50:37 7.3 C 7.27 g/m*3 7.3 C 0 km/h
1910 02-03-2003 06:56:11 7.3 C 7.27 g/m*3 7.3 C 0 km/h
1911 02-03-2003 06:56:37 7.3 C 7.27 g/m*3 7.3 C 0 km/h
1912 02-03-2003 07:02:11 7.2 C 7.14 g/m*3 7.2 C 0 km/h
1913 02-03-2003 07:02:37 7.2 C 7.14 g/m*3 7.2 C 0 km/h
1914 02-03-2003 07:08:11 7.3 C 7.19 g/m*3 7.3 C 0 km/h
1915 02-03-2003 07:08:37 7.3 C 7.19 g/m*3 7.3 C 0 km/h
1916 02-03-2003 07:14:11 7.3 C 7.27 g/m*3 7.3 C 0 km/h
1917 02-03-2003 07:14:37 7.3 C 7.27 g/m*3 7.3 C 0 km/h
1918 02-03-2003 07:20:11 7.4 C 7.32 g/m*3 7.4 C 0 km/h
1919 02-03-2003 07:20:37 7.4 C 7.32 g/m*3 7.4 C 0 km/h
1920 02-03-2003 07:26:11 7.3 C 7.27 g/m*3 7.3 C 0 km/h
1921 02-03-2003 07:26:37 7.3 C 7.27 g/m*3 7.3 C 0 km/h
1922 02-03-2003 07:32:11 7.4 C 7.32 g/m*3 7.4 C 0 km/h
1923 02-03-2003 07:32:37 7.4 C 7.32 g/m*3 7.4 C 0 km/h
1924 02-03-2003 07:38:11 7.3 C 7.27 g/m*3 7.3 C 0 km/h
1925 02-03-2003 07:38:37 7.3 C 7.27 g/m*3 7.3 C 0 km/h
Sensor: Nr:Datum:Temp:Abs-Feuchte:Windchill:Wind:
Aussen-T/F 1926 02-03-2003 07:44:11 7.4 C 7.32 g/m*3 7.4 C 0 km/h
1927 02-03-2003 07:44:37 7.4 C 7.32 g/m*3 7.4 C 0 km/h
1928 02-03-2003 07:50:11 7.4 C 7.32 g/m*3 7.4 C 0 km/h
1929 02-03-2003 07:50:37 7.4 C 7.32 g/m*3 7.4 C 0 km/h
1930 02-03-2003 07:56:11 7.5 C 7.36 g/m*3 7.5 C 0 km/h
1931 02-03-2003 07:56:37 7.5 C 7.36 g/m*3 7.5 C 0 km/h
1932 02-03-2003 08:02:11 7.5 C 7.36 g/m*3 7.5 C 0 km/h
1933 02-03-2003 08:02:37 7.5 C 7.36 g/m*3 7.5 C 0 km/h
1934 02-03-2003 08:08:11 7.3 C 7.19 g/m*3 7.3 C 0 km/h
1935 02-03-2003 08:08:37 7.3 C 7.19 g/m*3 7.3 C 0 km/h
1936 02-03-2003 08:14:11 7.5 C 7.28 g/m*3 7.5 C 0 km/h
1937 02-03-2003 08:14:37 7.5 C 7.28 g/m*3 7.5 C 0 km/h
1938 02-03-2003 08:20:11 7.5 C 7.28 g/m*3 7.5 C 0 km/h
1939 02-03-2003 08:20:37 7.5 C 7.28 g/m*3 7.5 C 0 km/h
1940 02-03-2003 08:26:11 7.4 C 7.24 g/m*3 7.4 C 0 km/h
1941 02-03-2003 08:26:37 7.4 C 7.24 g/m*3 7.4 C 0 km/h
1942 02-03-2003 08:32:11 7.5 C 7.28 g/m*3 7.5 C 0 km/h
1943 02-03-2003 08:32:37 7.5 C 7.28 g/m*3 7.5 C 0 km/h
1944 02-03-2003 08:38:11 7.6 C 7.33 g/m*3 7.6 C 0 km/h
1945 02-03-2003 08:38:37 7.6 C 7.33 g/m*3 7.6 C 0 km/h
1946 02-03-2003 08:44:11 7.6 C 7.33 g/m*3 7.6 C 0 km/h
1947 02-03-2003 08:44:37 7.6 C 7.33 g/m*3 7.6 C 0 km/h
1948 02-03-2003 08:50:11 7.7 C 7.38 g/m*3 7.7 C 0 km/h
1949 02-03-2003 08:50:37 7.7 C 7.38 g/m*3 7.7 C 0 km/h
1950 02-03-2003 08:56:11 7.8 C 7.43 g/m*3 7.8 C 0 km/h
Sensor: Nr:Datum:Temp:Abs-Feuchte:Windchill:Wind:
Aussen-T/F 1951 02-03-2003 08:56:37 7.8 C 7.43 g/m*3 7.8 C 0 km/h
1952 02-03-2003 09:02:11 7.7 C 7.38 g/m*3 7.7 C 0 km/h
1953 02-03-2003 09:02:37 7.7 C 7.38 g/m*3 7.7 C 0 km/h
1954 02-03-2003 09:08:11 7.9 C 7.47 g/m*3 7.9 C 0 km/h
1955 02-03-2003 09:08:37 7.9 C 7.47 g/m*3 7.9 C 0 km/h
1956 02-03-2003 09:14:11 8.1 C 7.57 g/m*3 8.1 C 0 km/h
1957 02-03-2003 09:14:37 8.1 C 7.57 g/m*3 8.1 C 0 km/h
1958 02-03-2003 09:20:11 8.2 C 7.62 g/m*3 8.2 C 0 km/h
1959 02-03-2003 09:20:37 8.2 C 7.62 g/m*3 8.2 C 0 km/h
1960 02-03-2003 09:26:11 8.6 C 7.82 g/m*3 8.6 C 0 km/h
1961 02-03-2003 09:26:37 8.6 C 7.82 g/m*3 8.6 C 0 km/h
1962 02-03-2003 09:32:11 8.8 C 7.92 g/m*3 8.8 C 0 km/h
1963 02-03-2003 09:32:37 8.8 C 7.92 g/m*3 8.8 C 0 km/h
1964 02-03-2003 09:38:11 9 C 7.85 g/m*3 9 C 0 km/h
1965 02-03-2003 09:38:37 9 C 7.85 g/m*3 9 C 0 km/h
1966 02-03-2003 09:44:11 9.1 C 7.9 g/m*3 9.1 C 0 km/h
1967 02-03-2003 09:44:37 9.1 C 7.9 g/m*3 9.1 C 0 km/h
1968 02-03-2003 09:50:11 9.5 C 8.1 g/m*3 9.5 C 0 km/h
1969 02-03-2003 09:50:37 9.5 C 8.1 g/m*3 9.5 C 0 km/h
1970 02-03-2003 09:56:11 9.6 C 8.06 g/m*3 9.6 C 0 km/h
1971 02-03-2003 09:56:37 9.6 C 8.06 g/m*3 9.6 C 0 km/h
1972 02-03-2003 10:02:11 10.1 C 7.66 g/m*3 10.1 C 0 km/h
1973 02-03-2003 10:02:37 10.1 C 7.66 g/m*3 10.1 C 0 km/h
1974 02-03-2003 10:08:11 10.2 C 7.52 g/m*3 10.2 C 0 km/h
1975 02-03-2003 10:08:37 10.2 C 7.52 g/m*3 10.2 C 0 km/h
Sensor: Nr:Datum:Temp:Abs-Feuchte:Windchill:Wind:
Aussen-T/F 1976 02-03-2003 10:14:11 10.4 C 7.61 g/m*3 10.4 C 0 km/h
1977 02-03-2003 10:14:37 10.4 C 7.61 g/m*3 10.4 C 0 km/h
1978 02-03-2003 10:20:11 10.8 C 7.81 g/m*3 10.8 C 0 km/h
1979 02-03-2003 10:20:37 10.8 C 7.81 g/m*3 10.8 C 0 km/h
1980 02-03-2003 10:26:11 11.1 C 7.96 g/m*3 11.1 C 0 km/h
1981 02-03-2003 10:26:37 11.1 C 7.96 g/m*3 11.1 C 0 km/h
1982 02-03-2003 10:32:11 11.3 C 7.65 g/m*3 11.3 C 0 km/h
1983 02-03-2003 10:32:37 11.3 C 7.65 g/m*3 11.3 C 0 km/h
1984 02-03-2003 10:38:11 11.4 C 7.6 g/m*3 11.4 C 0 km/h
1985 02-03-2003 10:38:37 11.4 C 7.6 g/m*3 11.4 C 0 km/h
1986 02-03-2003 10:44:11 11.5 C 7.44 g/m*3 11.5 C 0 km/h
1987 02-03-2003 10:44:37 11.5 C 7.44 g/m*3 11.5 C 0 km/h
1988 02-03-2003 10:50:11 11.4 C 7.08 g/m*3 11.4 C 0 km/h
1989 02-03-2003 10:50:37 11.4 C 7.08 g/m*3 11.4 C 0 km/h
1990 02-03-2003 10:56:11 11.1 C 6.85 g/m*3 11.1 C 0 km/h
1991 02-03-2003 10:56:37 11.1 C 6.85 g/m*3 11.1 C 0 km/h
1992 02-03-2003 11:02:11 11.2 C 6.99 g/m*3 11.2 C 0 km/h
1993 02-03-2003 11:02:37 11.2 C 6.99 g/m*3 11.2 C 0 km/h
1994 02-03-2003 11:08:11 11.2 C 6.89 g/m*3 11.2 C 0 km/h
1995 02-03-2003 11:08:37 11.2 C 6.89 g/m*3 11.2 C 0 km/h
1996 02-03-2003 11:14:11 11.2 C 6.89 g/m*3 11.2 C 0 km/h
1997 02-03-2003 11:14:37 11.2 C 6.89 g/m*3 11.2 C 0 km/h
1998 02-03-2003 11:20:11 11.1 C 6.75 g/m*3 11.1 C 0 km/h
1999 02-03-2003 11:20:37 11.1 C 6.75 g/m*3 11.1 C 0 km/h
2000 02-03-2003 11:26:11 11.2 C 6.79 g/m*3 11.2 C 0 km/h
Sensor: Nr:Datum:Temp:Abs-Feuchte:Windchill:Wind:
Aussen-T/F 2001 02-03-2003 11:26:37 11.2 C 6.79 g/m*3 11.2 C 0 km/h
2002 02-03-2003 11:32:11 11.3 C 6.73 g/m*3 11.3 C 0 km/h
2003 02-03-2003 11:32:37 11.3 C 6.73 g/m*3 11.3 C 0 km/h
2004 02-03-2003 11:38:11 11.5 C 6.92 g/m*3 11.5 C 0 km/h
2005 02-03-2003 11:38:37 11.5 C 6.92 g/m*3 11.5 C 0 km/h
2006 02-03-2003 11:44:11 11.8 C 7.05 g/m*3 11.8 C 0 km/h
2007 02-03-2003 11:44:37 11.8 C 7.05 g/m*3 11.8 C 0 km/h
2008 02-03-2003 11:50:11 11.9 C 6.99 g/m*3 11.9 C 0 km/h
2009 02-03-2003 11:50:37 11.9 C 6.99 g/m*3 11.9 C 0 km/h
2010 02-03-2003 11:56:11 11.7 C 6.9 g/m*3 11.7 C 0 km/h
2011 02-03-2003 11:56:37 11.7 C 6.9 g/m*3 11.7 C 0 km/h
2012 02-03-2003 12:02:37 11.3 C 6.94 g/m*3 11.3 C 0 km/h
2013 02-03-2003 12:02:54 11.3 C 6.94 g/m*3 11.3 C 0 km/h
2014 02-03-2003 12:08:37 11 C 7.01 g/m*3 11 C 0 km/h
2015 02-03-2003 12:08:54 11 C 7.01 g/m*3 11 C 0 km/h
2016 02-03-2003 12:14:37 10.4 C 7.04 g/m*3 10.4 C 0 km/h
2017 02-03-2003 12:14:54 10.4 C 7.04 g/m*3 10.4 C 0 km/h
2018 02-03-2003 12:20:37 10.2 C 7.23 g/m*3 10.2 C 0 km/h
2019 02-03-2003 12:20:54 10.2 C 7.23 g/m*3 10.2 C 0 km/h
2020 02-03-2003 12:26:37 10 C 7.24 g/m*3 10 C 0 km/h
2021 02-03-2003 12:26:54 10 C 7.24 g/m*3 10 C 0 km/h
2022 02-03-2003 12:32:37 9.6 C 7.24 g/m*3 9.6 C 0 km/h
2023 02-03-2003 12:32:54 9.6 C 7.24 g/m*3 9.6 C 0 km/h
2024 02-03-2003 12:38:37 9.7 C 7.56 g/m*3 9.7 C 0 km/h
2025 02-03-2003 12:38:54 9.7 C 7.56 g/m*3 9.7 C 0 km/h
Sensor: Nr:Datum:Temp:Abs-Feuchte:Windchill:Wind:
Aussen-T/F 2026 02-03-2003 12:44:37 10.1 C 7.75 g/m*3 10.1 C 0 km/h
2027 02-03-2003 12:44:54 10.1 C 7.75 g/m*3 10.1 C 0 km/h
2028 02-03-2003 12:50:37 10.4 C 7.81 g/m*3 10.4 C 0 km/h
2029 02-03-2003 12:50:54 10.4 C 7.81 g/m*3 10.4 C 0 km/h
2030 02-03-2003 12:56:37 10.5 C 7.66 g/m*3 10.5 C 0 km/h
2031 02-03-2003 12:56:54 10.5 C 7.66 g/m*3 10.5 C 0 km/h
2032 02-03-2003 13:02:37 10.6 C 7.61 g/m*3 10.6 C 0 km/h
2033 02-03-2003 13:02:54 10.6 C 7.61 g/m*3 10.6 C 0 km/h
2034 02-03-2003 13:08:37 10.6 C 7.42 g/m*3 10.6 C 0 km/h
2035 02-03-2003 13:08:54 10.6 C 7.42 g/m*3 10.6 C 0 km/h
2036 02-03-2003 13:14:37 10.7 C 7.27 g/m*3 10.7 C 0 km/h
2037 02-03-2003 13:14:54 10.7 C 7.27 g/m*3 10.7 C 0 km/h
2038 02-03-2003 13:20:37 11 C 7.61 g/m*3 11 C 0 km/h
2039 02-03-2003 13:20:54 11 C 7.61 g/m*3 11 C 0 km/h
2040 02-03-2003 13:26:37 11.1 C 7.25 g/m*3 11.1 C 0 km/h
2041 02-03-2003 13:26:54 11.1 C 7.25 g/m*3 11.1 C 0 km/h
2042 02-03-2003 13:32:37 11.1 C 7.25 g/m*3 11.1 C 0 km/h
2043 02-03-2003 13:32:54 11.1 C 7.25 g/m*3 11.1 C 0 km/h
2044 02-03-2003 13:38:37 11 C 7.21 g/m*3 11 C 0 km/h
2045 02-03-2003 13:38:54 11 C 7.21 g/m*3 11 C 0 km/h
2046 02-03-2003 13:44:37 11.1 C 7.55 g/m*3 11.1 C 0 km/h
2047 02-03-2003 13:44:54 11.1 C 7.55 g/m*3 11.1 C 0 km/h
2048 02-03-2003 13:50:37 10.8 C 7.61 g/m*3 10.8 C 0 km/h
2049 02-03-2003 13:50:54 10.8 C 7.61 g/m*3 10.8 C 0 km/h
2050 02-03-2003 13:56:37 10.6 C 7.52 g/m*3 10.6 C 0 km/h
Sensor: Nr:Datum:Temp:Abs-Feuchte:Windchill:Wind:
Aussen-T/F 2051 02-03-2003 13:56:54 10.6 C 7.52 g/m*3 10.6 C 0 km/h
2052 02-03-2003 14:02:37 10.2 C 7.33 g/m*3 10.2 C 0 km/h
2053 02-03-2003 14:02:54 10.2 C 7.33 g/m*3 10.2 C 0 km/h
2054 02-03-2003 14:08:37 10.2 C 7.33 g/m*3 10.2 C 0 km/h
2055 02-03-2003 14:08:54 10.2 C 7.33 g/m*3 10.2 C 0 km/h
2056 02-03-2003 14:14:37 9.9 C 7.66 g/m*3 9.9 C 0 km/h
2057 02-03-2003 14:14:54 9.9 C 7.66 g/m*3 9.9 C 0 km/h
2058 02-03-2003 14:20:37 9.7 C 7.65 g/m*3 9.7 C 0 km/h
2059 02-03-2003 14:20:54 9.7 C 7.65 g/m*3 9.7 C 0 km/h
2060 02-03-2003 14:26:37 10 C 7.8 g/m*3 10 C 0 km/h
2061 02-03-2003 14:26:54 10 C 7.8 g/m*3 10 C 0 km/h
2062 02-03-2003 14:32:37 10.1 C 7.56 g/m*3 10.1 C 0 km/h
2063 02-03-2003 14:32:54 10.1 C 7.56 g/m*3 10.1 C 0 km/h
2064 02-03-2003 14:38:37 10.1 C 7.28 g/m*3 10.1 C 0 km/h
2065 02-03-2003 14:38:54 10.1 C 7.28 g/m*3 10.1 C 0 km/h
2066 02-03-2003 14:44:37 9.8 C 7.24 g/m*3 9.8 C 0 km/h
2067 02-03-2003 14:44:54 9.8 C 7.24 g/m*3 9.8 C 0 km/h
2068 02-03-2003 14:50:37 9.6 C 7.15 g/m*3 9.6 C 0 km/h
2069 02-03-2003 14:50:54 9.6 C 7.15 g/m*3 9.6 C 0 km/h
2070 02-03-2003 14:56:37 9.6 C 7.24 g/m*3 9.6 C 0 km/h
2071 02-03-2003 14:56:54 9.6 C 7.24 g/m*3 9.6 C 0 km/h
2072 02-03-2003 15:02:37 9.4 C 7.05 g/m*3 9.4 C 0 km/h
2073 02-03-2003 15:02:54 9.4 C 7.05 g/m*3 9.4 C 0 km/h
2074 02-03-2003 15:08:10 9.5 C 7.1 g/m*3 9.5 C 0 km/h
2075 02-03-2003 15:08:37 9.5 C 7.1 g/m*3 9.5 C 0 km/h
Sensor: Nr:Datum:Temp:Abs-Feuchte:Windchill:Wind:
Aussen-T/F 2076 02-03-2003 15:14:10 9.6 C 7.33 g/m*3 9.6 C 0 km/h
2077 02-03-2003 15:14:37 9.6 C 7.33 g/m*3 9.6 C 0 km/h
2078 02-03-2003 15:20:10 9.4 C 6.87 g/m*3 9.4 C 0 km/h
2079 02-03-2003 15:20:37 9.4 C 6.87 g/m*3 9.4 C 0 km/h
2080 02-03-2003 15:26:10 9.5 C 6.64 g/m*3 9.5 C 0 km/h
2081 02-03-2003 15:26:37 9.5 C 6.64 g/m*3 9.5 C 0 km/h
2082 02-03-2003 15:32:10 9.7 C 6.64 g/m*3 9.7 C 0 km/h
2083 02-03-2003 15:32:37 9.7 C 6.64 g/m*3 9.7 C 0 km/h
2084 02-03-2003 15:38:10 9.6 C 6.5 g/m*3 9.6 C 0 km/h
2085 02-03-2003 15:38:37 9.6 C 6.5 g/m*3 9.6 C 0 km/h
2086 02-03-2003 15:44:10 9.9 C 6.82 g/m*3 9.9 C 0 km/h
2087 02-03-2003 15:44:37 9.9 C 6.82 g/m*3 9.9 C 0 km/h
2088 02-03-2003 15:50:10 10 C 6.58 g/m*3 10 C 0 km/h
2089 02-03-2003 15:50:37 10 C 6.58 g/m*3 10 C 0 km/h
2090 02-03-2003 15:56:10 10 C 6.58 g/m*3 10 C 0 km/h
2091 02-03-2003 15:56:37 10 C 6.58 g/m*3 10 C 0 km/h
2092 02-03-2003 16:02:02 9.9 C 6.54 g/m*3 9.9 C 0 km/h
2093 02-03-2003 16:02:37 9.9 C 6.54 g/m*3 9.9 C 0 km/h
2094 02-03-2003 16:08:02 9.7 C 6.45 g/m*3 9.7 C 0 km/h
2095 02-03-2003 16:08:37 9.7 C 6.45 g/m*3 9.7 C 0 km/h
2096 02-03-2003 16:14:02 9.7 C 6.64 g/m*3 9.7 C 0 km/h
2097 02-03-2003 16:14:37 9.7 C 6.64 g/m*3 9.7 C 0 km/h
2098 02-03-2003 16:20:02 9.7 C 6.55 g/m*3 9.7 C 0 km/h
2099 02-03-2003 16:20:37 9.7 C 6.55 g/m*3 9.7 C 0 km/h
2100 02-03-2003 16:26:02 9.7 C 6.55 g/m*3 9.7 C 0 km/h
Sensor: Nr:Datum:Temp:Abs-Feuchte:Windchill:Wind:
Aussen-T/F 2101 02-03-2003 16:26:37 9.7 C 6.55 g/m*3 9.7 C 0 km/h
2102 02-03-2003 16:32:02 9.8 C 6.59 g/m*3 9.8 C 0 km/h
2103 02-03-2003 16:32:37 9.8 C 6.59 g/m*3 9.8 C 0 km/h
2104 02-03-2003 16:38:02 10.1 C 6.52 g/m*3 10.1 C 0 km/h
2105 02-03-2003 16:38:37 10.1 C 6.52 g/m*3 10.1 C 0 km/h
2106 02-03-2003 16:44:02 10.1 C 6.34 g/m*3 10.1 C 0 km/h
2107 02-03-2003 16:44:37 10.1 C 6.34 g/m*3 10.1 C 0 km/h
2108 02-03-2003 16:50:02 10 C 6.3 g/m*3 10 C 0 km/h
2109 02-03-2003 16:50:37 10 C 6.3 g/m*3 10 C 0 km/h
2110 02-03-2003 16:56:02 9.9 C 6.44 g/m*3 9.9 C 0 km/h
2111 02-03-2003 16:56:37 9.9 C 6.44 g/m*3 9.9 C 0 km/h
2112 02-03-2003 17:02:02 9.8 C 6.4 g/m*3 9.8 C 0 km/h
2113 02-03-2003 17:02:37 9.8 C 6.4 g/m*3 9.8 C 0 km/h
2114 02-03-2003 17:08:02 9.7 C 6.55 g/m*3 9.7 C 0 km/h
2115 02-03-2003 17:08:37 9.7 C 6.55 g/m*3 9.7 C 0 km/h
2116 02-03-2003 17:14:02 9.6 C 6.32 g/m*3 9.6 C 0 km/h
2117 02-03-2003 17:14:37 9.6 C 6.32 g/m*3 9.6 C 0 km/h
2118 02-03-2003 17:20:02 9.6 C 6.32 g/m*3 9.6 C 0 km/h
2119 02-03-2003 17:20:37 9.6 C 6.32 g/m*3 9.6 C 0 km/h
2120 02-03-2003 17:26:02 9.5 C 6.28 g/m*3 9.5 C 0 km/h
2121 02-03-2003 17:26:37 9.5 C 6.28 g/m*3 9.5 C 0 km/h
2122 02-03-2003 17:32:02 9.3 C 6.2 g/m*3 9.3 C 0 km/h
2123 02-03-2003 17:32:37 9.3 C 6.2 g/m*3 9.3 C 0 km/h
2124 02-03-2003 17:38:02 9.2 C 6.16 g/m*3 9.2 C 0 km/h
2125 02-03-2003 17:38:37 9.2 C 6.16 g/m*3 9.2 C 0 km/h
Sensor: Nr:Datum:Temp:Abs-Feuchte:Windchill:Wind:
Aussen-T/F 2126 02-03-2003 17:44:32 9.3 C 6.2 g/m*3 9.3 C 0 km/h
2127 02-03-2003 17:44:37 9.3 C 6.2 g/m*3 9.3 C 0 km/h
2128 02-03-2003 17:50:32 9.3 C 6.2 g/m*3 9.3 C 0 km/h
2129 02-03-2003 17:50:37 9.3 C 6.2 g/m*3 9.3 C 0 km/h
2130 02-03-2003 17:56:37 9.2 C 6.16 g/m*3 9.2 C 0 km/h
2131 02-03-2003 18:02:37 9.1 C 6.03 g/m*3 9.1 C 0 km/h
2132 02-03-2003 18:08:37 9 C 5.99 g/m*3 9 C 0 km/h
2133 02-03-2003 18:14:37 8.9 C 6.04 g/m*3 8.9 C 0 km/h
2134 02-03-2003 18:20:37 8.6 C 5.93 g/m*3 8.6 C 0 km/h
2135 02-03-2003 18:26:37 8.3 C 5.98 g/m*3 8.3 C 0 km/h
2136 02-03-2003 18:32:37 8.2 C 5.95 g/m*3 8.2 C 0 km/h
2137 02-03-2003 18:38:37 8.1 C 5.91 g/m*3 8.1 C 0 km/h
2138 02-03-2003 18:44:37 8 C 5.87 g/m*3 8 C 0 km/h
2139 02-03-2003 18:50:37 7.9 C 6 g/m*3 7.9 C 0 km/h
2140 02-03-2003 18:56:37 7.8 C 6.04 g/m*3 7.8 C 0 km/h
2141 02-03-2003 19:02:37 7.7 C 6 g/m*3 7.7 C 0 km/h
2142 02-03-2003 19:08:37 7.8 C 5.96 g/m*3 7.8 C 0 km/h
2143 02-03-2003 19:14:37 7.8 C 6.04 g/m*3 7.8 C 0 km/h
2144 02-03-2003 19:20:37 7.7 C 6 g/m*3 7.7 C 0 km/h
2145 02-03-2003 19:26:37 7.5 C 6 g/m*3 7.5 C 0 km/h
2146 02-03-2003 19:32:37 7.5 C 6 g/m*3 7.5 C 0 km/h
2147 02-03-2003 19:38:37 7.4 C 6.04 g/m*3 7.4 C 0 km/h
2148 02-03-2003 19:44:37 7.5 C 6 g/m*3 7.5 C 0 km/h
2149 02-03-2003 19:50:37 7.7 C 6 g/m*3 7.7 C 0 km/h
2150 02-03-2003 19:56:37 7.6 C 5.88 g/m*3 7.6 C 0 km/h
Sensor: Nr:Datum:Temp:Abs-Feuchte:Windchill:Wind:
Aussen-T/F 2151 02-03-2003 20:02:37 7.5 C 5.92 g/m*3 7.5 C 0 km/h
2152 02-03-2003 20:08:37 7.5 C 5.92 g/m*3 7.5 C 0 km/h
2153 02-03-2003 20:14:37 7.5 C 5.92 g/m*3 7.5 C 0 km/h
2154 02-03-2003 20:20:37 7.4 C 5.88 g/m*3 7.4 C 0 km/h
2155 02-03-2003 20:26:37 7.3 C 5.85 g/m*3 7.3 C 0 km/h
2156 02-03-2003 20:32:37 7 C 5.81 g/m*3 7 C 0 km/h
2157 02-03-2003 20:38:37 6.9 C 5.85 g/m*3 6.9 C 0 km/h
2158 02-03-2003 20:44:37 6.6 C 5.81 g/m*3 6.6 C 0 km/h
2159 02-03-2003 20:51:11 6.3 C 5.77 g/m*3 6.3 C 0 km/h
2160 02-03-2003 20:57:11 6 C 5.73 g/m*3 6 C 0 km/h
2161 02-03-2003 21:03:11 5.9 C 5.77 g/m*3 5.9 C 0 km/h
2162 02-03-2003 21:09:11 5.9 C 5.84 g/m*3 5.9 C 0 km/h
2163 02-03-2003 21:15:11 6 C 5.81 g/m*3 6 C 0 km/h
2164 02-03-2003 21:21:11 6 C 5.81 g/m*3 6 C 0 km/h
2165 02-03-2003 21:27:11 5.9 C 5.84 g/m*3 5.9 C 0 km/h
2166 02-03-2003 21:33:11 5.9 C 5.84 g/m*3 5.9 C 0 km/h
2167 02-03-2003 21:39:11 6 C 5.81 g/m*3 6 C 0 km/h
2168 02-03-2003 21:45:11 6 C 5.81 g/m*3 6 C 0 km/h
2169 02-03-2003 21:51:11 5.9 C 5.84 g/m*3 5.9 C 0 km/h
2170 02-03-2003 21:57:11 5.9 C 5.91 g/m*3 5.9 C 0 km/h
2171 02-03-2003 22:03:11 6 C 5.88 g/m*3 6 C 0 km/h
2172 02-03-2003 22:09:11 6.3 C 5.92 g/m*3 6.3 C 0 km/h
2173 02-03-2003 22:15:11 6.7 C 6 g/m*3 6.7 C 0 km/h
2174 02-03-2003 22:21:11 6.7 C 5.93 g/m*3 6.7 C 0 km/h
2175 02-03-2003 22:27:11 6.7 C 5.93 g/m*3 6.7 C 0 km/h
Sensor: Nr:Datum:Temp:Abs-Feuchte:Windchill:Wind:
Aussen-T/F 2176 02-03-2003 22:39:11 6.8 C 5.89 g/m*3 6.8 C 0 km/h
2177 02-03-2003 22:45:11 6.9 C 5.93 g/m*3 6.9 C 0 km/h
2178 02-03-2003 22:51:11 6.9 C 5.93 g/m*3 6.9 C 0 km/h
2179 02-03-2003 22:57:11 6.8 C 5.81 g/m*3 6.8 C 0 km/h
2180 02-03-2003 23:03:11 6.7 C 5.85 g/m*3 6.7 C 0 km/h
2181 02-03-2003 23:09:11 6.8 C 5.89 g/m*3 6.8 C 0 km/h
2182 02-03-2003 23:15:11 6.8 C 5.89 g/m*3 6.8 C 0 km/h
2183 02-03-2003 23:21:11 6.8 C 5.89 g/m*3 6.8 C 0 km/h
2184 02-03-2003 23:27:11 6.7 C 5.85 g/m*3 6.7 C 0 km/h
2185 02-03-2003 23:33:11 6.7 C 5.85 g/m*3 6.7 C 0 km/h
2186 02-03-2003 23:39:11 6.7 C 5.85 g/m*3 6.7 C 0 km/h
2187 02-03-2003 23:45:11 6.7 C 5.93 g/m*3 6.7 C 0 km/h
2188 02-03-2003 23:51:11 6.7 C 5.93 g/m*3 6.7 C 0 km/h
2189 02-03-2003 23:57:11 6.5 C 5.85 g/m*3 6.5 C 0 km/h

Legende:
   Min
   Max


Maximal/Minimal-Werte vom 26.02.2003 - 02.03.2003

Sensor Min Max Avg
Temp
(Aussen-T/F)
-4.8 °C
26-02-2003  07:10:10
18.2 °C
27-02-2003  15:53:10
6.54 °C
Abs-Feuchte
(Aussen-T/F)
2.54 g/m*3
26-02-2003  06:58:10
8.1 g/m*3
02-03-2003  09:50:11
5.38 g/m*3
Windchill
(Aussen-T/F)
-4.8 C
26-02-2003  07:10:10
18.2 C
27-02-2003  15:53:10
6.54 C

Die Daten stammen von einer Davis Vantage Pro 2 Wetter-Station und werden unter Linux mit der Software wview2wettercgi und aufbereitet. Alle Angaben erfolgen ohne Gewähr für ihre Vollständigkeit oder Richtigkeit.
Kontakt: Rainer Krienke krienke@uni-koblenz.de . Meine Webseiten an der Uni Koblenz oder privat.
Version: $Revision: 0.78 $